<?xml version="1.0" encoding="UTF-8" standalone="no" ?>
<gpx xmlns="http://www.topografix.com/GPX/1/1" xmlns:xsi="http://www.w3.org/2001/XMLSchema-instance" xsi:schemaLocation="http://www.topografix.com/GPX/1/1 http://www.topografix.com/GPX/1/1/gpx.xsd" version="1.1" creator="VisuGPX - https://www.visugpx.com">
  <metadata>
    <name>Le Môle</name>
    <desc><![CDATA[Ascension du Môle au départ de Marignier.]]></desc>
  </metadata>
  <trk>
    <name><![CDATA[Hiking 7/15/15 7:02 am]]></name>
    <trkseg>
      <trkpt lat="46.09172" lon="6.50129">
        <ele>532.6</ele>
        <time>2015-07-15T05:02:20Z</time>
      </trkpt>
      <trkpt lat="46.09175" lon="6.50118">
        <ele>533.2</ele>
        <time>2015-07-15T05:02:42Z</time>
      </trkpt>
      <trkpt lat="46.09179" lon="6.50106">
        <ele>533.9</ele>
        <time>2015-07-15T05:02:48Z</time>
      </trkpt>
      <trkpt lat="46.09184" lon="6.50093">
        <ele>534.4</ele>
        <time>2015-07-15T05:02:55Z</time>
      </trkpt>
      <trkpt lat="46.09189" lon="6.50083">
        <ele>534.7</ele>
        <time>2015-07-15T05:03:01Z</time>
      </trkpt>
      <trkpt lat="46.09193" lon="6.5007">
        <ele>535</ele>
        <time>2015-07-15T05:03:08Z</time>
      </trkpt>
      <trkpt lat="46.09197" lon="6.5006">
        <ele>535.9</ele>
        <time>2015-07-15T05:03:15Z</time>
      </trkpt>
      <trkpt lat="46.09199" lon="6.50046">
        <ele>536.3</ele>
        <time>2015-07-15T05:03:21Z</time>
      </trkpt>
      <trkpt lat="46.09196" lon="6.50033">
        <ele>536.2</ele>
        <time>2015-07-15T05:03:26Z</time>
      </trkpt>
      <trkpt lat="46.09193" lon="6.5002">
        <ele>536.7</ele>
        <time>2015-07-15T05:03:32Z</time>
      </trkpt>
      <trkpt lat="46.09192" lon="6.50008">
        <ele>537.2</ele>
        <time>2015-07-15T05:03:37Z</time>
      </trkpt>
      <trkpt lat="46.09189" lon="6.49997">
        <ele>537.3</ele>
        <time>2015-07-15T05:03:42Z</time>
      </trkpt>
      <trkpt lat="46.09184" lon="6.49985">
        <ele>537.3</ele>
        <time>2015-07-15T05:03:48Z</time>
      </trkpt>
      <trkpt lat="46.09182" lon="6.49974">
        <ele>537.2</ele>
        <time>2015-07-15T05:03:54Z</time>
      </trkpt>
      <trkpt lat="46.09181" lon="6.49962">
        <ele>537.1</ele>
        <time>2015-07-15T05:04:00Z</time>
      </trkpt>
      <trkpt lat="46.0918" lon="6.49949">
        <ele>537</ele>
        <time>2015-07-15T05:04:06Z</time>
      </trkpt>
      <trkpt lat="46.09184" lon="6.49937">
        <ele>536.9</ele>
        <time>2015-07-15T05:04:13Z</time>
      </trkpt>
      <trkpt lat="46.09182" lon="6.49925">
        <ele>536.9</ele>
        <time>2015-07-15T05:04:20Z</time>
      </trkpt>
      <trkpt lat="46.0918" lon="6.49912">
        <ele>536.9</ele>
        <time>2015-07-15T05:04:28Z</time>
      </trkpt>
      <trkpt lat="46.09176" lon="6.49901">
        <ele>537</ele>
        <time>2015-07-15T05:04:34Z</time>
      </trkpt>
      <trkpt lat="46.09175" lon="6.49887">
        <ele>537.3</ele>
        <time>2015-07-15T05:04:40Z</time>
      </trkpt>
      <trkpt lat="46.09176" lon="6.49874">
        <ele>537.6</ele>
        <time>2015-07-15T05:04:45Z</time>
      </trkpt>
      <trkpt lat="46.09178" lon="6.49863">
        <ele>538</ele>
        <time>2015-07-15T05:04:51Z</time>
      </trkpt>
      <trkpt lat="46.09182" lon="6.49851">
        <ele>538.4</ele>
        <time>2015-07-15T05:04:58Z</time>
      </trkpt>
      <trkpt lat="46.09183" lon="6.49839">
        <ele>538.9</ele>
        <time>2015-07-15T05:05:05Z</time>
      </trkpt>
      <trkpt lat="46.09186" lon="6.49827">
        <ele>539.4</ele>
        <time>2015-07-15T05:05:19Z</time>
      </trkpt>
      <trkpt lat="46.09189" lon="6.49816">
        <ele>539.9</ele>
        <time>2015-07-15T05:05:27Z</time>
      </trkpt>
      <trkpt lat="46.09192" lon="6.49805">
        <ele>540.5</ele>
        <time>2015-07-15T05:05:35Z</time>
      </trkpt>
      <trkpt lat="46.09196" lon="6.49791">
        <ele>541.1</ele>
        <time>2015-07-15T05:05:55Z</time>
      </trkpt>
      <trkpt lat="46.09195" lon="6.49772">
        <ele>541.8</ele>
        <time>2015-07-15T05:06:18Z</time>
      </trkpt>
      <trkpt lat="46.09197" lon="6.49759">
        <ele>542.5</ele>
        <time>2015-07-15T05:06:29Z</time>
      </trkpt>
      <trkpt lat="46.09195" lon="6.49747">
        <ele>543.1</ele>
        <time>2015-07-15T05:06:45Z</time>
      </trkpt>
      <trkpt lat="46.092" lon="6.49737">
        <ele>543.8</ele>
        <time>2015-07-15T05:06:57Z</time>
      </trkpt>
      <trkpt lat="46.09199" lon="6.49726">
        <ele>544.6</ele>
        <time>2015-07-15T05:07:14Z</time>
      </trkpt>
      <trkpt lat="46.09199" lon="6.49708">
        <ele>545.5</ele>
        <time>2015-07-15T05:07:37Z</time>
      </trkpt>
      <trkpt lat="46.09197" lon="6.49695">
        <ele>546.4</ele>
        <time>2015-07-15T05:07:48Z</time>
      </trkpt>
      <trkpt lat="46.092" lon="6.49684">
        <ele>547.3</ele>
        <time>2015-07-15T05:07:53Z</time>
      </trkpt>
      <trkpt lat="46.09201" lon="6.49672">
        <ele>548.2</ele>
        <time>2015-07-15T05:08:02Z</time>
      </trkpt>
      <trkpt lat="46.09197" lon="6.4966">
        <ele>549.3</ele>
        <time>2015-07-15T05:08:12Z</time>
      </trkpt>
      <trkpt lat="46.09195" lon="6.49647">
        <ele>550.3</ele>
        <time>2015-07-15T05:08:22Z</time>
      </trkpt>
      <trkpt lat="46.09189" lon="6.49636">
        <ele>551.5</ele>
        <time>2015-07-15T05:08:42Z</time>
      </trkpt>
      <trkpt lat="46.09187" lon="6.49623">
        <ele>552.8</ele>
        <time>2015-07-15T05:08:52Z</time>
      </trkpt>
      <trkpt lat="46.09182" lon="6.49611">
        <ele>554.1</ele>
        <time>2015-07-15T05:09:03Z</time>
      </trkpt>
      <trkpt lat="46.09177" lon="6.49598">
        <ele>555.3</ele>
        <time>2015-07-15T05:09:15Z</time>
      </trkpt>
      <trkpt lat="46.09177" lon="6.49585">
        <ele>556.5</ele>
        <time>2015-07-15T05:09:24Z</time>
      </trkpt>
      <trkpt lat="46.09179" lon="6.49567">
        <ele>557.5</ele>
        <time>2015-07-15T05:09:38Z</time>
      </trkpt>
      <trkpt lat="46.09185" lon="6.49558">
        <ele>558.6</ele>
        <time>2015-07-15T05:09:47Z</time>
      </trkpt>
      <trkpt lat="46.09188" lon="6.49547">
        <ele>559.6</ele>
        <time>2015-07-15T05:09:56Z</time>
      </trkpt>
      <trkpt lat="46.09193" lon="6.49538">
        <ele>560.5</ele>
        <time>2015-07-15T05:10:14Z</time>
      </trkpt>
      <trkpt lat="46.092" lon="6.49529">
        <ele>561.5</ele>
        <time>2015-07-15T05:10:26Z</time>
      </trkpt>
      <trkpt lat="46.09204" lon="6.49517">
        <ele>562.5</ele>
        <time>2015-07-15T05:10:40Z</time>
      </trkpt>
      <trkpt lat="46.09207" lon="6.49504">
        <ele>563.3</ele>
        <time>2015-07-15T05:10:47Z</time>
      </trkpt>
      <trkpt lat="46.0921" lon="6.49489">
        <ele>564</ele>
        <time>2015-07-15T05:11:00Z</time>
      </trkpt>
      <trkpt lat="46.09208" lon="6.49478">
        <ele>564.8</ele>
        <time>2015-07-15T05:11:09Z</time>
      </trkpt>
      <trkpt lat="46.09211" lon="6.49462">
        <ele>565.5</ele>
        <time>2015-07-15T05:11:24Z</time>
      </trkpt>
      <trkpt lat="46.09208" lon="6.4945">
        <ele>566.2</ele>
        <time>2015-07-15T05:11:36Z</time>
      </trkpt>
      <trkpt lat="46.09209" lon="6.49438">
        <ele>566.9</ele>
        <time>2015-07-15T05:11:46Z</time>
      </trkpt>
      <trkpt lat="46.09212" lon="6.49427">
        <ele>567.5</ele>
        <time>2015-07-15T05:11:58Z</time>
      </trkpt>
      <trkpt lat="46.09206" lon="6.49419">
        <ele>568.2</ele>
        <time>2015-07-15T05:12:09Z</time>
      </trkpt>
      <trkpt lat="46.09199" lon="6.49411">
        <ele>568.7</ele>
        <time>2015-07-15T05:12:14Z</time>
      </trkpt>
      <trkpt lat="46.09206" lon="6.49402">
        <ele>569.1</ele>
        <time>2015-07-15T05:12:24Z</time>
      </trkpt>
      <trkpt lat="46.09205" lon="6.4939">
        <ele>569.6</ele>
        <time>2015-07-15T05:12:31Z</time>
      </trkpt>
      <trkpt lat="46.09202" lon="6.49374">
        <ele>570.4</ele>
        <time>2015-07-15T05:12:47Z</time>
      </trkpt>
      <trkpt lat="46.09201" lon="6.49361">
        <ele>571.2</ele>
        <time>2015-07-15T05:12:58Z</time>
      </trkpt>
      <trkpt lat="46.09201" lon="6.49349">
        <ele>572.1</ele>
        <time>2015-07-15T05:13:07Z</time>
      </trkpt>
      <trkpt lat="46.09198" lon="6.49338">
        <ele>573.1</ele>
        <time>2015-07-15T05:13:23Z</time>
      </trkpt>
      <trkpt lat="46.092" lon="6.49326">
        <ele>574.1</ele>
        <time>2015-07-15T05:13:33Z</time>
      </trkpt>
      <trkpt lat="46.09198" lon="6.49309">
        <ele>575.3</ele>
        <time>2015-07-15T05:13:54Z</time>
      </trkpt>
      <trkpt lat="46.09192" lon="6.49297">
        <ele>576.8</ele>
        <time>2015-07-15T05:14:06Z</time>
      </trkpt>
      <trkpt lat="46.09192" lon="6.49285">
        <ele>578.3</ele>
        <time>2015-07-15T05:14:16Z</time>
      </trkpt>
      <trkpt lat="46.09191" lon="6.49269">
        <ele>580.2</ele>
        <time>2015-07-15T05:14:36Z</time>
      </trkpt>
      <trkpt lat="46.0919" lon="6.49257">
        <ele>582.1</ele>
        <time>2015-07-15T05:14:46Z</time>
      </trkpt>
      <trkpt lat="46.09192" lon="6.49246">
        <ele>584</ele>
        <time>2015-07-15T05:15:01Z</time>
      </trkpt>
      <trkpt lat="46.09189" lon="6.49231">
        <ele>585.7</ele>
        <time>2015-07-15T05:15:22Z</time>
      </trkpt>
      <trkpt lat="46.09184" lon="6.49221">
        <ele>587.3</ele>
        <time>2015-07-15T05:15:31Z</time>
      </trkpt>
      <trkpt lat="46.09182" lon="6.49205">
        <ele>589</ele>
        <time>2015-07-15T05:15:46Z</time>
      </trkpt>
      <trkpt lat="46.09178" lon="6.49188">
        <ele>590.5</ele>
        <time>2015-07-15T05:16:11Z</time>
      </trkpt>
      <trkpt lat="46.0918" lon="6.49173">
        <ele>592.1</ele>
        <time>2015-07-15T05:16:26Z</time>
      </trkpt>
      <trkpt lat="46.09179" lon="6.49156">
        <ele>593.7</ele>
        <time>2015-07-15T05:16:41Z</time>
      </trkpt>
      <trkpt lat="46.09177" lon="6.49145">
        <ele>595</ele>
        <time>2015-07-15T05:16:50Z</time>
      </trkpt>
      <trkpt lat="46.09176" lon="6.49133">
        <ele>596.3</ele>
        <time>2015-07-15T05:17:05Z</time>
      </trkpt>
      <trkpt lat="46.09178" lon="6.49121">
        <ele>597.3</ele>
        <time>2015-07-15T05:17:19Z</time>
      </trkpt>
      <trkpt lat="46.09176" lon="6.49105">
        <ele>598.2</ele>
        <time>2015-07-15T05:17:34Z</time>
      </trkpt>
      <trkpt lat="46.09177" lon="6.49093">
        <ele>599</ele>
        <time>2015-07-15T05:17:52Z</time>
      </trkpt>
      <trkpt lat="46.09175" lon="6.49076">
        <ele>599.9</ele>
        <time>2015-07-15T05:18:06Z</time>
      </trkpt>
      <trkpt lat="46.09177" lon="6.49061">
        <ele>600.7</ele>
        <time>2015-07-15T05:18:28Z</time>
      </trkpt>
      <trkpt lat="46.09175" lon="6.49044">
        <ele>601.5</ele>
        <time>2015-07-15T05:18:46Z</time>
      </trkpt>
      <trkpt lat="46.09179" lon="6.49033">
        <ele>602.2</ele>
        <time>2015-07-15T05:18:57Z</time>
      </trkpt>
      <trkpt lat="46.09182" lon="6.4902">
        <ele>602.9</ele>
        <time>2015-07-15T05:19:16Z</time>
      </trkpt>
      <trkpt lat="46.09182" lon="6.49007">
        <ele>603.3</ele>
        <time>2015-07-15T05:19:39Z</time>
      </trkpt>
      <trkpt lat="46.09178" lon="6.48995">
        <ele>603.8</ele>
        <time>2015-07-15T05:19:53Z</time>
      </trkpt>
      <trkpt lat="46.09181" lon="6.48978">
        <ele>604.2</ele>
        <time>2015-07-15T05:20:13Z</time>
      </trkpt>
      <trkpt lat="46.09186" lon="6.48969">
        <ele>604.5</ele>
        <time>2015-07-15T05:20:27Z</time>
      </trkpt>
      <trkpt lat="46.09192" lon="6.48961">
        <ele>605</ele>
        <time>2015-07-15T05:20:34Z</time>
      </trkpt>
      <trkpt lat="46.09188" lon="6.48943">
        <ele>605.5</ele>
        <time>2015-07-15T05:20:54Z</time>
      </trkpt>
      <trkpt lat="46.09188" lon="6.48931">
        <ele>605.9</ele>
        <time>2015-07-15T05:21:04Z</time>
      </trkpt>
      <trkpt lat="46.0919" lon="6.48918">
        <ele>606.4</ele>
        <time>2015-07-15T05:21:13Z</time>
      </trkpt>
      <trkpt lat="46.09187" lon="6.48907">
        <ele>606.9</ele>
        <time>2015-07-15T05:21:25Z</time>
      </trkpt>
      <trkpt lat="46.09193" lon="6.48896">
        <ele>607.5</ele>
        <time>2015-07-15T05:21:40Z</time>
      </trkpt>
      <trkpt lat="46.09192" lon="6.48884">
        <ele>608.1</ele>
        <time>2015-07-15T05:21:53Z</time>
      </trkpt>
      <trkpt lat="46.09187" lon="6.48874">
        <ele>608.9</ele>
        <time>2015-07-15T05:22:05Z</time>
      </trkpt>
      <trkpt lat="46.09181" lon="6.48864">
        <ele>609.8</ele>
        <time>2015-07-15T05:22:17Z</time>
      </trkpt>
      <trkpt lat="46.09184" lon="6.48853">
        <ele>610.7</ele>
        <time>2015-07-15T05:22:26Z</time>
      </trkpt>
      <trkpt lat="46.0918" lon="6.4884">
        <ele>611.6</ele>
        <time>2015-07-15T05:22:41Z</time>
      </trkpt>
      <trkpt lat="46.09172" lon="6.48843">
        <ele>612.5</ele>
        <time>2015-07-15T05:22:48Z</time>
      </trkpt>
      <trkpt lat="46.0917" lon="6.48831">
        <ele>613.3</ele>
        <time>2015-07-15T05:23:09Z</time>
      </trkpt>
      <trkpt lat="46.09164" lon="6.48823">
        <ele>614</ele>
        <time>2015-07-15T05:23:23Z</time>
      </trkpt>
      <trkpt lat="46.09159" lon="6.48812">
        <ele>614.8</ele>
        <time>2015-07-15T05:23:42Z</time>
      </trkpt>
      <trkpt lat="46.09151" lon="6.48809">
        <ele>615.4</ele>
        <time>2015-07-15T05:23:52Z</time>
      </trkpt>
      <trkpt lat="46.09148" lon="6.48795">
        <ele>616.1</ele>
        <time>2015-07-15T05:24:07Z</time>
      </trkpt>
      <trkpt lat="46.09151" lon="6.48779">
        <ele>616.6</ele>
        <time>2015-07-15T05:24:32Z</time>
      </trkpt>
      <trkpt lat="46.09149" lon="6.48767">
        <ele>617.1</ele>
        <time>2015-07-15T05:24:43Z</time>
      </trkpt>
      <trkpt lat="46.0915" lon="6.48754">
        <ele>617.8</ele>
        <time>2015-07-15T05:24:56Z</time>
      </trkpt>
      <trkpt lat="46.09147" lon="6.48737">
        <ele>618.4</ele>
        <time>2015-07-15T05:25:14Z</time>
      </trkpt>
      <trkpt lat="46.09143" lon="6.48722">
        <ele>619.3</ele>
        <time>2015-07-15T05:25:37Z</time>
      </trkpt>
      <trkpt lat="46.09145" lon="6.48709">
        <ele>620.1</ele>
        <time>2015-07-15T05:25:48Z</time>
      </trkpt>
      <trkpt lat="46.09145" lon="6.48697">
        <ele>620.8</ele>
        <time>2015-07-15T05:25:58Z</time>
      </trkpt>
      <trkpt lat="46.09139" lon="6.48684">
        <ele>621.8</ele>
        <time>2015-07-15T05:26:15Z</time>
      </trkpt>
      <trkpt lat="46.09134" lon="6.48674">
        <ele>622.6</ele>
        <time>2015-07-15T05:26:23Z</time>
      </trkpt>
      <trkpt lat="46.09129" lon="6.48664">
        <ele>623.5</ele>
        <time>2015-07-15T05:26:38Z</time>
      </trkpt>
      <trkpt lat="46.09129" lon="6.48652">
        <ele>624.2</ele>
        <time>2015-07-15T05:26:50Z</time>
      </trkpt>
      <trkpt lat="46.09129" lon="6.48639">
        <ele>624.9</ele>
        <time>2015-07-15T05:27:03Z</time>
      </trkpt>
      <trkpt lat="46.09131" lon="6.48625">
        <ele>625.5</ele>
        <time>2015-07-15T05:27:25Z</time>
      </trkpt>
      <trkpt lat="46.09134" lon="6.48613">
        <ele>626</ele>
        <time>2015-07-15T05:27:38Z</time>
      </trkpt>
      <trkpt lat="46.09126" lon="6.48611">
        <ele>626.4</ele>
        <time>2015-07-15T05:27:47Z</time>
      </trkpt>
      <trkpt lat="46.09118" lon="6.48607">
        <ele>626.7</ele>
        <time>2015-07-15T05:27:53Z</time>
      </trkpt>
      <trkpt lat="46.09114" lon="6.48594">
        <ele>627</ele>
        <time>2015-07-15T05:27:59Z</time>
      </trkpt>
      <trkpt lat="46.09115" lon="6.48581">
        <ele>627.4</ele>
        <time>2015-07-15T05:28:10Z</time>
      </trkpt>
      <trkpt lat="46.09122" lon="6.48573">
        <ele>627.6</ele>
        <time>2015-07-15T05:28:19Z</time>
      </trkpt>
      <trkpt lat="46.09128" lon="6.48565">
        <ele>627.7</ele>
        <time>2015-07-15T05:28:27Z</time>
      </trkpt>
      <trkpt lat="46.09134" lon="6.48552">
        <ele>627.9</ele>
        <time>2015-07-15T05:28:47Z</time>
      </trkpt>
      <trkpt lat="46.09131" lon="6.4854">
        <ele>628.1</ele>
        <time>2015-07-15T05:28:58Z</time>
      </trkpt>
      <trkpt lat="46.09135" lon="6.48529">
        <ele>628.4</ele>
        <time>2015-07-15T05:29:08Z</time>
      </trkpt>
      <trkpt lat="46.09138" lon="6.48515">
        <ele>628.7</ele>
        <time>2015-07-15T05:29:26Z</time>
      </trkpt>
      <trkpt lat="46.09143" lon="6.48507">
        <ele>629</ele>
        <time>2015-07-15T05:29:36Z</time>
      </trkpt>
      <trkpt lat="46.09143" lon="6.48493">
        <ele>629.2</ele>
        <time>2015-07-15T05:29:43Z</time>
      </trkpt>
      <trkpt lat="46.09144" lon="6.48477">
        <ele>629.5</ele>
        <time>2015-07-15T05:29:56Z</time>
      </trkpt>
      <trkpt lat="46.09147" lon="6.48466">
        <ele>629.8</ele>
        <time>2015-07-15T05:30:06Z</time>
      </trkpt>
      <trkpt lat="46.09155" lon="6.48459">
        <ele>630.2</ele>
        <time>2015-07-15T05:30:12Z</time>
      </trkpt>
      <trkpt lat="46.09154" lon="6.48447">
        <ele>630.6</ele>
        <time>2015-07-15T05:30:23Z</time>
      </trkpt>
      <trkpt lat="46.09154" lon="6.48434">
        <ele>631.1</ele>
        <time>2015-07-15T05:30:34Z</time>
      </trkpt>
      <trkpt lat="46.09158" lon="6.4842">
        <ele>631.7</ele>
        <time>2015-07-15T05:30:59Z</time>
      </trkpt>
      <trkpt lat="46.09166" lon="6.48423">
        <ele>632.4</ele>
        <time>2015-07-15T05:31:06Z</time>
      </trkpt>
      <trkpt lat="46.09168" lon="6.48408">
        <ele>633.2</ele>
        <time>2015-07-15T05:31:28Z</time>
      </trkpt>
      <trkpt lat="46.09168" lon="6.48395">
        <ele>634.5</ele>
        <time>2015-07-15T05:31:38Z</time>
      </trkpt>
      <trkpt lat="46.09168" lon="6.48383">
        <ele>636.4</ele>
        <time>2015-07-15T05:31:51Z</time>
      </trkpt>
      <trkpt lat="46.09165" lon="6.48372">
        <ele>638.3</ele>
        <time>2015-07-15T05:32:07Z</time>
      </trkpt>
      <trkpt lat="46.0917" lon="6.48361">
        <ele>640.3</ele>
        <time>2015-07-15T05:32:17Z</time>
      </trkpt>
      <trkpt lat="46.09172" lon="6.48349">
        <ele>642.4</ele>
        <time>2015-07-15T05:32:25Z</time>
      </trkpt>
      <trkpt lat="46.0918" lon="6.48335">
        <ele>644.6</ele>
        <time>2015-07-15T05:32:51Z</time>
      </trkpt>
      <trkpt lat="46.09186" lon="6.4832">
        <ele>647.3</ele>
        <time>2015-07-15T05:33:35Z</time>
      </trkpt>
      <trkpt lat="46.09193" lon="6.48313">
        <ele>650.2</ele>
        <time>2015-07-15T05:33:42Z</time>
      </trkpt>
      <trkpt lat="46.09189" lon="6.48303">
        <ele>653.4</ele>
        <time>2015-07-15T05:34:03Z</time>
      </trkpt>
      <trkpt lat="46.0919" lon="6.48291">
        <ele>656.8</ele>
        <time>2015-07-15T05:34:08Z</time>
      </trkpt>
      <trkpt lat="46.09191" lon="6.48278">
        <ele>660.2</ele>
        <time>2015-07-15T05:34:19Z</time>
      </trkpt>
      <trkpt lat="46.09197" lon="6.4827">
        <ele>663.3</ele>
        <time>2015-07-15T05:34:36Z</time>
      </trkpt>
      <trkpt lat="46.09195" lon="6.48258">
        <ele>666.4</ele>
        <time>2015-07-15T05:34:59Z</time>
      </trkpt>
      <trkpt lat="46.092" lon="6.48247">
        <ele>669.7</ele>
        <time>2015-07-15T05:35:27Z</time>
      </trkpt>
      <trkpt lat="46.09203" lon="6.48231">
        <ele>672.7</ele>
        <time>2015-07-15T05:35:59Z</time>
      </trkpt>
      <trkpt lat="46.09202" lon="6.48219">
        <ele>675.9</ele>
        <time>2015-07-15T05:36:18Z</time>
      </trkpt>
      <trkpt lat="46.09199" lon="6.48207">
        <ele>679</ele>
        <time>2015-07-15T05:36:34Z</time>
      </trkpt>
      <trkpt lat="46.09201" lon="6.48195">
        <ele>682.2</ele>
        <time>2015-07-15T05:37:08Z</time>
      </trkpt>
      <trkpt lat="46.09207" lon="6.48179">
        <ele>685.3</ele>
        <time>2015-07-15T05:37:27Z</time>
      </trkpt>
      <trkpt lat="46.09213" lon="6.48169">
        <ele>688.1</ele>
        <time>2015-07-15T05:37:35Z</time>
      </trkpt>
      <trkpt lat="46.09217" lon="6.48159">
        <ele>690.8</ele>
        <time>2015-07-15T05:37:58Z</time>
      </trkpt>
      <trkpt lat="46.09211" lon="6.48151">
        <ele>693.6</ele>
        <time>2015-07-15T05:38:21Z</time>
      </trkpt>
      <trkpt lat="46.09209" lon="6.48139">
        <ele>696.5</ele>
        <time>2015-07-15T05:38:38Z</time>
      </trkpt>
      <trkpt lat="46.09205" lon="6.48128">
        <ele>699</ele>
        <time>2015-07-15T05:38:49Z</time>
      </trkpt>
      <trkpt lat="46.09204" lon="6.48115">
        <ele>701.5</ele>
        <time>2015-07-15T05:38:57Z</time>
      </trkpt>
      <trkpt lat="46.09201" lon="6.48101">
        <ele>704</ele>
        <time>2015-07-15T05:39:21Z</time>
      </trkpt>
      <trkpt lat="46.09202" lon="6.48086">
        <ele>706.3</ele>
        <time>2015-07-15T05:39:41Z</time>
      </trkpt>
      <trkpt lat="46.09207" lon="6.48071">
        <ele>708.8</ele>
        <time>2015-07-15T05:40:16Z</time>
      </trkpt>
      <trkpt lat="46.0921" lon="6.4806">
        <ele>711.5</ele>
        <time>2015-07-15T05:40:32Z</time>
      </trkpt>
      <trkpt lat="46.09213" lon="6.48048">
        <ele>714.1</ele>
        <time>2015-07-15T05:40:45Z</time>
      </trkpt>
      <trkpt lat="46.09212" lon="6.48036">
        <ele>716.9</ele>
        <time>2015-07-15T05:40:49Z</time>
      </trkpt>
      <trkpt lat="46.09214" lon="6.48023">
        <ele>720</ele>
        <time>2015-07-15T05:40:57Z</time>
      </trkpt>
      <trkpt lat="46.09218" lon="6.48011">
        <ele>722.9</ele>
        <time>2015-07-15T05:41:19Z</time>
      </trkpt>
      <trkpt lat="46.09223" lon="6.47999">
        <ele>725.7</ele>
        <time>2015-07-15T05:42:06Z</time>
      </trkpt>
      <trkpt lat="46.09232" lon="6.47999">
        <ele>728.6</ele>
        <time>2015-07-15T05:42:23Z</time>
      </trkpt>
      <trkpt lat="46.0924" lon="6.47997">
        <ele>731.8</ele>
        <time>2015-07-15T05:42:43Z</time>
      </trkpt>
      <trkpt lat="46.09244" lon="6.47986">
        <ele>735.1</ele>
        <time>2015-07-15T05:43:26Z</time>
      </trkpt>
      <trkpt lat="46.09244" lon="6.47973">
        <ele>738.5</ele>
        <time>2015-07-15T05:43:33Z</time>
      </trkpt>
      <trkpt lat="46.09243" lon="6.4796">
        <ele>742.1</ele>
        <time>2015-07-15T05:43:41Z</time>
      </trkpt>
      <trkpt lat="46.09245" lon="6.47948">
        <ele>745.5</ele>
        <time>2015-07-15T05:44:04Z</time>
      </trkpt>
      <trkpt lat="46.09242" lon="6.47936">
        <ele>749</ele>
        <time>2015-07-15T05:44:28Z</time>
      </trkpt>
      <trkpt lat="46.0925" lon="6.47934">
        <ele>752.4</ele>
        <time>2015-07-15T05:44:53Z</time>
      </trkpt>
      <trkpt lat="46.09256" lon="6.47925">
        <ele>755.3</ele>
        <time>2015-07-15T05:45:05Z</time>
      </trkpt>
      <trkpt lat="46.09264" lon="6.4793">
        <ele>758.2</ele>
        <time>2015-07-15T05:45:22Z</time>
      </trkpt>
      <trkpt lat="46.09264" lon="6.47941">
        <ele>761.2</ele>
        <time>2015-07-15T05:45:52Z</time>
      </trkpt>
      <trkpt lat="46.09268" lon="6.47952">
        <ele>764</ele>
        <time>2015-07-15T05:46:11Z</time>
      </trkpt>
      <trkpt lat="46.09275" lon="6.47946">
        <ele>766.4</ele>
        <time>2015-07-15T05:46:47Z</time>
      </trkpt>
      <trkpt lat="46.09282" lon="6.47938">
        <ele>768.7</ele>
        <time>2015-07-15T05:46:59Z</time>
      </trkpt>
      <trkpt lat="46.09288" lon="6.47928">
        <ele>771.2</ele>
        <time>2015-07-15T05:47:13Z</time>
      </trkpt>
      <trkpt lat="46.09294" lon="6.4792">
        <ele>773.7</ele>
        <time>2015-07-15T05:47:29Z</time>
      </trkpt>
      <trkpt lat="46.09296" lon="6.47908">
        <ele>775.9</ele>
        <time>2015-07-15T05:47:37Z</time>
      </trkpt>
      <trkpt lat="46.093" lon="6.47896">
        <ele>778.1</ele>
        <time>2015-07-15T05:47:52Z</time>
      </trkpt>
      <trkpt lat="46.09296" lon="6.47884">
        <ele>780</ele>
        <time>2015-07-15T05:48:01Z</time>
      </trkpt>
      <trkpt lat="46.09305" lon="6.47881">
        <ele>781.9</ele>
        <time>2015-07-15T05:48:44Z</time>
      </trkpt>
      <trkpt lat="46.09311" lon="6.47871">
        <ele>783.8</ele>
        <time>2015-07-15T05:49:03Z</time>
      </trkpt>
      <trkpt lat="46.09318" lon="6.4786">
        <ele>785.7</ele>
        <time>2015-07-15T05:49:44Z</time>
      </trkpt>
      <trkpt lat="46.09315" lon="6.47849">
        <ele>787.8</ele>
        <time>2015-07-15T05:50:10Z</time>
      </trkpt>
      <trkpt lat="46.09319" lon="6.47834">
        <ele>789.8</ele>
        <time>2015-07-15T05:50:30Z</time>
      </trkpt>
      <trkpt lat="46.09325" lon="6.47826">
        <ele>791.8</ele>
        <time>2015-07-15T05:50:48Z</time>
      </trkpt>
      <trkpt lat="46.0933" lon="6.47816">
        <ele>793.5</ele>
        <time>2015-07-15T05:51:03Z</time>
      </trkpt>
      <trkpt lat="46.09334" lon="6.478">
        <ele>795.1</ele>
        <time>2015-07-15T05:51:33Z</time>
      </trkpt>
      <trkpt lat="46.09335" lon="6.47787">
        <ele>796.8</ele>
        <time>2015-07-15T05:52:05Z</time>
      </trkpt>
      <trkpt lat="46.09337" lon="6.47775">
        <ele>798.9</ele>
        <time>2015-07-15T05:52:24Z</time>
      </trkpt>
      <trkpt lat="46.09335" lon="6.47763">
        <ele>801.3</ele>
        <time>2015-07-15T05:52:31Z</time>
      </trkpt>
      <trkpt lat="46.09344" lon="6.47759">
        <ele>803.6</ele>
        <time>2015-07-15T05:52:56Z</time>
      </trkpt>
      <trkpt lat="46.09352" lon="6.47758">
        <ele>806.3</ele>
        <time>2015-07-15T05:53:09Z</time>
      </trkpt>
      <trkpt lat="46.0936" lon="6.4775">
        <ele>809.3</ele>
        <time>2015-07-15T05:53:38Z</time>
      </trkpt>
      <trkpt lat="46.09368" lon="6.47752">
        <ele>812.3</ele>
        <time>2015-07-15T05:54:13Z</time>
      </trkpt>
      <trkpt lat="46.0938" lon="6.47746">
        <ele>815.8</ele>
        <time>2015-07-15T05:54:42Z</time>
      </trkpt>
      <trkpt lat="46.09388" lon="6.47743">
        <ele>820.4</ele>
        <time>2015-07-15T05:54:49Z</time>
      </trkpt>
      <trkpt lat="46.09393" lon="6.47752">
        <ele>825.8</ele>
        <time>2015-07-15T05:55:13Z</time>
      </trkpt>
      <trkpt lat="46.09398" lon="6.47762">
        <ele>831.2</ele>
        <time>2015-07-15T05:55:43Z</time>
      </trkpt>
      <trkpt lat="46.09403" lon="6.47771">
        <ele>836.3</ele>
        <time>2015-07-15T05:56:01Z</time>
      </trkpt>
      <trkpt lat="46.09413" lon="6.47774">
        <ele>840.9</ele>
        <time>2015-07-15T05:56:41Z</time>
      </trkpt>
      <trkpt lat="46.09421" lon="6.4777">
        <ele>845.2</ele>
        <time>2015-07-15T05:57:13Z</time>
      </trkpt>
      <trkpt lat="46.09428" lon="6.47762">
        <ele>849</ele>
        <time>2015-07-15T05:57:52Z</time>
      </trkpt>
      <trkpt lat="46.09435" lon="6.47768">
        <ele>852.5</ele>
        <time>2015-07-15T05:58:09Z</time>
      </trkpt>
      <trkpt lat="46.09443" lon="6.47761">
        <ele>856</ele>
        <time>2015-07-15T05:58:19Z</time>
      </trkpt>
      <trkpt lat="46.09448" lon="6.4777">
        <ele>859.4</ele>
        <time>2015-07-15T05:58:30Z</time>
      </trkpt>
      <trkpt lat="46.09456" lon="6.47776">
        <ele>862.5</ele>
        <time>2015-07-15T05:58:36Z</time>
      </trkpt>
      <trkpt lat="46.09463" lon="6.47782">
        <ele>864.8</ele>
        <time>2015-07-15T05:58:43Z</time>
      </trkpt>
      <trkpt lat="46.09463" lon="6.47795">
        <ele>866.5</ele>
        <time>2015-07-15T05:58:53Z</time>
      </trkpt>
      <trkpt lat="46.09473" lon="6.47794">
        <ele>868.8</ele>
        <time>2015-07-15T05:59:14Z</time>
      </trkpt>
      <trkpt lat="46.09481" lon="6.47792">
        <ele>871.7</ele>
        <time>2015-07-15T05:59:26Z</time>
      </trkpt>
      <trkpt lat="46.0949" lon="6.47799">
        <ele>874.6</ele>
        <time>2015-07-15T05:59:47Z</time>
      </trkpt>
      <trkpt lat="46.09495" lon="6.47809">
        <ele>877.7</ele>
        <time>2015-07-15T06:00:04Z</time>
      </trkpt>
      <trkpt lat="46.09502" lon="6.47819">
        <ele>881.3</ele>
        <time>2015-07-15T06:00:23Z</time>
      </trkpt>
      <trkpt lat="46.0951" lon="6.47823">
        <ele>885</ele>
        <time>2015-07-15T06:01:10Z</time>
      </trkpt>
      <trkpt lat="46.09512" lon="6.47834">
        <ele>888.5</ele>
        <time>2015-07-15T06:01:38Z</time>
      </trkpt>
      <trkpt lat="46.09521" lon="6.47847">
        <ele>891.7</ele>
        <time>2015-07-15T06:01:58Z</time>
      </trkpt>
      <trkpt lat="46.0952" lon="6.47859">
        <ele>894.9</ele>
        <time>2015-07-15T06:02:12Z</time>
      </trkpt>
      <trkpt lat="46.09522" lon="6.4787">
        <ele>897.9</ele>
        <time>2015-07-15T06:02:23Z</time>
      </trkpt>
      <trkpt lat="46.09528" lon="6.4788">
        <ele>900.7</ele>
        <time>2015-07-15T06:02:48Z</time>
      </trkpt>
      <trkpt lat="46.09536" lon="6.47886">
        <ele>902.8</ele>
        <time>2015-07-15T06:03:06Z</time>
      </trkpt>
      <trkpt lat="46.09544" lon="6.47887">
        <ele>904.2</ele>
        <time>2015-07-15T06:03:23Z</time>
      </trkpt>
      <trkpt lat="46.09544" lon="6.47875">
        <ele>906.2</ele>
        <time>2015-07-15T06:03:43Z</time>
      </trkpt>
      <trkpt lat="46.09553" lon="6.47879">
        <ele>909.2</ele>
        <time>2015-07-15T06:03:53Z</time>
      </trkpt>
      <trkpt lat="46.09566" lon="6.47878">
        <ele>912.4</ele>
        <time>2015-07-15T06:04:17Z</time>
      </trkpt>
      <trkpt lat="46.09573" lon="6.47888">
        <ele>915.7</ele>
        <time>2015-07-15T06:04:33Z</time>
      </trkpt>
      <trkpt lat="46.09578" lon="6.47898">
        <ele>919.2</ele>
        <time>2015-07-15T06:04:43Z</time>
      </trkpt>
      <trkpt lat="46.0957" lon="6.47904">
        <ele>922.9</ele>
        <time>2015-07-15T06:05:03Z</time>
      </trkpt>
      <trkpt lat="46.09578" lon="6.47908">
        <ele>926.8</ele>
        <time>2015-07-15T06:06:00Z</time>
      </trkpt>
      <trkpt lat="46.09586" lon="6.47908">
        <ele>932.5</ele>
        <time>2015-07-15T06:06:21Z</time>
      </trkpt>
      <trkpt lat="46.09595" lon="6.47909">
        <ele>938.2</ele>
        <time>2015-07-15T06:06:53Z</time>
      </trkpt>
      <trkpt lat="46.09603" lon="6.47914">
        <ele>944</ele>
        <time>2015-07-15T06:07:06Z</time>
      </trkpt>
      <trkpt lat="46.09605" lon="6.47902">
        <ele>949.9</ele>
        <time>2015-07-15T06:07:31Z</time>
      </trkpt>
      <trkpt lat="46.09613" lon="6.479">
        <ele>955.4</ele>
        <time>2015-07-15T06:07:55Z</time>
      </trkpt>
      <trkpt lat="46.09619" lon="6.47891">
        <ele>960.4</ele>
        <time>2015-07-15T06:09:20Z</time>
      </trkpt>
      <trkpt lat="46.09628" lon="6.47891">
        <ele>965.9</ele>
        <time>2015-07-15T06:09:32Z</time>
      </trkpt>
      <trkpt lat="46.09639" lon="6.47891">
        <ele>971.9</ele>
        <time>2015-07-15T06:10:01Z</time>
      </trkpt>
      <trkpt lat="46.09643" lon="6.4788">
        <ele>977.8</ele>
        <time>2015-07-15T06:10:18Z</time>
      </trkpt>
      <trkpt lat="46.09653" lon="6.47882">
        <ele>983.6</ele>
        <time>2015-07-15T06:10:45Z</time>
      </trkpt>
      <trkpt lat="46.09661" lon="6.47884">
        <ele>988.9</ele>
        <time>2015-07-15T06:11:20Z</time>
      </trkpt>
      <trkpt lat="46.09653" lon="6.47887">
        <ele>992.5</ele>
        <time>2015-07-15T06:12:15Z</time>
      </trkpt>
      <trkpt lat="46.09663" lon="6.47885">
        <ele>996.1</ele>
        <time>2015-07-15T06:13:16Z</time>
      </trkpt>
      <trkpt lat="46.09671" lon="6.47886">
        <ele>999.6</ele>
        <time>2015-07-15T06:13:32Z</time>
      </trkpt>
      <trkpt lat="46.0968" lon="6.47884">
        <ele>1003</ele>
        <time>2015-07-15T06:14:01Z</time>
      </trkpt>
      <trkpt lat="46.09689" lon="6.47881">
        <ele>1006.3</ele>
        <time>2015-07-15T06:14:11Z</time>
      </trkpt>
      <trkpt lat="46.097" lon="6.47876">
        <ele>1009.5</ele>
        <time>2015-07-15T06:14:40Z</time>
      </trkpt>
      <trkpt lat="46.09708" lon="6.47879">
        <ele>1012.4</ele>
        <time>2015-07-15T06:14:55Z</time>
      </trkpt>
      <trkpt lat="46.09717" lon="6.47877">
        <ele>1014.5</ele>
        <time>2015-07-15T06:15:07Z</time>
      </trkpt>
      <trkpt lat="46.09725" lon="6.47874">
        <ele>1016.9</ele>
        <time>2015-07-15T06:15:17Z</time>
      </trkpt>
      <trkpt lat="46.09735" lon="6.47876">
        <ele>1019.2</ele>
        <time>2015-07-15T06:15:45Z</time>
      </trkpt>
      <trkpt lat="46.09735" lon="6.47888">
        <ele>1021.7</ele>
        <time>2015-07-15T06:16:38Z</time>
      </trkpt>
      <trkpt lat="46.09742" lon="6.47898">
        <ele>1024</ele>
        <time>2015-07-15T06:17:17Z</time>
      </trkpt>
      <trkpt lat="46.09745" lon="6.47909">
        <ele>1026.4</ele>
        <time>2015-07-15T06:17:31Z</time>
      </trkpt>
      <trkpt lat="46.09756" lon="6.47917">
        <ele>1028.8</ele>
        <time>2015-07-15T06:18:08Z</time>
      </trkpt>
      <trkpt lat="46.09764" lon="6.47917">
        <ele>1031.6</ele>
        <time>2015-07-15T06:18:26Z</time>
      </trkpt>
      <trkpt lat="46.09771" lon="6.4791">
        <ele>1034.8</ele>
        <time>2015-07-15T06:18:36Z</time>
      </trkpt>
      <trkpt lat="46.09772" lon="6.47922">
        <ele>1037.9</ele>
        <time>2015-07-15T06:18:53Z</time>
      </trkpt>
      <trkpt lat="46.09777" lon="6.47932">
        <ele>1040.7</ele>
        <time>2015-07-15T06:19:09Z</time>
      </trkpt>
      <trkpt lat="46.09785" lon="6.47932">
        <ele>1043.8</ele>
        <time>2015-07-15T06:19:14Z</time>
      </trkpt>
      <trkpt lat="46.09796" lon="6.4794">
        <ele>1046.7</ele>
        <time>2015-07-15T06:20:03Z</time>
      </trkpt>
      <trkpt lat="46.09802" lon="6.47931">
        <ele>1049.6</ele>
        <time>2015-07-15T06:20:43Z</time>
      </trkpt>
      <trkpt lat="46.09809" lon="6.47926">
        <ele>1052.4</ele>
        <time>2015-07-15T06:21:09Z</time>
      </trkpt>
      <trkpt lat="46.09819" lon="6.47925">
        <ele>1055.2</ele>
        <time>2015-07-15T06:21:29Z</time>
      </trkpt>
      <trkpt lat="46.09822" lon="6.47937">
        <ele>1058</ele>
        <time>2015-07-15T06:22:05Z</time>
      </trkpt>
      <trkpt lat="46.09834" lon="6.47943">
        <ele>1061.1</ele>
        <time>2015-07-15T06:22:23Z</time>
      </trkpt>
      <trkpt lat="46.0984" lon="6.47951">
        <ele>1064</ele>
        <time>2015-07-15T06:22:32Z</time>
      </trkpt>
      <trkpt lat="46.09843" lon="6.47962">
        <ele>1067.1</ele>
        <time>2015-07-15T06:22:39Z</time>
      </trkpt>
      <trkpt lat="46.09851" lon="6.47966">
        <ele>1071.5</ele>
        <time>2015-07-15T06:22:55Z</time>
      </trkpt>
      <trkpt lat="46.09857" lon="6.47979">
        <ele>1076</ele>
        <time>2015-07-15T06:23:11Z</time>
      </trkpt>
      <trkpt lat="46.09865" lon="6.47977">
        <ele>1081</ele>
        <time>2015-07-15T06:23:34Z</time>
      </trkpt>
      <trkpt lat="46.09875" lon="6.47967">
        <ele>1086</ele>
        <time>2015-07-15T06:24:07Z</time>
      </trkpt>
      <trkpt lat="46.09884" lon="6.47965">
        <ele>1091.4</ele>
        <time>2015-07-15T06:24:44Z</time>
      </trkpt>
      <trkpt lat="46.09894" lon="6.47969">
        <ele>1097.6</ele>
        <time>2015-07-15T06:26:20Z</time>
      </trkpt>
      <trkpt lat="46.09902" lon="6.47969">
        <ele>1104.2</ele>
        <time>2015-07-15T06:26:35Z</time>
      </trkpt>
      <trkpt lat="46.09911" lon="6.4797">
        <ele>1111</ele>
        <time>2015-07-15T06:27:17Z</time>
      </trkpt>
      <trkpt lat="46.09919" lon="6.47975">
        <ele>1118.2</ele>
        <time>2015-07-15T06:27:39Z</time>
      </trkpt>
      <trkpt lat="46.09927" lon="6.47979">
        <ele>1125.4</ele>
        <time>2015-07-15T06:27:59Z</time>
      </trkpt>
      <trkpt lat="46.09919" lon="6.47971">
        <ele>1132.2</ele>
        <time>2015-07-15T06:28:29Z</time>
      </trkpt>
      <trkpt lat="46.09915" lon="6.47959">
        <ele>1137.5</ele>
        <time>2015-07-15T06:28:54Z</time>
      </trkpt>
      <trkpt lat="46.09912" lon="6.47942">
        <ele>1142.6</ele>
        <time>2015-07-15T06:29:16Z</time>
      </trkpt>
      <trkpt lat="46.09916" lon="6.47932">
        <ele>1147</ele>
        <time>2015-07-15T06:29:34Z</time>
      </trkpt>
      <trkpt lat="46.09918" lon="6.4792">
        <ele>1151.5</ele>
        <time>2015-07-15T06:29:54Z</time>
      </trkpt>
      <trkpt lat="46.09928" lon="6.47911">
        <ele>1155.8</ele>
        <time>2015-07-15T06:30:16Z</time>
      </trkpt>
      <trkpt lat="46.09926" lon="6.47896">
        <ele>1159.5</ele>
        <time>2015-07-15T06:30:38Z</time>
      </trkpt>
      <trkpt lat="46.09932" lon="6.47888">
        <ele>1163.1</ele>
        <time>2015-07-15T06:30:50Z</time>
      </trkpt>
      <trkpt lat="46.09937" lon="6.47877">
        <ele>1166.9</ele>
        <time>2015-07-15T06:30:58Z</time>
      </trkpt>
      <trkpt lat="46.09945" lon="6.47873">
        <ele>1170.2</ele>
        <time>2015-07-15T06:31:09Z</time>
      </trkpt>
      <trkpt lat="46.09951" lon="6.47864">
        <ele>1173.7</ele>
        <time>2015-07-15T06:31:32Z</time>
      </trkpt>
      <trkpt lat="46.09949" lon="6.47851">
        <ele>1176.9</ele>
        <time>2015-07-15T06:31:50Z</time>
      </trkpt>
      <trkpt lat="46.09939" lon="6.47848">
        <ele>1180</ele>
        <time>2015-07-15T06:32:34Z</time>
      </trkpt>
      <trkpt lat="46.09931" lon="6.47838">
        <ele>1183.5</ele>
        <time>2015-07-15T06:33:02Z</time>
      </trkpt>
      <trkpt lat="46.09927" lon="6.47828">
        <ele>1187.1</ele>
        <time>2015-07-15T06:33:17Z</time>
      </trkpt>
      <trkpt lat="46.0992" lon="6.47815">
        <ele>1190.9</ele>
        <time>2015-07-15T06:33:39Z</time>
      </trkpt>
      <trkpt lat="46.09924" lon="6.47799">
        <ele>1195</ele>
        <time>2015-07-15T06:33:45Z</time>
      </trkpt>
      <trkpt lat="46.0992" lon="6.47783">
        <ele>1199.6</ele>
        <time>2015-07-15T06:33:48Z</time>
      </trkpt>
      <trkpt lat="46.09914" lon="6.47774">
        <ele>1204</ele>
        <time>2015-07-15T06:34:01Z</time>
      </trkpt>
      <trkpt lat="46.09909" lon="6.47764">
        <ele>1208.3</ele>
        <time>2015-07-15T06:34:11Z</time>
      </trkpt>
      <trkpt lat="46.09905" lon="6.47753">
        <ele>1212.5</ele>
        <time>2015-07-15T06:34:22Z</time>
      </trkpt>
      <trkpt lat="46.09905" lon="6.47736">
        <ele>1216.5</ele>
        <time>2015-07-15T06:34:54Z</time>
      </trkpt>
      <trkpt lat="46.09911" lon="6.47725">
        <ele>1220.7</ele>
        <time>2015-07-15T06:35:39Z</time>
      </trkpt>
      <trkpt lat="46.09919" lon="6.4772">
        <ele>1225.3</ele>
        <time>2015-07-15T06:36:00Z</time>
      </trkpt>
      <trkpt lat="46.09925" lon="6.47712">
        <ele>1229.4</ele>
        <time>2015-07-15T06:36:21Z</time>
      </trkpt>
      <trkpt lat="46.09928" lon="6.477">
        <ele>1233.4</ele>
        <time>2015-07-15T06:36:40Z</time>
      </trkpt>
      <trkpt lat="46.09933" lon="6.47689">
        <ele>1237.3</ele>
        <time>2015-07-15T06:36:58Z</time>
      </trkpt>
      <trkpt lat="46.09933" lon="6.47677">
        <ele>1240.4</ele>
        <time>2015-07-15T06:37:10Z</time>
      </trkpt>
      <trkpt lat="46.09928" lon="6.47667">
        <ele>1243.1</ele>
        <time>2015-07-15T06:37:17Z</time>
      </trkpt>
      <trkpt lat="46.09927" lon="6.47653">
        <ele>1245.5</ele>
        <time>2015-07-15T06:37:30Z</time>
      </trkpt>
      <trkpt lat="46.09927" lon="6.4764">
        <ele>1247.7</ele>
        <time>2015-07-15T06:37:41Z</time>
      </trkpt>
      <trkpt lat="46.09928" lon="6.47628">
        <ele>1249.8</ele>
        <time>2015-07-15T06:37:51Z</time>
      </trkpt>
      <trkpt lat="46.09931" lon="6.47616">
        <ele>1251.8</ele>
        <time>2015-07-15T06:38:01Z</time>
      </trkpt>
      <trkpt lat="46.09935" lon="6.47605">
        <ele>1254.1</ele>
        <time>2015-07-15T06:38:13Z</time>
      </trkpt>
      <trkpt lat="46.09937" lon="6.47593">
        <ele>1256</ele>
        <time>2015-07-15T06:38:22Z</time>
      </trkpt>
      <trkpt lat="46.0994" lon="6.47582">
        <ele>1257.9</ele>
        <time>2015-07-15T06:38:30Z</time>
      </trkpt>
      <trkpt lat="46.09941" lon="6.4757">
        <ele>1259.8</ele>
        <time>2015-07-15T06:38:39Z</time>
      </trkpt>
      <trkpt lat="46.09939" lon="6.47558">
        <ele>1261.7</ele>
        <time>2015-07-15T06:38:49Z</time>
      </trkpt>
      <trkpt lat="46.09936" lon="6.47545">
        <ele>1263.7</ele>
        <time>2015-07-15T06:39:01Z</time>
      </trkpt>
      <trkpt lat="46.09938" lon="6.47532">
        <ele>1265.7</ele>
        <time>2015-07-15T06:39:09Z</time>
      </trkpt>
      <trkpt lat="46.09942" lon="6.47522">
        <ele>1267.7</ele>
        <time>2015-07-15T06:39:18Z</time>
      </trkpt>
      <trkpt lat="46.09945" lon="6.4751">
        <ele>1269.7</ele>
        <time>2015-07-15T06:39:26Z</time>
      </trkpt>
      <trkpt lat="46.09948" lon="6.47499">
        <ele>1271.6</ele>
        <time>2015-07-15T06:39:36Z</time>
      </trkpt>
      <trkpt lat="46.09946" lon="6.47488">
        <ele>1273.4</ele>
        <time>2015-07-15T06:40:02Z</time>
      </trkpt>
      <trkpt lat="46.0994" lon="6.47479">
        <ele>1275</ele>
        <time>2015-07-15T06:40:12Z</time>
      </trkpt>
      <trkpt lat="46.09936" lon="6.47468">
        <ele>1276.7</ele>
        <time>2015-07-15T06:40:34Z</time>
      </trkpt>
      <trkpt lat="46.0993" lon="6.47458">
        <ele>1278.5</ele>
        <time>2015-07-15T06:40:42Z</time>
      </trkpt>
      <trkpt lat="46.09927" lon="6.47445">
        <ele>1280.4</ele>
        <time>2015-07-15T06:40:49Z</time>
      </trkpt>
      <trkpt lat="46.09926" lon="6.47433">
        <ele>1282.2</ele>
        <time>2015-07-15T06:40:56Z</time>
      </trkpt>
      <trkpt lat="46.09929" lon="6.4742">
        <ele>1284</ele>
        <time>2015-07-15T06:41:02Z</time>
      </trkpt>
      <trkpt lat="46.09933" lon="6.47409">
        <ele>1285.8</ele>
        <time>2015-07-15T06:41:07Z</time>
      </trkpt>
      <trkpt lat="46.09938" lon="6.47398">
        <ele>1287.6</ele>
        <time>2015-07-15T06:41:13Z</time>
      </trkpt>
      <trkpt lat="46.0994" lon="6.47386">
        <ele>1289.5</ele>
        <time>2015-07-15T06:41:21Z</time>
      </trkpt>
      <trkpt lat="46.09937" lon="6.47373">
        <ele>1291.4</ele>
        <time>2015-07-15T06:41:29Z</time>
      </trkpt>
      <trkpt lat="46.09939" lon="6.47362">
        <ele>1293.4</ele>
        <time>2015-07-15T06:41:37Z</time>
      </trkpt>
      <trkpt lat="46.0994" lon="6.4735">
        <ele>1295.5</ele>
        <time>2015-07-15T06:41:45Z</time>
      </trkpt>
      <trkpt lat="46.09943" lon="6.47338">
        <ele>1297.4</ele>
        <time>2015-07-15T06:41:54Z</time>
      </trkpt>
      <trkpt lat="46.09945" lon="6.47326">
        <ele>1299.4</ele>
        <time>2015-07-15T06:42:03Z</time>
      </trkpt>
      <trkpt lat="46.09947" lon="6.47314">
        <ele>1301.5</ele>
        <time>2015-07-15T06:42:14Z</time>
      </trkpt>
      <trkpt lat="46.09951" lon="6.47303">
        <ele>1303.8</ele>
        <time>2015-07-15T06:42:22Z</time>
      </trkpt>
      <trkpt lat="46.09956" lon="6.47293">
        <ele>1306.2</ele>
        <time>2015-07-15T06:42:31Z</time>
      </trkpt>
      <trkpt lat="46.0996" lon="6.47282">
        <ele>1308.6</ele>
        <time>2015-07-15T06:42:40Z</time>
      </trkpt>
      <trkpt lat="46.0996" lon="6.4727">
        <ele>1311</ele>
        <time>2015-07-15T06:42:51Z</time>
      </trkpt>
      <trkpt lat="46.0996" lon="6.47258">
        <ele>1313.4</ele>
        <time>2015-07-15T06:42:59Z</time>
      </trkpt>
      <trkpt lat="46.09959" lon="6.47246">
        <ele>1315.7</ele>
        <time>2015-07-15T06:43:10Z</time>
      </trkpt>
      <trkpt lat="46.09957" lon="6.47234">
        <ele>1317.9</ele>
        <time>2015-07-15T06:43:19Z</time>
      </trkpt>
      <trkpt lat="46.09953" lon="6.47223">
        <ele>1320</ele>
        <time>2015-07-15T06:43:27Z</time>
      </trkpt>
      <trkpt lat="46.09952" lon="6.47211">
        <ele>1322.3</ele>
        <time>2015-07-15T06:43:37Z</time>
      </trkpt>
      <trkpt lat="46.09953" lon="6.47197">
        <ele>1324.6</ele>
        <time>2015-07-15T06:43:49Z</time>
      </trkpt>
      <trkpt lat="46.09957" lon="6.47187">
        <ele>1327.2</ele>
        <time>2015-07-15T06:43:55Z</time>
      </trkpt>
      <trkpt lat="46.09955" lon="6.47175">
        <ele>1329.7</ele>
        <time>2015-07-15T06:44:04Z</time>
      </trkpt>
      <trkpt lat="46.09955" lon="6.47163">
        <ele>1332.2</ele>
        <time>2015-07-15T06:44:15Z</time>
      </trkpt>
      <trkpt lat="46.09959" lon="6.47148">
        <ele>1334.8</ele>
        <time>2015-07-15T06:44:31Z</time>
      </trkpt>
      <trkpt lat="46.09966" lon="6.4714">
        <ele>1337.6</ele>
        <time>2015-07-15T06:44:39Z</time>
      </trkpt>
      <trkpt lat="46.09966" lon="6.47127">
        <ele>1340.6</ele>
        <time>2015-07-15T06:44:55Z</time>
      </trkpt>
      <trkpt lat="46.09967" lon="6.47115">
        <ele>1343.8</ele>
        <time>2015-07-15T06:45:05Z</time>
      </trkpt>
      <trkpt lat="46.09971" lon="6.47103">
        <ele>1347.3</ele>
        <time>2015-07-15T06:45:15Z</time>
      </trkpt>
      <trkpt lat="46.09978" lon="6.47096">
        <ele>1351.3</ele>
        <time>2015-07-15T06:45:25Z</time>
      </trkpt>
      <trkpt lat="46.09981" lon="6.47085">
        <ele>1355.2</ele>
        <time>2015-07-15T06:45:36Z</time>
      </trkpt>
      <trkpt lat="46.09976" lon="6.47073">
        <ele>1359.4</ele>
        <time>2015-07-15T06:45:48Z</time>
      </trkpt>
      <trkpt lat="46.09975" lon="6.47061">
        <ele>1363.4</ele>
        <time>2015-07-15T06:45:57Z</time>
      </trkpt>
      <trkpt lat="46.09978" lon="6.47047">
        <ele>1367.5</ele>
        <time>2015-07-15T06:46:17Z</time>
      </trkpt>
      <trkpt lat="46.09985" lon="6.47041">
        <ele>1371.6</ele>
        <time>2015-07-15T06:46:34Z</time>
      </trkpt>
      <trkpt lat="46.09989" lon="6.47029">
        <ele>1375.8</ele>
        <time>2015-07-15T06:46:42Z</time>
      </trkpt>
      <trkpt lat="46.09997" lon="6.47026">
        <ele>1379.9</ele>
        <time>2015-07-15T06:46:52Z</time>
      </trkpt>
      <trkpt lat="46.10003" lon="6.47018">
        <ele>1383.9</ele>
        <time>2015-07-15T06:47:00Z</time>
      </trkpt>
      <trkpt lat="46.10005" lon="6.47006">
        <ele>1388</ele>
        <time>2015-07-15T06:47:11Z</time>
      </trkpt>
      <trkpt lat="46.10003" lon="6.46995">
        <ele>1391.8</ele>
        <time>2015-07-15T06:47:21Z</time>
      </trkpt>
      <trkpt lat="46.10004" lon="6.46982">
        <ele>1395.2</ele>
        <time>2015-07-15T06:47:35Z</time>
      </trkpt>
      <trkpt lat="46.10005" lon="6.4697">
        <ele>1398.5</ele>
        <time>2015-07-15T06:47:45Z</time>
      </trkpt>
      <trkpt lat="46.10007" lon="6.46958">
        <ele>1401.5</ele>
        <time>2015-07-15T06:47:54Z</time>
      </trkpt>
      <trkpt lat="46.10009" lon="6.46946">
        <ele>1404.3</ele>
        <time>2015-07-15T06:48:03Z</time>
      </trkpt>
      <trkpt lat="46.10011" lon="6.46935">
        <ele>1407.1</ele>
        <time>2015-07-15T06:48:13Z</time>
      </trkpt>
      <trkpt lat="46.10009" lon="6.46923">
        <ele>1409.9</ele>
        <time>2015-07-15T06:48:25Z</time>
      </trkpt>
      <trkpt lat="46.1001" lon="6.4691">
        <ele>1412.6</ele>
        <time>2015-07-15T06:48:37Z</time>
      </trkpt>
      <trkpt lat="46.10016" lon="6.46901">
        <ele>1415.2</ele>
        <time>2015-07-15T06:48:44Z</time>
      </trkpt>
      <trkpt lat="46.10023" lon="6.46894">
        <ele>1417.7</ele>
        <time>2015-07-15T06:48:49Z</time>
      </trkpt>
      <trkpt lat="46.10027" lon="6.46884">
        <ele>1420.3</ele>
        <time>2015-07-15T06:49:03Z</time>
      </trkpt>
      <trkpt lat="46.10027" lon="6.46871">
        <ele>1423</ele>
        <time>2015-07-15T06:49:13Z</time>
      </trkpt>
      <trkpt lat="46.10035" lon="6.46863">
        <ele>1425.6</ele>
        <time>2015-07-15T06:49:22Z</time>
      </trkpt>
      <trkpt lat="46.10041" lon="6.46854">
        <ele>1428.2</ele>
        <time>2015-07-15T06:49:32Z</time>
      </trkpt>
      <trkpt lat="46.10048" lon="6.46849">
        <ele>1430.8</ele>
        <time>2015-07-15T06:49:40Z</time>
      </trkpt>
      <trkpt lat="46.10053" lon="6.46838">
        <ele>1433.5</ele>
        <time>2015-07-15T06:49:47Z</time>
      </trkpt>
      <trkpt lat="46.10059" lon="6.46829">
        <ele>1436.1</ele>
        <time>2015-07-15T06:49:55Z</time>
      </trkpt>
      <trkpt lat="46.10066" lon="6.46821">
        <ele>1438.5</ele>
        <time>2015-07-15T06:50:03Z</time>
      </trkpt>
      <trkpt lat="46.10072" lon="6.46813">
        <ele>1441.1</ele>
        <time>2015-07-15T06:50:10Z</time>
      </trkpt>
      <trkpt lat="46.10079" lon="6.46807">
        <ele>1443.7</ele>
        <time>2015-07-15T06:50:17Z</time>
      </trkpt>
      <trkpt lat="46.10085" lon="6.46798">
        <ele>1446.4</ele>
        <time>2015-07-15T06:50:25Z</time>
      </trkpt>
      <trkpt lat="46.10092" lon="6.46792">
        <ele>1449.2</ele>
        <time>2015-07-15T06:50:30Z</time>
      </trkpt>
      <trkpt lat="46.10098" lon="6.46782">
        <ele>1451.8</ele>
        <time>2015-07-15T06:50:35Z</time>
      </trkpt>
      <trkpt lat="46.10103" lon="6.46772">
        <ele>1454.5</ele>
        <time>2015-07-15T06:50:41Z</time>
      </trkpt>
      <trkpt lat="46.10108" lon="6.46762">
        <ele>1457.1</ele>
        <time>2015-07-15T06:50:47Z</time>
      </trkpt>
      <trkpt lat="46.10113" lon="6.46752">
        <ele>1459.6</ele>
        <time>2015-07-15T06:50:54Z</time>
      </trkpt>
      <trkpt lat="46.1012" lon="6.46742">
        <ele>1461.9</ele>
        <time>2015-07-15T06:51:01Z</time>
      </trkpt>
      <trkpt lat="46.10125" lon="6.46732">
        <ele>1464.2</ele>
        <time>2015-07-15T06:51:07Z</time>
      </trkpt>
      <trkpt lat="46.10132" lon="6.46725">
        <ele>1466.4</ele>
        <time>2015-07-15T06:51:15Z</time>
      </trkpt>
      <trkpt lat="46.10138" lon="6.46716">
        <ele>1468.5</ele>
        <time>2015-07-15T06:51:21Z</time>
      </trkpt>
      <trkpt lat="46.10144" lon="6.46704">
        <ele>1470.4</ele>
        <time>2015-07-15T06:51:28Z</time>
      </trkpt>
      <trkpt lat="46.1015" lon="6.46696">
        <ele>1472.1</ele>
        <time>2015-07-15T06:51:36Z</time>
      </trkpt>
      <trkpt lat="46.10157" lon="6.46687">
        <ele>1473.6</ele>
        <time>2015-07-15T06:51:43Z</time>
      </trkpt>
      <trkpt lat="46.10162" lon="6.46678">
        <ele>1475.2</ele>
        <time>2015-07-15T06:51:49Z</time>
      </trkpt>
      <trkpt lat="46.10168" lon="6.46669">
        <ele>1476.6</ele>
        <time>2015-07-15T06:51:56Z</time>
      </trkpt>
      <trkpt lat="46.10175" lon="6.46661">
        <ele>1478.1</ele>
        <time>2015-07-15T06:52:04Z</time>
      </trkpt>
      <trkpt lat="46.10177" lon="6.4665">
        <ele>1479.5</ele>
        <time>2015-07-15T06:52:13Z</time>
      </trkpt>
      <trkpt lat="46.10183" lon="6.46641">
        <ele>1480.9</ele>
        <time>2015-07-15T06:52:21Z</time>
      </trkpt>
      <trkpt lat="46.10189" lon="6.4663">
        <ele>1482.3</ele>
        <time>2015-07-15T06:52:39Z</time>
      </trkpt>
      <trkpt lat="46.10196" lon="6.46624">
        <ele>1483.8</ele>
        <time>2015-07-15T06:52:51Z</time>
      </trkpt>
      <trkpt lat="46.10201" lon="6.46612">
        <ele>1485.3</ele>
        <time>2015-07-15T06:53:02Z</time>
      </trkpt>
      <trkpt lat="46.10206" lon="6.46602">
        <ele>1487.2</ele>
        <time>2015-07-15T06:53:12Z</time>
      </trkpt>
      <trkpt lat="46.10212" lon="6.46594">
        <ele>1489</ele>
        <time>2015-07-15T06:53:24Z</time>
      </trkpt>
      <trkpt lat="46.10216" lon="6.46584">
        <ele>1490.9</ele>
        <time>2015-07-15T06:53:37Z</time>
      </trkpt>
      <trkpt lat="46.10223" lon="6.46577">
        <ele>1493</ele>
        <time>2015-07-15T06:53:57Z</time>
      </trkpt>
      <trkpt lat="46.10233" lon="6.4657">
        <ele>1496</ele>
        <time>2015-07-15T06:54:16Z</time>
      </trkpt>
      <trkpt lat="46.10244" lon="6.46567">
        <ele>1499.3</ele>
        <time>2015-07-15T06:54:54Z</time>
      </trkpt>
      <trkpt lat="46.10252" lon="6.46562">
        <ele>1503.2</ele>
        <time>2015-07-15T06:55:00Z</time>
      </trkpt>
      <trkpt lat="46.10256" lon="6.4655">
        <ele>1507.1</ele>
        <time>2015-07-15T06:55:18Z</time>
      </trkpt>
      <trkpt lat="46.10247" lon="6.46555">
        <ele>1511.2</ele>
        <time>2015-07-15T06:55:30Z</time>
      </trkpt>
      <trkpt lat="46.10249" lon="6.46543">
        <ele>1515.4</ele>
        <time>2015-07-15T06:56:15Z</time>
      </trkpt>
      <trkpt lat="46.10251" lon="6.46531">
        <ele>1519.7</ele>
        <time>2015-07-15T06:56:29Z</time>
      </trkpt>
      <trkpt lat="46.10248" lon="6.4652">
        <ele>1523.7</ele>
        <time>2015-07-15T06:57:34Z</time>
      </trkpt>
      <trkpt lat="46.10243" lon="6.46511">
        <ele>1527.9</ele>
        <time>2015-07-15T06:57:49Z</time>
      </trkpt>
      <trkpt lat="46.10236" lon="6.46504">
        <ele>1532.2</ele>
        <time>2015-07-15T06:58:03Z</time>
      </trkpt>
      <trkpt lat="46.10229" lon="6.46497">
        <ele>1536.8</ele>
        <time>2015-07-15T06:58:16Z</time>
      </trkpt>
      <trkpt lat="46.10221" lon="6.46494">
        <ele>1540.5</ele>
        <time>2015-07-15T06:58:32Z</time>
      </trkpt>
      <trkpt lat="46.10215" lon="6.46487">
        <ele>1544.2</ele>
        <time>2015-07-15T06:58:51Z</time>
      </trkpt>
      <trkpt lat="46.10206" lon="6.46487">
        <ele>1547.4</ele>
        <time>2015-07-15T06:59:05Z</time>
      </trkpt>
      <trkpt lat="46.10195" lon="6.46485">
        <ele>1550.6</ele>
        <time>2015-07-15T06:59:29Z</time>
      </trkpt>
      <trkpt lat="46.10188" lon="6.46497">
        <ele>1553.9</ele>
        <time>2015-07-15T06:59:52Z</time>
      </trkpt>
      <trkpt lat="46.10181" lon="6.46506">
        <ele>1557</ele>
        <time>2015-07-15T07:00:19Z</time>
      </trkpt>
      <trkpt lat="46.10173" lon="6.46513">
        <ele>1560</ele>
        <time>2015-07-15T07:00:36Z</time>
      </trkpt>
      <trkpt lat="46.10164" lon="6.46515">
        <ele>1563.8</ele>
        <time>2015-07-15T07:00:50Z</time>
      </trkpt>
      <trkpt lat="46.10156" lon="6.46517">
        <ele>1567.5</ele>
        <time>2015-07-15T07:01:05Z</time>
      </trkpt>
      <trkpt lat="46.10147" lon="6.46512">
        <ele>1571.1</ele>
        <time>2015-07-15T07:01:25Z</time>
      </trkpt>
      <trkpt lat="46.1014" lon="6.46506">
        <ele>1574.4</ele>
        <time>2015-07-15T07:01:37Z</time>
      </trkpt>
      <trkpt lat="46.10134" lon="6.46497">
        <ele>1577.5</ele>
        <time>2015-07-15T07:01:49Z</time>
      </trkpt>
      <trkpt lat="46.1013" lon="6.46482">
        <ele>1580.5</ele>
        <time>2015-07-15T07:03:47Z</time>
      </trkpt>
      <trkpt lat="46.10126" lon="6.46465">
        <ele>1583.6</ele>
        <time>2015-07-15T07:04:08Z</time>
      </trkpt>
      <trkpt lat="46.10127" lon="6.46448">
        <ele>1586.7</ele>
        <time>2015-07-15T07:04:31Z</time>
      </trkpt>
      <trkpt lat="46.10132" lon="6.4643">
        <ele>1589.9</ele>
        <time>2015-07-15T07:04:55Z</time>
      </trkpt>
      <trkpt lat="46.10132" lon="6.46418">
        <ele>1593</ele>
        <time>2015-07-15T07:05:08Z</time>
      </trkpt>
      <trkpt lat="46.10133" lon="6.46405">
        <ele>1596.2</ele>
        <time>2015-07-15T07:05:24Z</time>
      </trkpt>
      <trkpt lat="46.10132" lon="6.46389">
        <ele>1598.6</ele>
        <time>2015-07-15T07:05:50Z</time>
      </trkpt>
      <trkpt lat="46.10126" lon="6.46397">
        <ele>1601.1</ele>
        <time>2015-07-15T07:06:09Z</time>
      </trkpt>
      <trkpt lat="46.10119" lon="6.46402">
        <ele>1603.6</ele>
        <time>2015-07-15T07:06:28Z</time>
      </trkpt>
      <trkpt lat="46.10111" lon="6.46407">
        <ele>1605.9</ele>
        <time>2015-07-15T07:06:39Z</time>
      </trkpt>
      <trkpt lat="46.10104" lon="6.46414">
        <ele>1608.3</ele>
        <time>2015-07-15T07:06:55Z</time>
      </trkpt>
      <trkpt lat="46.10097" lon="6.46421">
        <ele>1610.8</ele>
        <time>2015-07-15T07:07:11Z</time>
      </trkpt>
      <trkpt lat="46.10087" lon="6.46431">
        <ele>1613.7</ele>
        <time>2015-07-15T07:07:33Z</time>
      </trkpt>
      <trkpt lat="46.1008" lon="6.46438">
        <ele>1616.7</ele>
        <time>2015-07-15T07:07:46Z</time>
      </trkpt>
      <trkpt lat="46.10073" lon="6.46445">
        <ele>1619.5</ele>
        <time>2015-07-15T07:08:00Z</time>
      </trkpt>
      <trkpt lat="46.10068" lon="6.46455">
        <ele>1622.1</ele>
        <time>2015-07-15T07:08:16Z</time>
      </trkpt>
      <trkpt lat="46.10063" lon="6.46446">
        <ele>1624.8</ele>
        <time>2015-07-15T07:08:37Z</time>
      </trkpt>
      <trkpt lat="46.1006" lon="6.46434">
        <ele>1627.5</ele>
        <time>2015-07-15T07:08:59Z</time>
      </trkpt>
      <trkpt lat="46.10064" lon="6.46421">
        <ele>1629.9</ele>
        <time>2015-07-15T07:09:39Z</time>
      </trkpt>
      <trkpt lat="46.10067" lon="6.4641">
        <ele>1632.4</ele>
        <time>2015-07-15T07:09:49Z</time>
      </trkpt>
      <trkpt lat="46.10071" lon="6.46398">
        <ele>1634.8</ele>
        <time>2015-07-15T07:09:59Z</time>
      </trkpt>
      <trkpt lat="46.10074" lon="6.46387">
        <ele>1637.2</ele>
        <time>2015-07-15T07:10:10Z</time>
      </trkpt>
      <trkpt lat="46.10075" lon="6.46375">
        <ele>1639.3</ele>
        <time>2015-07-15T07:10:23Z</time>
      </trkpt>
      <trkpt lat="46.10079" lon="6.46364">
        <ele>1641.1</ele>
        <time>2015-07-15T07:10:34Z</time>
      </trkpt>
      <trkpt lat="46.10083" lon="6.46353">
        <ele>1642.8</ele>
        <time>2015-07-15T07:10:48Z</time>
      </trkpt>
      <trkpt lat="46.10089" lon="6.46343">
        <ele>1644.9</ele>
        <time>2015-07-15T07:10:59Z</time>
      </trkpt>
      <trkpt lat="46.10092" lon="6.46333">
        <ele>1647.4</ele>
        <time>2015-07-15T07:11:11Z</time>
      </trkpt>
      <trkpt lat="46.10095" lon="6.4632">
        <ele>1650</ele>
        <time>2015-07-15T07:11:22Z</time>
      </trkpt>
      <trkpt lat="46.10099" lon="6.46311">
        <ele>1653.3</ele>
        <time>2015-07-15T07:11:36Z</time>
      </trkpt>
      <trkpt lat="46.101" lon="6.46299">
        <ele>1656.5</ele>
        <time>2015-07-15T07:11:52Z</time>
      </trkpt>
      <trkpt lat="46.10104" lon="6.46282">
        <ele>1659.8</ele>
        <time>2015-07-15T07:12:25Z</time>
      </trkpt>
      <trkpt lat="46.10113" lon="6.46275">
        <ele>1663.2</ele>
        <time>2015-07-15T07:12:50Z</time>
      </trkpt>
      <trkpt lat="46.10119" lon="6.46264">
        <ele>1667.1</ele>
        <time>2015-07-15T07:13:13Z</time>
      </trkpt>
      <trkpt lat="46.10116" lon="6.46251">
        <ele>1671.1</ele>
        <time>2015-07-15T07:14:35Z</time>
      </trkpt>
      <trkpt lat="46.10119" lon="6.46239">
        <ele>1675.2</ele>
        <time>2015-07-15T07:14:50Z</time>
      </trkpt>
      <trkpt lat="46.1012" lon="6.46227">
        <ele>1679.5</ele>
        <time>2015-07-15T07:15:07Z</time>
      </trkpt>
      <trkpt lat="46.10122" lon="6.46213">
        <ele>1683.6</ele>
        <time>2015-07-15T07:15:34Z</time>
      </trkpt>
      <trkpt lat="46.10124" lon="6.46198">
        <ele>1687.8</ele>
        <time>2015-07-15T07:16:02Z</time>
      </trkpt>
      <trkpt lat="46.10126" lon="6.46182">
        <ele>1692.1</ele>
        <time>2015-07-15T07:16:40Z</time>
      </trkpt>
      <trkpt lat="46.10131" lon="6.46169">
        <ele>1695.7</ele>
        <time>2015-07-15T07:17:15Z</time>
      </trkpt>
      <trkpt lat="46.10135" lon="6.46156">
        <ele>1699.4</ele>
        <time>2015-07-15T07:17:43Z</time>
      </trkpt>
      <trkpt lat="46.10143" lon="6.46142">
        <ele>1703.2</ele>
        <time>2015-07-15T07:18:12Z</time>
      </trkpt>
      <trkpt lat="46.10148" lon="6.46128">
        <ele>1707.1</ele>
        <time>2015-07-15T07:18:37Z</time>
      </trkpt>
      <trkpt lat="46.10158" lon="6.4612">
        <ele>1710.8</ele>
        <time>2015-07-15T07:19:04Z</time>
      </trkpt>
      <trkpt lat="46.10165" lon="6.46113">
        <ele>1714.5</ele>
        <time>2015-07-15T07:19:18Z</time>
      </trkpt>
      <trkpt lat="46.10172" lon="6.46106">
        <ele>1717.9</ele>
        <time>2015-07-15T07:19:32Z</time>
      </trkpt>
      <trkpt lat="46.10177" lon="6.46098">
        <ele>1721.2</ele>
        <time>2015-07-15T07:19:49Z</time>
      </trkpt>
      <trkpt lat="46.10186" lon="6.46086">
        <ele>1724.6</ele>
        <time>2015-07-15T07:20:11Z</time>
      </trkpt>
      <trkpt lat="46.10196" lon="6.46078">
        <ele>1728.1</ele>
        <time>2015-07-15T07:20:42Z</time>
      </trkpt>
      <trkpt lat="46.10205" lon="6.46068">
        <ele>1731.5</ele>
        <time>2015-07-15T07:22:31Z</time>
      </trkpt>
      <trkpt lat="46.10212" lon="6.46061">
        <ele>1735.3</ele>
        <time>2015-07-15T07:22:46Z</time>
      </trkpt>
      <trkpt lat="46.1022" lon="6.46063">
        <ele>1739.2</ele>
        <time>2015-07-15T07:22:58Z</time>
      </trkpt>
      <trkpt lat="46.10225" lon="6.46052">
        <ele>1743.3</ele>
        <time>2015-07-15T07:23:35Z</time>
      </trkpt>
      <trkpt lat="46.10232" lon="6.4604">
        <ele>1747.4</ele>
        <time>2015-07-15T07:23:59Z</time>
      </trkpt>
      <trkpt lat="46.10242" lon="6.46033">
        <ele>1751.7</ele>
        <time>2015-07-15T07:24:35Z</time>
      </trkpt>
      <trkpt lat="46.10242" lon="6.4602">
        <ele>1756.1</ele>
        <time>2015-07-15T07:25:05Z</time>
      </trkpt>
      <trkpt lat="46.10244" lon="6.46006">
        <ele>1760.9</ele>
        <time>2015-07-15T07:25:35Z</time>
      </trkpt>
      <trkpt lat="46.10252" lon="6.45997">
        <ele>1766</ele>
        <time>2015-07-15T07:26:19Z</time>
      </trkpt>
      <trkpt lat="46.10257" lon="6.45985">
        <ele>1771</ele>
        <time>2015-07-15T07:26:57Z</time>
      </trkpt>
      <trkpt lat="46.10263" lon="6.45975">
        <ele>1776.1</ele>
        <time>2015-07-15T07:28:08Z</time>
      </trkpt>
      <trkpt lat="46.10271" lon="6.45966">
        <ele>1781.6</ele>
        <time>2015-07-15T07:28:49Z</time>
      </trkpt>
      <trkpt lat="46.10278" lon="6.45959">
        <ele>1787.1</ele>
        <time>2015-07-15T07:29:36Z</time>
      </trkpt>
      <trkpt lat="46.10285" lon="6.45952">
        <ele>1792.8</ele>
        <time>2015-07-15T07:30:59Z</time>
      </trkpt>
      <trkpt lat="46.10292" lon="6.45943">
        <ele>1798.3</ele>
        <time>2015-07-15T07:32:34Z</time>
      </trkpt>
      <trkpt lat="46.103" lon="6.45931">
        <ele>1804.1</ele>
        <time>2015-07-15T07:33:06Z</time>
      </trkpt>
      <trkpt lat="46.10307" lon="6.45921">
        <ele>1810</ele>
        <time>2015-07-15T07:35:23Z</time>
      </trkpt>
      <trkpt lat="46.10315" lon="6.45911">
        <ele>1816.2</ele>
        <time>2015-07-15T07:36:00Z</time>
      </trkpt>
      <trkpt lat="46.10322" lon="6.45901">
        <ele>1822</ele>
        <time>2015-07-15T07:37:41Z</time>
      </trkpt>
      <trkpt lat="46.1033" lon="6.45891">
        <ele>1827.8</ele>
        <time>2015-07-15T07:38:26Z</time>
      </trkpt>
      <trkpt lat="46.10338" lon="6.45882">
        <ele>1833.6</ele>
        <time>2015-07-15T07:39:02Z</time>
      </trkpt>
      <trkpt lat="46.10348" lon="6.45881">
        <ele>1839.3</ele>
        <time>2015-07-15T07:39:25Z</time>
      </trkpt>
      <trkpt lat="46.10355" lon="6.45875">
        <ele>1844.7</ele>
        <time>2015-07-15T07:42:02Z</time>
      </trkpt>
      <trkpt lat="46.10363" lon="6.45871">
        <ele>1849.9</ele>
        <time>2015-07-15T07:42:18Z</time>
      </trkpt>
      <trkpt lat="46.10373" lon="6.45864">
        <ele>1854.7</ele>
        <time>2015-07-15T07:42:50Z</time>
      </trkpt>
      <trkpt lat="46.10381" lon="6.45868">
        <ele>1859.3</ele>
        <time>2015-07-15T07:43:23Z</time>
      </trkpt>
      <trkpt lat="46.1039" lon="6.45865">
        <ele>1863.5</ele>
        <time>2015-07-15T07:44:11Z</time>
      </trkpt>
      <trkpt lat="46.10402" lon="6.45861">
        <ele>1867.2</ele>
        <time>2015-07-15T07:44:38Z</time>
      </trkpt>
      <trkpt lat="46.10414" lon="6.4586">
        <ele>1870.4</ele>
        <time>2015-07-15T07:45:02Z</time>
      </trkpt>
      <trkpt lat="46.10422" lon="6.45857">
        <ele>1873.3</ele>
        <time>2015-07-15T07:45:17Z</time>
      </trkpt>
      <trkpt lat="46.1043" lon="6.45855">
        <ele>1876</ele>
        <time>2015-07-15T07:45:32Z</time>
      </trkpt>
      <trkpt lat="46.10438" lon="6.45853">
        <ele>1878.2</ele>
        <time>2015-07-15T07:45:46Z</time>
      </trkpt>
      <trkpt lat="46.10445" lon="6.45846">
        <ele>1880.2</ele>
        <time>2015-07-15T07:45:58Z</time>
      </trkpt>
      <trkpt lat="46.10453" lon="6.4584">
        <ele>1881.8</ele>
        <time>2015-07-15T07:46:07Z</time>
      </trkpt>
      <trkpt lat="46.1046" lon="6.45833">
        <ele>1883.2</ele>
        <time>2015-07-15T07:46:15Z</time>
      </trkpt>
      <trkpt lat="46.10469" lon="6.4583">
        <ele>1884.5</ele>
        <time>2015-07-15T07:46:23Z</time>
      </trkpt>
      <trkpt lat="46.10476" lon="6.45822">
        <ele>1885.7</ele>
        <time>2015-07-15T07:46:33Z</time>
      </trkpt>
      <trkpt lat="46.10483" lon="6.45816">
        <ele>1886.8</ele>
        <time>2015-07-15T07:46:42Z</time>
      </trkpt>
      <trkpt lat="46.10491" lon="6.4581">
        <ele>1887.8</ele>
        <time>2015-07-15T07:46:50Z</time>
      </trkpt>
      <trkpt lat="46.10499" lon="6.45805">
        <ele>1888.7</ele>
        <time>2015-07-15T07:46:57Z</time>
      </trkpt>
      <trkpt lat="46.10508" lon="6.45802">
        <ele>1889.8</ele>
        <time>2015-07-15T07:47:06Z</time>
      </trkpt>
      <trkpt lat="46.10516" lon="6.45795">
        <ele>1891.1</ele>
        <time>2015-07-15T07:47:14Z</time>
      </trkpt>
      <trkpt lat="46.10523" lon="6.45789">
        <ele>1892.6</ele>
        <time>2015-07-15T07:47:21Z</time>
      </trkpt>
      <trkpt lat="46.1053" lon="6.45783">
        <ele>1894.3</ele>
        <time>2015-07-15T07:47:28Z</time>
      </trkpt>
      <trkpt lat="46.10539" lon="6.4578">
        <ele>1896.7</ele>
        <time>2015-07-15T07:47:36Z</time>
      </trkpt>
      <trkpt lat="46.10547" lon="6.45775">
        <ele>1898.9</ele>
        <time>2015-07-15T07:47:46Z</time>
      </trkpt>
      <trkpt lat="46.10556" lon="6.45767">
        <ele>1901.1</ele>
        <time>2015-07-15T07:48:11Z</time>
      </trkpt>
      <trkpt lat="46.10563" lon="6.45761">
        <ele>1903.1</ele>
        <time>2015-07-15T07:48:25Z</time>
      </trkpt>
      <trkpt lat="46.10574" lon="6.45758">
        <ele>1905.1</ele>
        <time>2015-07-15T07:48:48Z</time>
      </trkpt>
      <trkpt lat="46.10578" lon="6.45747">
        <ele>1906.9</ele>
        <time>2015-07-15T07:59:12Z</time>
      </trkpt>
      <trkpt lat="46.10581" lon="6.45736">
        <ele>1908.7</ele>
        <time>2015-07-15T07:59:20Z</time>
      </trkpt>
      <trkpt lat="46.10583" lon="6.45724">
        <ele>1910.1</ele>
        <time>2015-07-15T07:59:26Z</time>
      </trkpt>
      <trkpt lat="46.10586" lon="6.45712">
        <ele>1911</ele>
        <time>2015-07-15T07:59:32Z</time>
      </trkpt>
      <trkpt lat="46.10588" lon="6.457">
        <ele>1911.6</ele>
        <time>2015-07-15T07:59:39Z</time>
      </trkpt>
      <trkpt lat="46.10592" lon="6.45689">
        <ele>1911.5</ele>
        <time>2015-07-15T07:59:46Z</time>
      </trkpt>
      <trkpt lat="46.10593" lon="6.45678">
        <ele>1910.6</ele>
        <time>2015-07-15T07:59:53Z</time>
      </trkpt>
      <trkpt lat="46.10594" lon="6.45666">
        <ele>1909.5</ele>
        <time>2015-07-15T08:00:02Z</time>
      </trkpt>
      <trkpt lat="46.10592" lon="6.45655">
        <ele>1908.3</ele>
        <time>2015-07-15T08:00:13Z</time>
      </trkpt>
      <trkpt lat="46.10591" lon="6.45642">
        <ele>1907</ele>
        <time>2015-07-15T08:00:22Z</time>
      </trkpt>
      <trkpt lat="46.10592" lon="6.4563">
        <ele>1905.7</ele>
        <time>2015-07-15T08:00:31Z</time>
      </trkpt>
      <trkpt lat="46.10592" lon="6.45618">
        <ele>1904.2</ele>
        <time>2015-07-15T08:00:42Z</time>
      </trkpt>
      <trkpt lat="46.10594" lon="6.45605">
        <ele>1902.7</ele>
        <time>2015-07-15T08:01:06Z</time>
      </trkpt>
      <trkpt lat="46.10594" lon="6.45594">
        <ele>1901.1</ele>
        <time>2015-07-15T08:01:15Z</time>
      </trkpt>
      <trkpt lat="46.10594" lon="6.45581">
        <ele>1899.5</ele>
        <time>2015-07-15T08:01:22Z</time>
      </trkpt>
      <trkpt lat="46.10594" lon="6.45569">
        <ele>1897.9</ele>
        <time>2015-07-15T08:01:31Z</time>
      </trkpt>
      <trkpt lat="46.10595" lon="6.45557">
        <ele>1896.3</ele>
        <time>2015-07-15T08:01:39Z</time>
      </trkpt>
      <trkpt lat="46.10593" lon="6.45545">
        <ele>1894.9</ele>
        <time>2015-07-15T08:01:47Z</time>
      </trkpt>
      <trkpt lat="46.10592" lon="6.45532">
        <ele>1893.4</ele>
        <time>2015-07-15T08:01:56Z</time>
      </trkpt>
      <trkpt lat="46.10591" lon="6.4552">
        <ele>1891.9</ele>
        <time>2015-07-15T08:02:04Z</time>
      </trkpt>
      <trkpt lat="46.10589" lon="6.45507">
        <ele>1890.4</ele>
        <time>2015-07-15T08:02:13Z</time>
      </trkpt>
      <trkpt lat="46.10589" lon="6.45495">
        <ele>1888.9</ele>
        <time>2015-07-15T08:02:22Z</time>
      </trkpt>
      <trkpt lat="46.10587" lon="6.45482">
        <ele>1887.4</ele>
        <time>2015-07-15T08:02:29Z</time>
      </trkpt>
      <trkpt lat="46.10585" lon="6.4547">
        <ele>1885.8</ele>
        <time>2015-07-15T08:02:37Z</time>
      </trkpt>
      <trkpt lat="46.10585" lon="6.45457">
        <ele>1884.2</ele>
        <time>2015-07-15T08:02:46Z</time>
      </trkpt>
      <trkpt lat="46.10585" lon="6.45444">
        <ele>1882.6</ele>
        <time>2015-07-15T08:02:53Z</time>
      </trkpt>
      <trkpt lat="46.10585" lon="6.45432">
        <ele>1881</ele>
        <time>2015-07-15T08:03:00Z</time>
      </trkpt>
      <trkpt lat="46.10586" lon="6.4542">
        <ele>1879.3</ele>
        <time>2015-07-15T08:03:08Z</time>
      </trkpt>
      <trkpt lat="46.1059" lon="6.45408">
        <ele>1877.6</ele>
        <time>2015-07-15T08:03:16Z</time>
      </trkpt>
      <trkpt lat="46.10592" lon="6.45396">
        <ele>1875.9</ele>
        <time>2015-07-15T08:03:23Z</time>
      </trkpt>
      <trkpt lat="46.10594" lon="6.45384">
        <ele>1874.2</ele>
        <time>2015-07-15T08:03:30Z</time>
      </trkpt>
      <trkpt lat="46.10598" lon="6.45373">
        <ele>1872.5</ele>
        <time>2015-07-15T08:03:36Z</time>
      </trkpt>
      <trkpt lat="46.10603" lon="6.45362">
        <ele>1870.8</ele>
        <time>2015-07-15T08:03:44Z</time>
      </trkpt>
      <trkpt lat="46.10604" lon="6.4535">
        <ele>1869.2</ele>
        <time>2015-07-15T08:03:52Z</time>
      </trkpt>
      <trkpt lat="46.10607" lon="6.45338">
        <ele>1867.7</ele>
        <time>2015-07-15T08:04:00Z</time>
      </trkpt>
      <trkpt lat="46.1061" lon="6.45326">
        <ele>1866.2</ele>
        <time>2015-07-15T08:04:07Z</time>
      </trkpt>
      <trkpt lat="46.10611" lon="6.45314">
        <ele>1864.8</ele>
        <time>2015-07-15T08:04:15Z</time>
      </trkpt>
      <trkpt lat="46.10612" lon="6.45301">
        <ele>1863.2</ele>
        <time>2015-07-15T08:04:23Z</time>
      </trkpt>
      <trkpt lat="46.10612" lon="6.45289">
        <ele>1861.6</ele>
        <time>2015-07-15T08:04:30Z</time>
      </trkpt>
      <trkpt lat="46.10612" lon="6.45277">
        <ele>1860</ele>
        <time>2015-07-15T08:04:37Z</time>
      </trkpt>
      <trkpt lat="46.10613" lon="6.45264">
        <ele>1858.3</ele>
        <time>2015-07-15T08:04:46Z</time>
      </trkpt>
      <trkpt lat="46.10611" lon="6.45252">
        <ele>1856.5</ele>
        <time>2015-07-15T08:04:53Z</time>
      </trkpt>
      <trkpt lat="46.10613" lon="6.45241">
        <ele>1854.7</ele>
        <time>2015-07-15T08:05:02Z</time>
      </trkpt>
      <trkpt lat="46.10613" lon="6.45227">
        <ele>1852.8</ele>
        <time>2015-07-15T08:05:09Z</time>
      </trkpt>
      <trkpt lat="46.10613" lon="6.45215">
        <ele>1850.5</ele>
        <time>2015-07-15T08:05:17Z</time>
      </trkpt>
      <trkpt lat="46.10613" lon="6.45204">
        <ele>1847.9</ele>
        <time>2015-07-15T08:05:25Z</time>
      </trkpt>
      <trkpt lat="46.10613" lon="6.45191">
        <ele>1845.2</ele>
        <time>2015-07-15T08:05:36Z</time>
      </trkpt>
      <trkpt lat="46.10609" lon="6.45181">
        <ele>1841.9</ele>
        <time>2015-07-15T08:05:57Z</time>
      </trkpt>
      <trkpt lat="46.10607" lon="6.45169">
        <ele>1838.6</ele>
        <time>2015-07-15T08:06:10Z</time>
      </trkpt>
      <trkpt lat="46.10603" lon="6.45157">
        <ele>1835.3</ele>
        <time>2015-07-15T08:06:33Z</time>
      </trkpt>
      <trkpt lat="46.10597" lon="6.45148">
        <ele>1832</ele>
        <time>2015-07-15T08:06:50Z</time>
      </trkpt>
      <trkpt lat="46.10591" lon="6.45138">
        <ele>1828.4</ele>
        <time>2015-07-15T08:07:06Z</time>
      </trkpt>
      <trkpt lat="46.10587" lon="6.45122">
        <ele>1824.8</ele>
        <time>2015-07-15T08:07:38Z</time>
      </trkpt>
      <trkpt lat="46.10583" lon="6.45112">
        <ele>1821.3</ele>
        <time>2015-07-15T08:07:53Z</time>
      </trkpt>
      <trkpt lat="46.10576" lon="6.45104">
        <ele>1818.1</ele>
        <time>2015-07-15T08:08:06Z</time>
      </trkpt>
      <trkpt lat="46.1057" lon="6.45096">
        <ele>1815.1</ele>
        <time>2015-07-15T08:08:18Z</time>
      </trkpt>
      <trkpt lat="46.10568" lon="6.45083">
        <ele>1812.2</ele>
        <time>2015-07-15T08:08:35Z</time>
      </trkpt>
      <trkpt lat="46.10562" lon="6.4509">
        <ele>1809.5</ele>
        <time>2015-07-15T08:08:44Z</time>
      </trkpt>
      <trkpt lat="46.10557" lon="6.45099">
        <ele>1807.4</ele>
        <time>2015-07-15T08:08:54Z</time>
      </trkpt>
      <trkpt lat="46.10553" lon="6.45111">
        <ele>1805.4</ele>
        <time>2015-07-15T08:09:02Z</time>
      </trkpt>
      <trkpt lat="46.10549" lon="6.45121">
        <ele>1803.5</ele>
        <time>2015-07-15T08:09:09Z</time>
      </trkpt>
      <trkpt lat="46.10544" lon="6.45131">
        <ele>1801.6</ele>
        <time>2015-07-15T08:09:16Z</time>
      </trkpt>
      <trkpt lat="46.10541" lon="6.45142">
        <ele>1800.2</ele>
        <time>2015-07-15T08:09:24Z</time>
      </trkpt>
      <trkpt lat="46.10537" lon="6.45153">
        <ele>1798.7</ele>
        <time>2015-07-15T08:09:31Z</time>
      </trkpt>
      <trkpt lat="46.10534" lon="6.45165">
        <ele>1797.2</ele>
        <time>2015-07-15T08:09:38Z</time>
      </trkpt>
      <trkpt lat="46.10528" lon="6.45174">
        <ele>1795.7</ele>
        <time>2015-07-15T08:09:47Z</time>
      </trkpt>
      <trkpt lat="46.10525" lon="6.45185">
        <ele>1794.1</ele>
        <time>2015-07-15T08:09:56Z</time>
      </trkpt>
      <trkpt lat="46.10521" lon="6.45198">
        <ele>1792.6</ele>
        <time>2015-07-15T08:10:03Z</time>
      </trkpt>
      <trkpt lat="46.10517" lon="6.45209">
        <ele>1791.1</ele>
        <time>2015-07-15T08:10:12Z</time>
      </trkpt>
      <trkpt lat="46.10511" lon="6.45218">
        <ele>1789.4</ele>
        <time>2015-07-15T08:10:18Z</time>
      </trkpt>
      <trkpt lat="46.10507" lon="6.45228">
        <ele>1787.2</ele>
        <time>2015-07-15T08:10:25Z</time>
      </trkpt>
      <trkpt lat="46.10501" lon="6.45237">
        <ele>1785.1</ele>
        <time>2015-07-15T08:10:34Z</time>
      </trkpt>
      <trkpt lat="46.10495" lon="6.45247">
        <ele>1782.9</ele>
        <time>2015-07-15T08:10:41Z</time>
      </trkpt>
      <trkpt lat="46.10489" lon="6.45255">
        <ele>1780.7</ele>
        <time>2015-07-15T08:10:48Z</time>
      </trkpt>
      <trkpt lat="46.10483" lon="6.45264">
        <ele>1778.5</ele>
        <time>2015-07-15T08:10:57Z</time>
      </trkpt>
      <trkpt lat="46.1048" lon="6.45251">
        <ele>1776</ele>
        <time>2015-07-15T08:11:18Z</time>
      </trkpt>
      <trkpt lat="46.10482" lon="6.45239">
        <ele>1773.1</ele>
        <time>2015-07-15T08:11:25Z</time>
      </trkpt>
      <trkpt lat="46.10483" lon="6.45226">
        <ele>1770.1</ele>
        <time>2015-07-15T08:11:34Z</time>
      </trkpt>
      <trkpt lat="46.10485" lon="6.45214">
        <ele>1767</ele>
        <time>2015-07-15T08:11:42Z</time>
      </trkpt>
      <trkpt lat="46.10485" lon="6.45202">
        <ele>1763.9</ele>
        <time>2015-07-15T08:11:50Z</time>
      </trkpt>
      <trkpt lat="46.10487" lon="6.4519">
        <ele>1760.9</ele>
        <time>2015-07-15T08:12:08Z</time>
      </trkpt>
      <trkpt lat="46.10485" lon="6.45174">
        <ele>1758.6</ele>
        <time>2015-07-15T08:12:59Z</time>
      </trkpt>
      <trkpt lat="46.10486" lon="6.45161">
        <ele>1756.4</ele>
        <time>2015-07-15T08:13:31Z</time>
      </trkpt>
      <trkpt lat="46.10486" lon="6.4515">
        <ele>1754.4</ele>
        <time>2015-07-15T08:13:41Z</time>
      </trkpt>
      <trkpt lat="46.10485" lon="6.45136">
        <ele>1752.5</ele>
        <time>2015-07-15T08:14:51Z</time>
      </trkpt>
      <trkpt lat="46.10481" lon="6.45124">
        <ele>1750.8</ele>
        <time>2015-07-15T08:14:57Z</time>
      </trkpt>
      <trkpt lat="46.10481" lon="6.45112">
        <ele>1749.3</ele>
        <time>2015-07-15T08:15:02Z</time>
      </trkpt>
      <trkpt lat="46.10478" lon="6.451">
        <ele>1748.3</ele>
        <time>2015-07-15T08:15:06Z</time>
      </trkpt>
      <trkpt lat="46.10478" lon="6.45087">
        <ele>1747.6</ele>
        <time>2015-07-15T08:15:12Z</time>
      </trkpt>
      <trkpt lat="46.10476" lon="6.45076">
        <ele>1747</ele>
        <time>2015-07-15T08:15:18Z</time>
      </trkpt>
      <trkpt lat="46.10478" lon="6.45063">
        <ele>1746.6</ele>
        <time>2015-07-15T08:15:24Z</time>
      </trkpt>
      <trkpt lat="46.10477" lon="6.4505">
        <ele>1746</ele>
        <time>2015-07-15T08:15:32Z</time>
      </trkpt>
      <trkpt lat="46.10477" lon="6.45037">
        <ele>1745.4</ele>
        <time>2015-07-15T08:15:38Z</time>
      </trkpt>
      <trkpt lat="46.10475" lon="6.45026">
        <ele>1744.6</ele>
        <time>2015-07-15T08:15:44Z</time>
      </trkpt>
      <trkpt lat="46.10474" lon="6.45013">
        <ele>1743.8</ele>
        <time>2015-07-15T08:15:52Z</time>
      </trkpt>
      <trkpt lat="46.10473" lon="6.45">
        <ele>1742.8</ele>
        <time>2015-07-15T08:15:59Z</time>
      </trkpt>
      <trkpt lat="46.10472" lon="6.44988">
        <ele>1741.5</ele>
        <time>2015-07-15T08:16:07Z</time>
      </trkpt>
      <trkpt lat="46.10473" lon="6.44975">
        <ele>1739.9</ele>
        <time>2015-07-15T08:16:14Z</time>
      </trkpt>
      <trkpt lat="46.10471" lon="6.44963">
        <ele>1738.1</ele>
        <time>2015-07-15T08:16:19Z</time>
      </trkpt>
      <trkpt lat="46.10469" lon="6.4495">
        <ele>1735.9</ele>
        <time>2015-07-15T08:16:26Z</time>
      </trkpt>
      <trkpt lat="46.10469" lon="6.44938">
        <ele>1733.6</ele>
        <time>2015-07-15T08:16:40Z</time>
      </trkpt>
      <trkpt lat="46.10463" lon="6.4493">
        <ele>1731.2</ele>
        <time>2015-07-15T08:16:50Z</time>
      </trkpt>
      <trkpt lat="46.10459" lon="6.4492">
        <ele>1728.8</ele>
        <time>2015-07-15T08:17:08Z</time>
      </trkpt>
      <trkpt lat="46.10452" lon="6.44913">
        <ele>1726.5</ele>
        <time>2015-07-15T08:17:22Z</time>
      </trkpt>
      <trkpt lat="46.10443" lon="6.44918">
        <ele>1724.1</ele>
        <time>2015-07-15T08:17:49Z</time>
      </trkpt>
      <trkpt lat="46.10441" lon="6.4493">
        <ele>1721.6</ele>
        <time>2015-07-15T08:17:56Z</time>
      </trkpt>
      <trkpt lat="46.10441" lon="6.44943">
        <ele>1719</ele>
        <time>2015-07-15T08:18:08Z</time>
      </trkpt>
      <trkpt lat="46.10438" lon="6.44954">
        <ele>1716.6</ele>
        <time>2015-07-15T08:18:15Z</time>
      </trkpt>
      <trkpt lat="46.10437" lon="6.44967">
        <ele>1714.4</ele>
        <time>2015-07-15T08:18:20Z</time>
      </trkpt>
      <trkpt lat="46.1043" lon="6.44976">
        <ele>1712.3</ele>
        <time>2015-07-15T08:18:26Z</time>
      </trkpt>
      <trkpt lat="46.10425" lon="6.44988">
        <ele>1710.6</ele>
        <time>2015-07-15T08:18:34Z</time>
      </trkpt>
      <trkpt lat="46.10421" lon="6.45">
        <ele>1708.8</ele>
        <time>2015-07-15T08:18:42Z</time>
      </trkpt>
      <trkpt lat="46.10419" lon="6.45012">
        <ele>1707.1</ele>
        <time>2015-07-15T08:18:49Z</time>
      </trkpt>
      <trkpt lat="46.10418" lon="6.45025">
        <ele>1705.4</ele>
        <time>2015-07-15T08:18:56Z</time>
      </trkpt>
      <trkpt lat="46.10415" lon="6.45037">
        <ele>1703.6</ele>
        <time>2015-07-15T08:19:03Z</time>
      </trkpt>
      <trkpt lat="46.10414" lon="6.4505">
        <ele>1701.8</ele>
        <time>2015-07-15T08:19:09Z</time>
      </trkpt>
      <trkpt lat="46.1041" lon="6.45061">
        <ele>1700.2</ele>
        <time>2015-07-15T08:19:17Z</time>
      </trkpt>
      <trkpt lat="46.10405" lon="6.45073">
        <ele>1698.7</ele>
        <time>2015-07-15T08:19:25Z</time>
      </trkpt>
      <trkpt lat="46.10403" lon="6.45086">
        <ele>1697.4</ele>
        <time>2015-07-15T08:19:32Z</time>
      </trkpt>
      <trkpt lat="46.10401" lon="6.45099">
        <ele>1696.3</ele>
        <time>2015-07-15T08:19:40Z</time>
      </trkpt>
      <trkpt lat="46.10399" lon="6.45111">
        <ele>1695.3</ele>
        <time>2015-07-15T08:19:47Z</time>
      </trkpt>
      <trkpt lat="46.10398" lon="6.45123">
        <ele>1694.4</ele>
        <time>2015-07-15T08:19:54Z</time>
      </trkpt>
      <trkpt lat="46.10395" lon="6.45134">
        <ele>1693.6</ele>
        <time>2015-07-15T08:20:00Z</time>
      </trkpt>
      <trkpt lat="46.10393" lon="6.45147">
        <ele>1692.9</ele>
        <time>2015-07-15T08:20:07Z</time>
      </trkpt>
      <trkpt lat="46.10391" lon="6.45159">
        <ele>1692.4</ele>
        <time>2015-07-15T08:20:13Z</time>
      </trkpt>
      <trkpt lat="46.10389" lon="6.45171">
        <ele>1692.1</ele>
        <time>2015-07-15T08:20:21Z</time>
      </trkpt>
      <trkpt lat="46.10384" lon="6.45182">
        <ele>1691.8</ele>
        <time>2015-07-15T08:20:29Z</time>
      </trkpt>
      <trkpt lat="46.10378" lon="6.45188">
        <ele>1691.5</ele>
        <time>2015-07-15T08:20:35Z</time>
      </trkpt>
      <trkpt lat="46.10371" lon="6.45197">
        <ele>1691.1</ele>
        <time>2015-07-15T08:20:41Z</time>
      </trkpt>
      <trkpt lat="46.10367" lon="6.45207">
        <ele>1690.6</ele>
        <time>2015-07-15T08:20:48Z</time>
      </trkpt>
      <trkpt lat="46.10361" lon="6.45215">
        <ele>1690.1</ele>
        <time>2015-07-15T08:20:55Z</time>
      </trkpt>
      <trkpt lat="46.10358" lon="6.45227">
        <ele>1689.6</ele>
        <time>2015-07-15T08:21:02Z</time>
      </trkpt>
      <trkpt lat="46.10354" lon="6.45237">
        <ele>1689</ele>
        <time>2015-07-15T08:21:08Z</time>
      </trkpt>
      <trkpt lat="46.10351" lon="6.45248">
        <ele>1688.4</ele>
        <time>2015-07-15T08:21:16Z</time>
      </trkpt>
      <trkpt lat="46.10347" lon="6.4526">
        <ele>1687.7</ele>
        <time>2015-07-15T08:21:22Z</time>
      </trkpt>
      <trkpt lat="46.10345" lon="6.45272">
        <ele>1686.9</ele>
        <time>2015-07-15T08:21:28Z</time>
      </trkpt>
      <trkpt lat="46.10341" lon="6.45283">
        <ele>1685.9</ele>
        <time>2015-07-15T08:21:35Z</time>
      </trkpt>
      <trkpt lat="46.10336" lon="6.45294">
        <ele>1684.9</ele>
        <time>2015-07-15T08:21:43Z</time>
      </trkpt>
      <trkpt lat="46.10331" lon="6.45304">
        <ele>1684</ele>
        <time>2015-07-15T08:21:50Z</time>
      </trkpt>
      <trkpt lat="46.10329" lon="6.45316">
        <ele>1683.1</ele>
        <time>2015-07-15T08:21:58Z</time>
      </trkpt>
      <trkpt lat="46.10326" lon="6.45329">
        <ele>1682.1</ele>
        <time>2015-07-15T08:22:06Z</time>
      </trkpt>
      <trkpt lat="46.1032" lon="6.45339">
        <ele>1681.1</ele>
        <time>2015-07-15T08:22:14Z</time>
      </trkpt>
      <trkpt lat="46.10316" lon="6.45351">
        <ele>1679.9</ele>
        <time>2015-07-15T08:22:21Z</time>
      </trkpt>
      <trkpt lat="46.10316" lon="6.45365">
        <ele>1678.7</ele>
        <time>2015-07-15T08:22:28Z</time>
      </trkpt>
      <trkpt lat="46.10316" lon="6.45378">
        <ele>1677.5</ele>
        <time>2015-07-15T08:22:34Z</time>
      </trkpt>
      <trkpt lat="46.10314" lon="6.4539">
        <ele>1676.3</ele>
        <time>2015-07-15T08:22:41Z</time>
      </trkpt>
      <trkpt lat="46.10309" lon="6.45401">
        <ele>1675.3</ele>
        <time>2015-07-15T08:22:51Z</time>
      </trkpt>
      <trkpt lat="46.10306" lon="6.45413">
        <ele>1674.3</ele>
        <time>2015-07-15T08:22:58Z</time>
      </trkpt>
      <trkpt lat="46.103" lon="6.45423">
        <ele>1672.8</ele>
        <time>2015-07-15T08:23:05Z</time>
      </trkpt>
      <trkpt lat="46.10292" lon="6.45425">
        <ele>1671.3</ele>
        <time>2015-07-15T08:23:10Z</time>
      </trkpt>
      <trkpt lat="46.10284" lon="6.45431">
        <ele>1669.7</ele>
        <time>2015-07-15T08:23:17Z</time>
      </trkpt>
      <trkpt lat="46.10275" lon="6.45434">
        <ele>1668.1</ele>
        <time>2015-07-15T08:23:22Z</time>
      </trkpt>
      <trkpt lat="46.10266" lon="6.45438">
        <ele>1666.7</ele>
        <time>2015-07-15T08:23:29Z</time>
      </trkpt>
      <trkpt lat="46.10257" lon="6.45444">
        <ele>1665.3</ele>
        <time>2015-07-15T08:24:23Z</time>
      </trkpt>
      <trkpt lat="46.10249" lon="6.45443">
        <ele>1663.8</ele>
        <time>2015-07-15T08:24:36Z</time>
      </trkpt>
      <trkpt lat="46.1024" lon="6.45442">
        <ele>1662.2</ele>
        <time>2015-07-15T08:24:47Z</time>
      </trkpt>
      <trkpt lat="46.10231" lon="6.4544">
        <ele>1660.8</ele>
        <time>2015-07-15T08:24:55Z</time>
      </trkpt>
      <trkpt lat="46.10223" lon="6.45441">
        <ele>1659.1</ele>
        <time>2015-07-15T08:25:03Z</time>
      </trkpt>
      <trkpt lat="46.10216" lon="6.45447">
        <ele>1657.3</ele>
        <time>2015-07-15T08:25:12Z</time>
      </trkpt>
      <trkpt lat="46.10208" lon="6.45452">
        <ele>1655.6</ele>
        <time>2015-07-15T08:25:20Z</time>
      </trkpt>
      <trkpt lat="46.10198" lon="6.4545">
        <ele>1653.6</ele>
        <time>2015-07-15T08:25:45Z</time>
      </trkpt>
      <trkpt lat="46.1019" lon="6.45447">
        <ele>1651.5</ele>
        <time>2015-07-15T08:25:59Z</time>
      </trkpt>
      <trkpt lat="46.10181" lon="6.45446">
        <ele>1648.9</ele>
        <time>2015-07-15T08:26:09Z</time>
      </trkpt>
      <trkpt lat="46.10173" lon="6.45449">
        <ele>1646.2</ele>
        <time>2015-07-15T08:26:22Z</time>
      </trkpt>
      <trkpt lat="46.10165" lon="6.4545">
        <ele>1643.4</ele>
        <time>2015-07-15T08:26:37Z</time>
      </trkpt>
      <trkpt lat="46.10157" lon="6.45453">
        <ele>1640.5</ele>
        <time>2015-07-15T08:26:53Z</time>
      </trkpt>
      <trkpt lat="46.10148" lon="6.45453">
        <ele>1637.6</ele>
        <time>2015-07-15T08:27:10Z</time>
      </trkpt>
      <trkpt lat="46.1014" lon="6.45455">
        <ele>1634.5</ele>
        <time>2015-07-15T08:27:24Z</time>
      </trkpt>
      <trkpt lat="46.10132" lon="6.45457">
        <ele>1631.3</ele>
        <time>2015-07-15T08:27:40Z</time>
      </trkpt>
      <trkpt lat="46.10123" lon="6.45458">
        <ele>1628.2</ele>
        <time>2015-07-15T08:27:50Z</time>
      </trkpt>
      <trkpt lat="46.10115" lon="6.45459">
        <ele>1624.1</ele>
        <time>2015-07-15T08:28:01Z</time>
      </trkpt>
      <trkpt lat="46.10106" lon="6.45456">
        <ele>1620.3</ele>
        <time>2015-07-15T08:28:12Z</time>
      </trkpt>
      <trkpt lat="46.10098" lon="6.45453">
        <ele>1616.9</ele>
        <time>2015-07-15T08:28:22Z</time>
      </trkpt>
      <trkpt lat="46.10093" lon="6.45443">
        <ele>1613.8</ele>
        <time>2015-07-15T08:28:43Z</time>
      </trkpt>
      <trkpt lat="46.10097" lon="6.45432">
        <ele>1610.8</ele>
        <time>2015-07-15T08:28:53Z</time>
      </trkpt>
      <trkpt lat="46.10094" lon="6.45421">
        <ele>1607.9</ele>
        <time>2015-07-15T08:33:34Z</time>
      </trkpt>
      <trkpt lat="46.10087" lon="6.45412">
        <ele>1605.1</ele>
        <time>2015-07-15T08:33:44Z</time>
      </trkpt>
      <trkpt lat="46.10078" lon="6.45409">
        <ele>1602.3</ele>
        <time>2015-07-15T08:33:50Z</time>
      </trkpt>
      <trkpt lat="46.1007" lon="6.45407">
        <ele>1599.6</ele>
        <time>2015-07-15T08:33:57Z</time>
      </trkpt>
      <trkpt lat="46.10061" lon="6.45412">
        <ele>1597.1</ele>
        <time>2015-07-15T08:34:05Z</time>
      </trkpt>
      <trkpt lat="46.10059" lon="6.45423">
        <ele>1594.8</ele>
        <time>2015-07-15T08:34:14Z</time>
      </trkpt>
      <trkpt lat="46.10051" lon="6.4543">
        <ele>1594</ele>
        <time>2015-07-15T08:34:26Z</time>
      </trkpt>
      <trkpt lat="46.10051" lon="6.45442">
        <ele>1593.1</ele>
        <time>2015-07-15T08:34:42Z</time>
      </trkpt>
      <trkpt lat="46.10055" lon="6.45453">
        <ele>1592.2</ele>
        <time>2015-07-15T08:34:50Z</time>
      </trkpt>
      <trkpt lat="46.10057" lon="6.45465">
        <ele>1591.3</ele>
        <time>2015-07-15T08:34:57Z</time>
      </trkpt>
      <trkpt lat="46.10055" lon="6.45478">
        <ele>1590.6</ele>
        <time>2015-07-15T08:35:03Z</time>
      </trkpt>
      <trkpt lat="46.10057" lon="6.45489">
        <ele>1590</ele>
        <time>2015-07-15T08:35:10Z</time>
      </trkpt>
      <trkpt lat="46.10064" lon="6.45497">
        <ele>1589.4</ele>
        <time>2015-07-15T08:35:17Z</time>
      </trkpt>
      <trkpt lat="46.10064" lon="6.45509">
        <ele>1589.1</ele>
        <time>2015-07-15T08:35:26Z</time>
      </trkpt>
      <trkpt lat="46.10064" lon="6.45522">
        <ele>1588.9</ele>
        <time>2015-07-15T08:35:37Z</time>
      </trkpt>
      <trkpt lat="46.10062" lon="6.45534">
        <ele>1588.6</ele>
        <time>2015-07-15T08:35:44Z</time>
      </trkpt>
      <trkpt lat="46.10065" lon="6.45545">
        <ele>1588.4</ele>
        <time>2015-07-15T08:35:49Z</time>
      </trkpt>
      <trkpt lat="46.1007" lon="6.45556">
        <ele>1588.3</ele>
        <time>2015-07-15T08:35:58Z</time>
      </trkpt>
      <trkpt lat="46.10069" lon="6.45569">
        <ele>1588.2</ele>
        <time>2015-07-15T08:36:05Z</time>
      </trkpt>
      <trkpt lat="46.10071" lon="6.4558">
        <ele>1588.2</ele>
        <time>2015-07-15T08:36:11Z</time>
      </trkpt>
      <trkpt lat="46.10071" lon="6.45592">
        <ele>1588.3</ele>
        <time>2015-07-15T08:36:18Z</time>
      </trkpt>
      <trkpt lat="46.10075" lon="6.45604">
        <ele>1588.6</ele>
        <time>2015-07-15T08:36:26Z</time>
      </trkpt>
      <trkpt lat="46.10071" lon="6.45616">
        <ele>1588.9</ele>
        <time>2015-07-15T08:36:33Z</time>
      </trkpt>
      <trkpt lat="46.1007" lon="6.45629">
        <ele>1589.3</ele>
        <time>2015-07-15T08:36:39Z</time>
      </trkpt>
      <trkpt lat="46.10069" lon="6.45644">
        <ele>1589.8</ele>
        <time>2015-07-15T08:36:46Z</time>
      </trkpt>
      <trkpt lat="46.10067" lon="6.45656">
        <ele>1590.2</ele>
        <time>2015-07-15T08:36:56Z</time>
      </trkpt>
      <trkpt lat="46.10064" lon="6.45668">
        <ele>1590.6</ele>
        <time>2015-07-15T08:37:06Z</time>
      </trkpt>
      <trkpt lat="46.10061" lon="6.45679">
        <ele>1591</ele>
        <time>2015-07-15T08:37:13Z</time>
      </trkpt>
      <trkpt lat="46.10061" lon="6.45692">
        <ele>1591.4</ele>
        <time>2015-07-15T08:37:20Z</time>
      </trkpt>
      <trkpt lat="46.10061" lon="6.45704">
        <ele>1591.8</ele>
        <time>2015-07-15T08:37:28Z</time>
      </trkpt>
      <trkpt lat="46.10059" lon="6.45716">
        <ele>1592.3</ele>
        <time>2015-07-15T08:37:34Z</time>
      </trkpt>
      <trkpt lat="46.1006" lon="6.45728">
        <ele>1592.7</ele>
        <time>2015-07-15T08:37:40Z</time>
      </trkpt>
      <trkpt lat="46.10062" lon="6.4574">
        <ele>1593</ele>
        <time>2015-07-15T08:37:46Z</time>
      </trkpt>
      <trkpt lat="46.10064" lon="6.45752">
        <ele>1593.3</ele>
        <time>2015-07-15T08:37:53Z</time>
      </trkpt>
      <trkpt lat="46.10065" lon="6.45764">
        <ele>1593.6</ele>
        <time>2015-07-15T08:38:01Z</time>
      </trkpt>
      <trkpt lat="46.10071" lon="6.45776">
        <ele>1593.9</ele>
        <time>2015-07-15T08:38:11Z</time>
      </trkpt>
      <trkpt lat="46.10069" lon="6.45788">
        <ele>1594.2</ele>
        <time>2015-07-15T08:38:20Z</time>
      </trkpt>
      <trkpt lat="46.10068" lon="6.45802">
        <ele>1594.7</ele>
        <time>2015-07-15T08:38:31Z</time>
      </trkpt>
      <trkpt lat="46.10068" lon="6.45814">
        <ele>1595.3</ele>
        <time>2015-07-15T08:38:40Z</time>
      </trkpt>
      <trkpt lat="46.10062" lon="6.45824">
        <ele>1595.9</ele>
        <time>2015-07-15T08:38:50Z</time>
      </trkpt>
      <trkpt lat="46.10059" lon="6.45836">
        <ele>1596.4</ele>
        <time>2015-07-15T08:39:01Z</time>
      </trkpt>
      <trkpt lat="46.10056" lon="6.45846">
        <ele>1596.9</ele>
        <time>2015-07-15T08:39:11Z</time>
      </trkpt>
      <trkpt lat="46.10053" lon="6.45858">
        <ele>1597.5</ele>
        <time>2015-07-15T08:39:22Z</time>
      </trkpt>
      <trkpt lat="46.1005" lon="6.45869">
        <ele>1597.9</ele>
        <time>2015-07-15T08:39:30Z</time>
      </trkpt>
      <trkpt lat="46.10046" lon="6.45879">
        <ele>1598.4</ele>
        <time>2015-07-15T08:39:39Z</time>
      </trkpt>
      <trkpt lat="46.10045" lon="6.45891">
        <ele>1598.8</ele>
        <time>2015-07-15T08:39:48Z</time>
      </trkpt>
      <trkpt lat="46.10046" lon="6.45903">
        <ele>1599.2</ele>
        <time>2015-07-15T08:39:59Z</time>
      </trkpt>
      <trkpt lat="46.10046" lon="6.45915">
        <ele>1599.5</ele>
        <time>2015-07-15T08:40:09Z</time>
      </trkpt>
      <trkpt lat="46.10048" lon="6.45927">
        <ele>1599.6</ele>
        <time>2015-07-15T08:40:16Z</time>
      </trkpt>
      <trkpt lat="46.10047" lon="6.45939">
        <ele>1599.8</ele>
        <time>2015-07-15T08:40:24Z</time>
      </trkpt>
      <trkpt lat="46.10048" lon="6.45951">
        <ele>1600</ele>
        <time>2015-07-15T08:40:33Z</time>
      </trkpt>
      <trkpt lat="46.1005" lon="6.45965">
        <ele>1600.1</ele>
        <time>2015-07-15T08:40:41Z</time>
      </trkpt>
      <trkpt lat="46.1005" lon="6.45977">
        <ele>1600.2</ele>
        <time>2015-07-15T08:40:57Z</time>
      </trkpt>
      <trkpt lat="46.10053" lon="6.4599">
        <ele>1600.3</ele>
        <time>2015-07-15T08:41:08Z</time>
      </trkpt>
      <trkpt lat="46.10051" lon="6.46002">
        <ele>1600.7</ele>
        <time>2015-07-15T08:41:17Z</time>
      </trkpt>
      <trkpt lat="46.10047" lon="6.46013">
        <ele>1601</ele>
        <time>2015-07-15T08:41:22Z</time>
      </trkpt>
      <trkpt lat="46.10044" lon="6.46027">
        <ele>1601.4</ele>
        <time>2015-07-15T08:41:26Z</time>
      </trkpt>
      <trkpt lat="46.10041" lon="6.46039">
        <ele>1601.9</ele>
        <time>2015-07-15T08:41:33Z</time>
      </trkpt>
      <trkpt lat="46.10039" lon="6.46051">
        <ele>1602.4</ele>
        <time>2015-07-15T08:41:49Z</time>
      </trkpt>
      <trkpt lat="46.10034" lon="6.46061">
        <ele>1603.1</ele>
        <time>2015-07-15T08:42:05Z</time>
      </trkpt>
      <trkpt lat="46.10029" lon="6.46071">
        <ele>1604</ele>
        <time>2015-07-15T08:42:14Z</time>
      </trkpt>
      <trkpt lat="46.10028" lon="6.46083">
        <ele>1604.7</ele>
        <time>2015-07-15T08:42:22Z</time>
      </trkpt>
      <trkpt lat="46.10027" lon="6.46095">
        <ele>1605.5</ele>
        <time>2015-07-15T08:42:30Z</time>
      </trkpt>
      <trkpt lat="46.10025" lon="6.46107">
        <ele>1606.4</ele>
        <time>2015-07-15T08:42:42Z</time>
      </trkpt>
      <trkpt lat="46.1002" lon="6.46118">
        <ele>1607.1</ele>
        <time>2015-07-15T08:42:53Z</time>
      </trkpt>
      <trkpt lat="46.1002" lon="6.4613">
        <ele>1607.7</ele>
        <time>2015-07-15T08:43:08Z</time>
      </trkpt>
      <trkpt lat="46.1002" lon="6.46142">
        <ele>1608.4</ele>
        <time>2015-07-15T08:43:16Z</time>
      </trkpt>
      <trkpt lat="46.10012" lon="6.46139">
        <ele>1609.2</ele>
        <time>2015-07-15T08:44:05Z</time>
      </trkpt>
      <trkpt lat="46.10021" lon="6.46145">
        <ele>1610</ele>
        <time>2015-07-15T08:44:27Z</time>
      </trkpt>
      <trkpt lat="46.1002" lon="6.46158">
        <ele>1610.9</ele>
        <time>2015-07-15T08:44:54Z</time>
      </trkpt>
      <trkpt lat="46.10021" lon="6.4617">
        <ele>1611.6</ele>
        <time>2015-07-15T08:45:00Z</time>
      </trkpt>
      <trkpt lat="46.10022" lon="6.46182">
        <ele>1612.4</ele>
        <time>2015-07-15T08:45:06Z</time>
      </trkpt>
      <trkpt lat="46.10023" lon="6.46195">
        <ele>1613.2</ele>
        <time>2015-07-15T08:45:13Z</time>
      </trkpt>
      <trkpt lat="46.10028" lon="6.46206">
        <ele>1613.9</ele>
        <time>2015-07-15T08:45:23Z</time>
      </trkpt>
      <trkpt lat="46.10031" lon="6.46218">
        <ele>1614.7</ele>
        <time>2015-07-15T08:45:36Z</time>
      </trkpt>
      <trkpt lat="46.10037" lon="6.46228">
        <ele>1615.6</ele>
        <time>2015-07-15T08:45:45Z</time>
      </trkpt>
      <trkpt lat="46.10036" lon="6.46239">
        <ele>1616.4</ele>
        <time>2015-07-15T08:45:56Z</time>
      </trkpt>
      <trkpt lat="46.10039" lon="6.46251">
        <ele>1617.3</ele>
        <time>2015-07-15T08:46:06Z</time>
      </trkpt>
      <trkpt lat="46.10046" lon="6.46258">
        <ele>1618.1</ele>
        <time>2015-07-15T08:46:14Z</time>
      </trkpt>
      <trkpt lat="46.10044" lon="6.46271">
        <ele>1618.8</ele>
        <time>2015-07-15T08:46:22Z</time>
      </trkpt>
      <trkpt lat="46.10047" lon="6.46283">
        <ele>1619.3</ele>
        <time>2015-07-15T08:46:32Z</time>
      </trkpt>
      <trkpt lat="46.10052" lon="6.46292">
        <ele>1619.7</ele>
        <time>2015-07-15T08:46:39Z</time>
      </trkpt>
      <trkpt lat="46.1005" lon="6.46307">
        <ele>1620.2</ele>
        <time>2015-07-15T08:46:46Z</time>
      </trkpt>
      <trkpt lat="46.10047" lon="6.46318">
        <ele>1620.8</ele>
        <time>2015-07-15T08:46:54Z</time>
      </trkpt>
      <trkpt lat="46.1005" lon="6.4633">
        <ele>1621.6</ele>
        <time>2015-07-15T08:47:05Z</time>
      </trkpt>
      <trkpt lat="46.10049" lon="6.46342">
        <ele>1622.4</ele>
        <time>2015-07-15T08:47:21Z</time>
      </trkpt>
      <trkpt lat="46.10048" lon="6.46355">
        <ele>1623.2</ele>
        <time>2015-07-15T08:47:29Z</time>
      </trkpt>
      <trkpt lat="46.10046" lon="6.46366">
        <ele>1624.2</ele>
        <time>2015-07-15T08:47:33Z</time>
      </trkpt>
      <trkpt lat="46.10046" lon="6.4638">
        <ele>1625.8</ele>
        <time>2015-07-15T08:47:42Z</time>
      </trkpt>
      <trkpt lat="46.10047" lon="6.46393">
        <ele>1627.4</ele>
        <time>2015-07-15T08:47:50Z</time>
      </trkpt>
      <trkpt lat="46.10049" lon="6.46405">
        <ele>1629</ele>
        <time>2015-07-15T08:47:57Z</time>
      </trkpt>
      <trkpt lat="46.10054" lon="6.46415">
        <ele>1630.5</ele>
        <time>2015-07-15T08:48:07Z</time>
      </trkpt>
      <trkpt lat="46.10059" lon="6.46425">
        <ele>1631.9</ele>
        <time>2015-07-15T08:48:18Z</time>
      </trkpt>
      <trkpt lat="46.10062" lon="6.46437">
        <ele>1633.1</ele>
        <time>2015-07-15T08:50:10Z</time>
      </trkpt>
      <trkpt lat="46.10067" lon="6.46446">
        <ele>1633.9</ele>
        <time>2015-07-15T08:50:22Z</time>
      </trkpt>
      <trkpt lat="46.10072" lon="6.46457">
        <ele>1634.4</ele>
        <time>2015-07-15T08:50:30Z</time>
      </trkpt>
      <trkpt lat="46.10078" lon="6.4645">
        <ele>1634.7</ele>
        <time>2015-07-15T08:50:42Z</time>
      </trkpt>
      <trkpt lat="46.10085" lon="6.46443">
        <ele>1634.8</ele>
        <time>2015-07-15T08:50:49Z</time>
      </trkpt>
      <trkpt lat="46.10092" lon="6.46436">
        <ele>1634.5</ele>
        <time>2015-07-15T08:50:56Z</time>
      </trkpt>
      <trkpt lat="46.10096" lon="6.46425">
        <ele>1633.4</ele>
        <time>2015-07-15T08:51:50Z</time>
      </trkpt>
      <trkpt lat="46.10103" lon="6.46418">
        <ele>1632</ele>
        <time>2015-07-15T08:51:58Z</time>
      </trkpt>
      <trkpt lat="46.1011" lon="6.4641">
        <ele>1630.4</ele>
        <time>2015-07-15T08:52:06Z</time>
      </trkpt>
      <trkpt lat="46.10117" lon="6.46405">
        <ele>1628.7</ele>
        <time>2015-07-15T08:52:13Z</time>
      </trkpt>
      <trkpt lat="46.10124" lon="6.46399">
        <ele>1626.9</ele>
        <time>2015-07-15T08:52:23Z</time>
      </trkpt>
      <trkpt lat="46.10132" lon="6.46396">
        <ele>1625</ele>
        <time>2015-07-15T08:52:35Z</time>
      </trkpt>
      <trkpt lat="46.1014" lon="6.46399">
        <ele>1623.1</ele>
        <time>2015-07-15T08:52:45Z</time>
      </trkpt>
      <trkpt lat="46.10142" lon="6.46412">
        <ele>1621.1</ele>
        <time>2015-07-15T08:52:57Z</time>
      </trkpt>
      <trkpt lat="46.10142" lon="6.46425">
        <ele>1619</ele>
        <time>2015-07-15T08:53:06Z</time>
      </trkpt>
      <trkpt lat="46.10141" lon="6.46436">
        <ele>1616.6</ele>
        <time>2015-07-15T08:53:13Z</time>
      </trkpt>
      <trkpt lat="46.10139" lon="6.46448">
        <ele>1614.2</ele>
        <time>2015-07-15T08:53:22Z</time>
      </trkpt>
      <trkpt lat="46.10137" lon="6.4646">
        <ele>1611.8</ele>
        <time>2015-07-15T08:53:31Z</time>
      </trkpt>
      <trkpt lat="46.10136" lon="6.46473">
        <ele>1609.6</ele>
        <time>2015-07-15T08:53:40Z</time>
      </trkpt>
      <trkpt lat="46.10137" lon="6.46485">
        <ele>1607.4</ele>
        <time>2015-07-15T08:53:50Z</time>
      </trkpt>
      <trkpt lat="46.10146" lon="6.4649">
        <ele>1605.1</ele>
        <time>2015-07-15T08:54:11Z</time>
      </trkpt>
      <trkpt lat="46.10153" lon="6.46485">
        <ele>1602.6</ele>
        <time>2015-07-15T08:54:22Z</time>
      </trkpt>
      <trkpt lat="46.10161" lon="6.46483">
        <ele>1599.6</ele>
        <time>2015-07-15T08:54:33Z</time>
      </trkpt>
      <trkpt lat="46.1017" lon="6.46482">
        <ele>1596.8</ele>
        <time>2015-07-15T08:54:42Z</time>
      </trkpt>
      <trkpt lat="46.10178" lon="6.46477">
        <ele>1594</ele>
        <time>2015-07-15T08:54:51Z</time>
      </trkpt>
      <trkpt lat="46.10187" lon="6.46482">
        <ele>1591.3</ele>
        <time>2015-07-15T08:55:02Z</time>
      </trkpt>
      <trkpt lat="46.10194" lon="6.46488">
        <ele>1588.7</ele>
        <time>2015-07-15T08:55:16Z</time>
      </trkpt>
      <trkpt lat="46.10202" lon="6.46487">
        <ele>1586</ele>
        <time>2015-07-15T08:56:07Z</time>
      </trkpt>
      <trkpt lat="46.10211" lon="6.46485">
        <ele>1583.4</ele>
        <time>2015-07-15T08:56:20Z</time>
      </trkpt>
      <trkpt lat="46.10219" lon="6.46488">
        <ele>1580.7</ele>
        <time>2015-07-15T08:56:29Z</time>
      </trkpt>
      <trkpt lat="46.10227" lon="6.46493">
        <ele>1578.2</ele>
        <time>2015-07-15T08:56:38Z</time>
      </trkpt>
      <trkpt lat="46.10234" lon="6.46497">
        <ele>1575.6</ele>
        <time>2015-07-15T08:56:48Z</time>
      </trkpt>
      <trkpt lat="46.1024" lon="6.46505">
        <ele>1573.1</ele>
        <time>2015-07-15T08:56:59Z</time>
      </trkpt>
      <trkpt lat="46.10247" lon="6.46512">
        <ele>1570.8</ele>
        <time>2015-07-15T08:57:08Z</time>
      </trkpt>
      <trkpt lat="46.10255" lon="6.46518">
        <ele>1567.9</ele>
        <time>2015-07-15T08:57:15Z</time>
      </trkpt>
      <trkpt lat="46.10261" lon="6.46526">
        <ele>1564.8</ele>
        <time>2015-07-15T08:57:23Z</time>
      </trkpt>
      <trkpt lat="46.10262" lon="6.46538">
        <ele>1561.6</ele>
        <time>2015-07-15T08:57:33Z</time>
      </trkpt>
      <trkpt lat="46.10258" lon="6.46548">
        <ele>1558.2</ele>
        <time>2015-07-15T08:57:42Z</time>
      </trkpt>
      <trkpt lat="46.10255" lon="6.4656">
        <ele>1554.3</ele>
        <time>2015-07-15T08:58:06Z</time>
      </trkpt>
      <trkpt lat="46.10262" lon="6.46567">
        <ele>1550.4</ele>
        <time>2015-07-15T08:58:40Z</time>
      </trkpt>
      <trkpt lat="46.10258" lon="6.46577">
        <ele>1546.4</ele>
        <time>2015-07-15T08:58:55Z</time>
      </trkpt>
      <trkpt lat="46.1025" lon="6.46581">
        <ele>1542.6</ele>
        <time>2015-07-15T08:59:06Z</time>
      </trkpt>
      <trkpt lat="46.10239" lon="6.46588">
        <ele>1539.1</ele>
        <time>2015-07-15T08:59:29Z</time>
      </trkpt>
      <trkpt lat="46.10232" lon="6.46596">
        <ele>1535.5</ele>
        <time>2015-07-15T09:00:24Z</time>
      </trkpt>
      <trkpt lat="46.10225" lon="6.46604">
        <ele>1532.2</ele>
        <time>2015-07-15T09:00:39Z</time>
      </trkpt>
      <trkpt lat="46.10221" lon="6.46614">
        <ele>1529.5</ele>
        <time>2015-07-15T09:00:50Z</time>
      </trkpt>
      <trkpt lat="46.10215" lon="6.46623">
        <ele>1527.2</ele>
        <time>2015-07-15T09:01:00Z</time>
      </trkpt>
      <trkpt lat="46.1021" lon="6.46633">
        <ele>1524.9</ele>
        <time>2015-07-15T09:01:12Z</time>
      </trkpt>
      <trkpt lat="46.10203" lon="6.46641">
        <ele>1523.1</ele>
        <time>2015-07-15T09:01:23Z</time>
      </trkpt>
      <trkpt lat="46.10197" lon="6.4665">
        <ele>1521.9</ele>
        <time>2015-07-15T09:01:38Z</time>
      </trkpt>
      <trkpt lat="46.10192" lon="6.46659">
        <ele>1520.9</ele>
        <time>2015-07-15T09:01:46Z</time>
      </trkpt>
      <trkpt lat="46.10187" lon="6.4667">
        <ele>1520</ele>
        <time>2015-07-15T09:01:54Z</time>
      </trkpt>
      <trkpt lat="46.10181" lon="6.46678">
        <ele>1519.1</ele>
        <time>2015-07-15T09:02:02Z</time>
      </trkpt>
      <trkpt lat="46.10177" lon="6.46689">
        <ele>1518.3</ele>
        <time>2015-07-15T09:02:09Z</time>
      </trkpt>
      <trkpt lat="46.10171" lon="6.46699">
        <ele>1517.6</ele>
        <time>2015-07-15T09:02:15Z</time>
      </trkpt>
      <trkpt lat="46.10165" lon="6.46706">
        <ele>1517.2</ele>
        <time>2015-07-15T09:02:21Z</time>
      </trkpt>
      <trkpt lat="46.10157" lon="6.46714">
        <ele>1516.7</ele>
        <time>2015-07-15T09:02:27Z</time>
      </trkpt>
      <trkpt lat="46.10151" lon="6.46722">
        <ele>1516.3</ele>
        <time>2015-07-15T09:02:34Z</time>
      </trkpt>
      <trkpt lat="46.10146" lon="6.46731">
        <ele>1515.8</ele>
        <time>2015-07-15T09:02:41Z</time>
      </trkpt>
      <trkpt lat="46.10139" lon="6.46741">
        <ele>1515.4</ele>
        <time>2015-07-15T09:02:48Z</time>
      </trkpt>
      <trkpt lat="46.10133" lon="6.46749">
        <ele>1515</ele>
        <time>2015-07-15T09:02:55Z</time>
      </trkpt>
      <trkpt lat="46.10127" lon="6.46758">
        <ele>1514.6</ele>
        <time>2015-07-15T09:03:04Z</time>
      </trkpt>
      <trkpt lat="46.10121" lon="6.46766">
        <ele>1514.2</ele>
        <time>2015-07-15T09:03:11Z</time>
      </trkpt>
      <trkpt lat="46.10115" lon="6.46775">
        <ele>1513.8</ele>
        <time>2015-07-15T09:03:19Z</time>
      </trkpt>
      <trkpt lat="46.10109" lon="6.46784">
        <ele>1513.4</ele>
        <time>2015-07-15T09:03:25Z</time>
      </trkpt>
      <trkpt lat="46.10104" lon="6.46793">
        <ele>1513</ele>
        <time>2015-07-15T09:03:34Z</time>
      </trkpt>
      <trkpt lat="46.10098" lon="6.46803">
        <ele>1512.5</ele>
        <time>2015-07-15T09:03:42Z</time>
      </trkpt>
      <trkpt lat="46.10092" lon="6.46812">
        <ele>1512.2</ele>
        <time>2015-07-15T09:03:49Z</time>
      </trkpt>
      <trkpt lat="46.10088" lon="6.46822">
        <ele>1511.9</ele>
        <time>2015-07-15T09:03:57Z</time>
      </trkpt>
      <trkpt lat="46.10081" lon="6.46831">
        <ele>1511.6</ele>
        <time>2015-07-15T09:04:04Z</time>
      </trkpt>
      <trkpt lat="46.10075" lon="6.46838">
        <ele>1511</ele>
        <time>2015-07-15T09:04:10Z</time>
      </trkpt>
      <trkpt lat="46.10069" lon="6.46846">
        <ele>1510.5</ele>
        <time>2015-07-15T09:04:17Z</time>
      </trkpt>
      <trkpt lat="46.10062" lon="6.46853">
        <ele>1509.9</ele>
        <time>2015-07-15T09:04:24Z</time>
      </trkpt>
      <trkpt lat="46.10062" lon="6.46866">
        <ele>1509.3</ele>
        <time>2015-07-15T09:04:34Z</time>
      </trkpt>
      <trkpt lat="46.10058" lon="6.46878">
        <ele>1508.7</ele>
        <time>2015-07-15T09:04:41Z</time>
      </trkpt>
      <trkpt lat="46.10053" lon="6.46891">
        <ele>1508.1</ele>
        <time>2015-07-15T09:06:42Z</time>
      </trkpt>
      <trkpt lat="46.10057" lon="6.46902">
        <ele>1507.3</ele>
        <time>2015-07-15T09:06:53Z</time>
      </trkpt>
      <trkpt lat="46.10061" lon="6.46913">
        <ele>1506.6</ele>
        <time>2015-07-15T09:07:03Z</time>
      </trkpt>
      <trkpt lat="46.10061" lon="6.46925">
        <ele>1505.7</ele>
        <time>2015-07-15T09:07:11Z</time>
      </trkpt>
      <trkpt lat="46.10059" lon="6.46938">
        <ele>1504.8</ele>
        <time>2015-07-15T09:07:18Z</time>
      </trkpt>
      <trkpt lat="46.1006" lon="6.4695">
        <ele>1504</ele>
        <time>2015-07-15T09:07:27Z</time>
      </trkpt>
      <trkpt lat="46.10058" lon="6.46962">
        <ele>1503.4</ele>
        <time>2015-07-15T09:07:36Z</time>
      </trkpt>
      <trkpt lat="46.1006" lon="6.46974">
        <ele>1502.6</ele>
        <time>2015-07-15T09:07:45Z</time>
      </trkpt>
      <trkpt lat="46.10058" lon="6.46986">
        <ele>1501.9</ele>
        <time>2015-07-15T09:07:55Z</time>
      </trkpt>
      <trkpt lat="46.10051" lon="6.46994">
        <ele>1501.3</ele>
        <time>2015-07-15T09:08:00Z</time>
      </trkpt>
      <trkpt lat="46.10044" lon="6.47">
        <ele>1500.5</ele>
        <time>2015-07-15T09:08:07Z</time>
      </trkpt>
      <trkpt lat="46.10037" lon="6.47007">
        <ele>1499.7</ele>
        <time>2015-07-15T09:08:14Z</time>
      </trkpt>
      <trkpt lat="46.10031" lon="6.47015">
        <ele>1498.9</ele>
        <time>2015-07-15T09:08:21Z</time>
      </trkpt>
      <trkpt lat="46.10024" lon="6.47022">
        <ele>1498</ele>
        <time>2015-07-15T09:08:29Z</time>
      </trkpt>
      <trkpt lat="46.1002" lon="6.47033">
        <ele>1497.1</ele>
        <time>2015-07-15T09:08:42Z</time>
      </trkpt>
      <trkpt lat="46.1002" lon="6.47046">
        <ele>1496.2</ele>
        <time>2015-07-15T09:08:51Z</time>
      </trkpt>
      <trkpt lat="46.10022" lon="6.47057">
        <ele>1495.3</ele>
        <time>2015-07-15T09:09:01Z</time>
      </trkpt>
      <trkpt lat="46.10025" lon="6.47068">
        <ele>1494.4</ele>
        <time>2015-07-15T09:09:10Z</time>
      </trkpt>
      <trkpt lat="46.10024" lon="6.4708">
        <ele>1493.5</ele>
        <time>2015-07-15T09:09:18Z</time>
      </trkpt>
      <trkpt lat="46.10026" lon="6.47092">
        <ele>1492.6</ele>
        <time>2015-07-15T09:09:26Z</time>
      </trkpt>
      <trkpt lat="46.10028" lon="6.47103">
        <ele>1491.8</ele>
        <time>2015-07-15T09:09:35Z</time>
      </trkpt>
      <trkpt lat="46.10028" lon="6.47116">
        <ele>1491.1</ele>
        <time>2015-07-15T09:09:42Z</time>
      </trkpt>
      <trkpt lat="46.10029" lon="6.47129">
        <ele>1490.4</ele>
        <time>2015-07-15T09:09:50Z</time>
      </trkpt>
      <trkpt lat="46.10025" lon="6.47141">
        <ele>1489.6</ele>
        <time>2015-07-15T09:09:59Z</time>
      </trkpt>
      <trkpt lat="46.10022" lon="6.47152">
        <ele>1488.7</ele>
        <time>2015-07-15T09:10:07Z</time>
      </trkpt>
      <trkpt lat="46.1002" lon="6.47166">
        <ele>1488</ele>
        <time>2015-07-15T09:10:18Z</time>
      </trkpt>
      <trkpt lat="46.10017" lon="6.47178">
        <ele>1487.3</ele>
        <time>2015-07-15T09:10:25Z</time>
      </trkpt>
      <trkpt lat="46.10018" lon="6.4719">
        <ele>1486.6</ele>
        <time>2015-07-15T09:10:34Z</time>
      </trkpt>
      <trkpt lat="46.10021" lon="6.47203">
        <ele>1485.8</ele>
        <time>2015-07-15T09:10:42Z</time>
      </trkpt>
      <trkpt lat="46.10021" lon="6.47215">
        <ele>1484.9</ele>
        <time>2015-07-15T09:10:51Z</time>
      </trkpt>
      <trkpt lat="46.10022" lon="6.47227">
        <ele>1484.1</ele>
        <time>2015-07-15T09:10:58Z</time>
      </trkpt>
      <trkpt lat="46.10023" lon="6.4724">
        <ele>1483.1</ele>
        <time>2015-07-15T09:11:06Z</time>
      </trkpt>
      <trkpt lat="46.10022" lon="6.47254">
        <ele>1482</ele>
        <time>2015-07-15T09:11:14Z</time>
      </trkpt>
      <trkpt lat="46.10021" lon="6.47266">
        <ele>1480.9</ele>
        <time>2015-07-15T09:11:22Z</time>
      </trkpt>
      <trkpt lat="46.10022" lon="6.47278">
        <ele>1479.9</ele>
        <time>2015-07-15T09:11:30Z</time>
      </trkpt>
      <trkpt lat="46.1002" lon="6.4729">
        <ele>1478.9</ele>
        <time>2015-07-15T09:11:39Z</time>
      </trkpt>
      <trkpt lat="46.10016" lon="6.47299">
        <ele>1477.7</ele>
        <time>2015-07-15T09:11:45Z</time>
      </trkpt>
      <trkpt lat="46.10011" lon="6.4731">
        <ele>1476.6</ele>
        <time>2015-07-15T09:11:52Z</time>
      </trkpt>
      <trkpt lat="46.10008" lon="6.47323">
        <ele>1475.3</ele>
        <time>2015-07-15T09:12:00Z</time>
      </trkpt>
      <trkpt lat="46.10004" lon="6.47335">
        <ele>1474.2</ele>
        <time>2015-07-15T09:12:07Z</time>
      </trkpt>
      <trkpt lat="46.1" lon="6.47345">
        <ele>1473.1</ele>
        <time>2015-07-15T09:12:13Z</time>
      </trkpt>
      <trkpt lat="46.09995" lon="6.47357">
        <ele>1472</ele>
        <time>2015-07-15T09:12:21Z</time>
      </trkpt>
      <trkpt lat="46.09991" lon="6.47368">
        <ele>1470.9</ele>
        <time>2015-07-15T09:12:28Z</time>
      </trkpt>
      <trkpt lat="46.09988" lon="6.4738">
        <ele>1469.8</ele>
        <time>2015-07-15T09:12:36Z</time>
      </trkpt>
      <trkpt lat="46.09989" lon="6.47392">
        <ele>1468.8</ele>
        <time>2015-07-15T09:12:44Z</time>
      </trkpt>
      <trkpt lat="46.09995" lon="6.474">
        <ele>1467.9</ele>
        <time>2015-07-15T09:12:49Z</time>
      </trkpt>
      <trkpt lat="46.10002" lon="6.47409">
        <ele>1467.1</ele>
        <time>2015-07-15T09:12:57Z</time>
      </trkpt>
      <trkpt lat="46.10006" lon="6.4742">
        <ele>1466.4</ele>
        <time>2015-07-15T09:13:08Z</time>
      </trkpt>
      <trkpt lat="46.10003" lon="6.47431">
        <ele>1465.9</ele>
        <time>2015-07-15T09:13:22Z</time>
      </trkpt>
      <trkpt lat="46.09997" lon="6.4744">
        <ele>1465.4</ele>
        <time>2015-07-15T09:13:31Z</time>
      </trkpt>
      <trkpt lat="46.09991" lon="6.47449">
        <ele>1464.9</ele>
        <time>2015-07-15T09:13:42Z</time>
      </trkpt>
      <trkpt lat="46.0999" lon="6.47462">
        <ele>1464.4</ele>
        <time>2015-07-15T09:14:02Z</time>
      </trkpt>
      <trkpt lat="46.09985" lon="6.47472">
        <ele>1463.9</ele>
        <time>2015-07-15T09:14:10Z</time>
      </trkpt>
      <trkpt lat="46.09982" lon="6.47484">
        <ele>1463.5</ele>
        <time>2015-07-15T09:14:19Z</time>
      </trkpt>
      <trkpt lat="46.0998" lon="6.47495">
        <ele>1463.1</ele>
        <time>2015-07-15T09:14:28Z</time>
      </trkpt>
      <trkpt lat="46.09973" lon="6.475">
        <ele>1462.7</ele>
        <time>2015-07-15T09:14:35Z</time>
      </trkpt>
      <trkpt lat="46.09964" lon="6.47499">
        <ele>1462.3</ele>
        <time>2015-07-15T09:14:42Z</time>
      </trkpt>
      <trkpt lat="46.09955" lon="6.47503">
        <ele>1461.8</ele>
        <time>2015-07-15T09:14:51Z</time>
      </trkpt>
      <trkpt lat="46.09948" lon="6.47508">
        <ele>1461</ele>
        <time>2015-07-15T09:14:59Z</time>
      </trkpt>
      <trkpt lat="46.09941" lon="6.47515">
        <ele>1460.3</ele>
        <time>2015-07-15T09:15:08Z</time>
      </trkpt>
      <trkpt lat="46.09933" lon="6.47521">
        <ele>1459.5</ele>
        <time>2015-07-15T09:15:16Z</time>
      </trkpt>
      <trkpt lat="46.09924" lon="6.47526">
        <ele>1458.5</ele>
        <time>2015-07-15T09:15:24Z</time>
      </trkpt>
      <trkpt lat="46.09918" lon="6.47533">
        <ele>1457.5</ele>
        <time>2015-07-15T09:15:33Z</time>
      </trkpt>
      <trkpt lat="46.09927" lon="6.47538">
        <ele>1456.4</ele>
        <time>2015-07-15T09:15:51Z</time>
      </trkpt>
      <trkpt lat="46.09933" lon="6.47546">
        <ele>1455.1</ele>
        <time>2015-07-15T09:16:01Z</time>
      </trkpt>
      <trkpt lat="46.09937" lon="6.47557">
        <ele>1453.7</ele>
        <time>2015-07-15T09:16:10Z</time>
      </trkpt>
      <trkpt lat="46.09939" lon="6.47569">
        <ele>1452.3</ele>
        <time>2015-07-15T09:16:19Z</time>
      </trkpt>
      <trkpt lat="46.09946" lon="6.47575">
        <ele>1450.7</ele>
        <time>2015-07-15T09:16:34Z</time>
      </trkpt>
      <trkpt lat="46.09952" lon="6.47583">
        <ele>1449.2</ele>
        <time>2015-07-15T09:16:43Z</time>
      </trkpt>
      <trkpt lat="46.09948" lon="6.47594">
        <ele>1447.6</ele>
        <time>2015-07-15T09:16:54Z</time>
      </trkpt>
      <trkpt lat="46.0994" lon="6.47597">
        <ele>1445.9</ele>
        <time>2015-07-15T09:17:02Z</time>
      </trkpt>
      <trkpt lat="46.09932" lon="6.47602">
        <ele>1444</ele>
        <time>2015-07-15T09:17:11Z</time>
      </trkpt>
      <trkpt lat="46.09923" lon="6.47603">
        <ele>1442.1</ele>
        <time>2015-07-15T09:17:22Z</time>
      </trkpt>
      <trkpt lat="46.09914" lon="6.47603">
        <ele>1440.1</ele>
        <time>2015-07-15T09:17:31Z</time>
      </trkpt>
      <trkpt lat="46.09905" lon="6.476">
        <ele>1438.1</ele>
        <time>2015-07-15T09:17:44Z</time>
      </trkpt>
      <trkpt lat="46.09897" lon="6.47603">
        <ele>1436.2</ele>
        <time>2015-07-15T09:17:57Z</time>
      </trkpt>
      <trkpt lat="46.09889" lon="6.47607">
        <ele>1434.3</ele>
        <time>2015-07-15T09:18:07Z</time>
      </trkpt>
      <trkpt lat="46.09881" lon="6.47608">
        <ele>1432.2</ele>
        <time>2015-07-15T09:18:18Z</time>
      </trkpt>
      <trkpt lat="46.09877" lon="6.47618">
        <ele>1430.2</ele>
        <time>2015-07-15T09:18:34Z</time>
      </trkpt>
      <trkpt lat="46.09876" lon="6.4763">
        <ele>1428</ele>
        <time>2015-07-15T09:18:44Z</time>
      </trkpt>
      <trkpt lat="46.09871" lon="6.47641">
        <ele>1425.9</ele>
        <time>2015-07-15T09:18:54Z</time>
      </trkpt>
      <trkpt lat="46.09864" lon="6.47649">
        <ele>1423.5</ele>
        <time>2015-07-15T09:19:02Z</time>
      </trkpt>
      <trkpt lat="46.0986" lon="6.4766">
        <ele>1421.2</ele>
        <time>2015-07-15T09:19:15Z</time>
      </trkpt>
      <trkpt lat="46.09855" lon="6.47669">
        <ele>1418.7</ele>
        <time>2015-07-15T09:19:26Z</time>
      </trkpt>
      <trkpt lat="46.09849" lon="6.47679">
        <ele>1416.3</ele>
        <time>2015-07-15T09:19:38Z</time>
      </trkpt>
      <trkpt lat="46.09845" lon="6.47689">
        <ele>1413.5</ele>
        <time>2015-07-15T09:19:48Z</time>
      </trkpt>
      <trkpt lat="46.09839" lon="6.47698">
        <ele>1410.5</ele>
        <time>2015-07-15T09:20:04Z</time>
      </trkpt>
      <trkpt lat="46.09834" lon="6.47707">
        <ele>1407.6</ele>
        <time>2015-07-15T09:20:12Z</time>
      </trkpt>
      <trkpt lat="46.09831" lon="6.47719">
        <ele>1405</ele>
        <time>2015-07-15T09:20:27Z</time>
      </trkpt>
      <trkpt lat="46.09828" lon="6.47731">
        <ele>1402.3</ele>
        <time>2015-07-15T09:20:36Z</time>
      </trkpt>
      <trkpt lat="46.09826" lon="6.47743">
        <ele>1399.8</ele>
        <time>2015-07-15T09:21:32Z</time>
      </trkpt>
      <trkpt lat="46.09818" lon="6.47752">
        <ele>1397.5</ele>
        <time>2015-07-15T09:22:36Z</time>
      </trkpt>
      <trkpt lat="46.09816" lon="6.47765">
        <ele>1395.5</ele>
        <time>2015-07-15T09:22:44Z</time>
      </trkpt>
      <trkpt lat="46.09815" lon="6.47777">
        <ele>1393.6</ele>
        <time>2015-07-15T09:22:53Z</time>
      </trkpt>
      <trkpt lat="46.0981" lon="6.47788">
        <ele>1391.9</ele>
        <time>2015-07-15T09:23:03Z</time>
      </trkpt>
      <trkpt lat="46.09806" lon="6.47798">
        <ele>1390.2</ele>
        <time>2015-07-15T09:23:10Z</time>
      </trkpt>
      <trkpt lat="46.09802" lon="6.47809">
        <ele>1388.4</ele>
        <time>2015-07-15T09:23:18Z</time>
      </trkpt>
      <trkpt lat="46.09799" lon="6.4782">
        <ele>1386.3</ele>
        <time>2015-07-15T09:23:28Z</time>
      </trkpt>
      <trkpt lat="46.09797" lon="6.47831">
        <ele>1384</ele>
        <time>2015-07-15T09:23:39Z</time>
      </trkpt>
      <trkpt lat="46.09802" lon="6.47841">
        <ele>1381.6</ele>
        <time>2015-07-15T09:23:48Z</time>
      </trkpt>
      <trkpt lat="46.09802" lon="6.47853">
        <ele>1379.3</ele>
        <time>2015-07-15T09:23:58Z</time>
      </trkpt>
      <trkpt lat="46.09794" lon="6.47857">
        <ele>1376.9</ele>
        <time>2015-07-15T09:24:22Z</time>
      </trkpt>
      <trkpt lat="46.09788" lon="6.47869">
        <ele>1374.3</ele>
        <time>2015-07-15T09:25:26Z</time>
      </trkpt>
      <trkpt lat="46.09778" lon="6.47874">
        <ele>1371.3</ele>
        <time>2015-07-15T09:25:51Z</time>
      </trkpt>
      <trkpt lat="46.09771" lon="6.47879">
        <ele>1368.4</ele>
        <time>2015-07-15T09:26:05Z</time>
      </trkpt>
      <trkpt lat="46.09758" lon="6.4788">
        <ele>1365.6</ele>
        <time>2015-07-15T09:26:29Z</time>
      </trkpt>
      <trkpt lat="46.09747" lon="6.47885">
        <ele>1362.8</ele>
        <time>2015-07-15T09:26:49Z</time>
      </trkpt>
      <trkpt lat="46.0974" lon="6.47876">
        <ele>1360.5</ele>
        <time>2015-07-15T09:27:14Z</time>
      </trkpt>
      <trkpt lat="46.09736" lon="6.47865">
        <ele>1358.7</ele>
        <time>2015-07-15T09:28:07Z</time>
      </trkpt>
      <trkpt lat="46.09726" lon="6.47856">
        <ele>1356.9</ele>
        <time>2015-07-15T09:28:27Z</time>
      </trkpt>
      <trkpt lat="46.09715" lon="6.47851">
        <ele>1355.1</ele>
        <time>2015-07-15T09:28:50Z</time>
      </trkpt>
      <trkpt lat="46.09709" lon="6.47843">
        <ele>1352.6</ele>
        <time>2015-07-15T09:28:58Z</time>
      </trkpt>
      <trkpt lat="46.09702" lon="6.47847">
        <ele>1349.8</ele>
        <time>2015-07-15T09:29:14Z</time>
      </trkpt>
      <trkpt lat="46.09696" lon="6.47857">
        <ele>1346.7</ele>
        <time>2015-07-15T09:29:26Z</time>
      </trkpt>
      <trkpt lat="46.0969" lon="6.47865">
        <ele>1343.9</ele>
        <time>2015-07-15T09:29:35Z</time>
      </trkpt>
      <trkpt lat="46.09682" lon="6.47876">
        <ele>1340.8</ele>
        <time>2015-07-15T09:29:49Z</time>
      </trkpt>
      <trkpt lat="46.09677" lon="6.47866">
        <ele>1337.5</ele>
        <time>2015-07-15T09:30:17Z</time>
      </trkpt>
      <trkpt lat="46.09675" lon="6.47849">
        <ele>1334</ele>
        <time>2015-07-15T09:30:38Z</time>
      </trkpt>
      <trkpt lat="46.09672" lon="6.47862">
        <ele>1330.2</ele>
        <time>2015-07-15T09:30:57Z</time>
      </trkpt>
      <trkpt lat="46.09673" lon="6.47874">
        <ele>1326</ele>
        <time>2015-07-15T09:31:05Z</time>
      </trkpt>
      <trkpt lat="46.09668" lon="6.47887">
        <ele>1321.2</ele>
        <time>2015-07-15T09:31:19Z</time>
      </trkpt>
      <trkpt lat="46.0966" lon="6.47886">
        <ele>1316.5</ele>
        <time>2015-07-15T09:31:44Z</time>
      </trkpt>
      <trkpt lat="46.09656" lon="6.47876">
        <ele>1312.1</ele>
        <time>2015-07-15T09:31:56Z</time>
      </trkpt>
      <trkpt lat="46.09649" lon="6.47862">
        <ele>1308.3</ele>
        <time>2015-07-15T09:32:16Z</time>
      </trkpt>
      <trkpt lat="46.09641" lon="6.47866">
        <ele>1304.4</ele>
        <time>2015-07-15T09:32:58Z</time>
      </trkpt>
      <trkpt lat="46.09639" lon="6.47854">
        <ele>1300.6</ele>
        <time>2015-07-15T09:33:33Z</time>
      </trkpt>
      <trkpt lat="46.09643" lon="6.47843">
        <ele>1296.9</ele>
        <time>2015-07-15T09:33:46Z</time>
      </trkpt>
      <trkpt lat="46.09639" lon="6.47826">
        <ele>1293.1</ele>
        <time>2015-07-15T09:34:03Z</time>
      </trkpt>
      <trkpt lat="46.09636" lon="6.47814">
        <ele>1289.4</ele>
        <time>2015-07-15T09:34:10Z</time>
      </trkpt>
      <trkpt lat="46.09629" lon="6.47821">
        <ele>1285.7</ele>
        <time>2015-07-15T09:34:39Z</time>
      </trkpt>
      <trkpt lat="46.09624" lon="6.47832">
        <ele>1282.3</ele>
        <time>2015-07-15T09:34:48Z</time>
      </trkpt>
      <trkpt lat="46.09621" lon="6.47843">
        <ele>1279</ele>
        <time>2015-07-15T09:34:58Z</time>
      </trkpt>
      <trkpt lat="46.09617" lon="6.47854">
        <ele>1275.5</ele>
        <time>2015-07-15T09:35:15Z</time>
      </trkpt>
      <trkpt lat="46.09619" lon="6.47866">
        <ele>1271.9</ele>
        <time>2015-07-15T09:35:28Z</time>
      </trkpt>
      <trkpt lat="46.09613" lon="6.47877">
        <ele>1268.1</ele>
        <time>2015-07-15T09:35:46Z</time>
      </trkpt>
      <trkpt lat="46.09613" lon="6.4789">
        <ele>1264</ele>
        <time>2015-07-15T09:36:05Z</time>
      </trkpt>
      <trkpt lat="46.09607" lon="6.4788">
        <ele>1259.9</ele>
        <time>2015-07-15T09:36:38Z</time>
      </trkpt>
      <trkpt lat="46.09605" lon="6.47893">
        <ele>1255.6</ele>
        <time>2015-07-15T09:37:08Z</time>
      </trkpt>
      <trkpt lat="46.09613" lon="6.47904">
        <ele>1251.6</ele>
        <time>2015-07-15T09:37:42Z</time>
      </trkpt>
      <trkpt lat="46.09604" lon="6.47892">
        <ele>1247.6</ele>
        <time>2015-07-15T09:38:02Z</time>
      </trkpt>
      <trkpt lat="46.09607" lon="6.4788">
        <ele>1243.7</ele>
        <time>2015-07-15T09:39:43Z</time>
      </trkpt>
      <trkpt lat="46.09602" lon="6.47867">
        <ele>1239.9</ele>
        <time>2015-07-15T09:40:04Z</time>
      </trkpt>
      <trkpt lat="46.09598" lon="6.47851">
        <ele>1236.3</ele>
        <time>2015-07-15T09:40:25Z</time>
      </trkpt>
      <trkpt lat="46.09594" lon="6.47838">
        <ele>1232.6</ele>
        <time>2015-07-15T09:40:35Z</time>
      </trkpt>
      <trkpt lat="46.09586" lon="6.47843">
        <ele>1229.1</ele>
        <time>2015-07-15T09:40:52Z</time>
      </trkpt>
      <trkpt lat="46.09582" lon="6.47854">
        <ele>1225.5</ele>
        <time>2015-07-15T09:41:24Z</time>
      </trkpt>
      <trkpt lat="46.09574" lon="6.47866">
        <ele>1222.2</ele>
        <time>2015-07-15T09:41:42Z</time>
      </trkpt>
      <trkpt lat="46.0957" lon="6.47881">
        <ele>1218.8</ele>
        <time>2015-07-15T09:41:54Z</time>
      </trkpt>
      <trkpt lat="46.09566" lon="6.47896">
        <ele>1215.2</ele>
        <time>2015-07-15T09:42:17Z</time>
      </trkpt>
      <trkpt lat="46.09556" lon="6.47901">
        <ele>1211.2</ele>
        <time>2015-07-15T09:42:46Z</time>
      </trkpt>
      <trkpt lat="46.09548" lon="6.47901">
        <ele>1206.7</ele>
        <time>2015-07-15T09:42:57Z</time>
      </trkpt>
      <trkpt lat="46.09539" lon="6.47899">
        <ele>1201.4</ele>
        <time>2015-07-15T09:43:15Z</time>
      </trkpt>
      <trkpt lat="46.09527" lon="6.47896">
        <ele>1196.3</ele>
        <time>2015-07-15T09:43:37Z</time>
      </trkpt>
      <trkpt lat="46.09521" lon="6.47882">
        <ele>1191</ele>
        <time>2015-07-15T09:43:58Z</time>
      </trkpt>
      <trkpt lat="46.09512" lon="6.47874">
        <ele>1186.1</ele>
        <time>2015-07-15T09:44:18Z</time>
      </trkpt>
      <trkpt lat="46.09507" lon="6.47864">
        <ele>1181.2</ele>
        <time>2015-07-15T09:45:14Z</time>
      </trkpt>
      <trkpt lat="46.09512" lon="6.4785">
        <ele>1176.6</ele>
        <time>2015-07-15T09:46:43Z</time>
      </trkpt>
      <trkpt lat="46.09513" lon="6.47838">
        <ele>1172.4</ele>
        <time>2015-07-15T09:46:58Z</time>
      </trkpt>
      <trkpt lat="46.09503" lon="6.47836">
        <ele>1168.4</ele>
        <time>2015-07-15T09:47:38Z</time>
      </trkpt>
      <trkpt lat="46.09494" lon="6.47834">
        <ele>1164.8</ele>
        <time>2015-07-15T09:47:46Z</time>
      </trkpt>
      <trkpt lat="46.09486" lon="6.47836">
        <ele>1161.5</ele>
        <time>2015-07-15T09:48:04Z</time>
      </trkpt>
      <trkpt lat="46.09478" lon="6.47847">
        <ele>1158.8</ele>
        <time>2015-07-15T09:48:22Z</time>
      </trkpt>
      <trkpt lat="46.09477" lon="6.47859">
        <ele>1156.8</ele>
        <time>2015-07-15T09:48:32Z</time>
      </trkpt>
      <trkpt lat="46.09475" lon="6.47843">
        <ele>1154.7</ele>
        <time>2015-07-15T09:48:50Z</time>
      </trkpt>
      <trkpt lat="46.09473" lon="6.47831">
        <ele>1152.7</ele>
        <time>2015-07-15T09:49:03Z</time>
      </trkpt>
      <trkpt lat="46.09467" lon="6.47817">
        <ele>1150.4</ele>
        <time>2015-07-15T09:49:19Z</time>
      </trkpt>
      <trkpt lat="46.0946" lon="6.4781">
        <ele>1147.7</ele>
        <time>2015-07-15T09:49:33Z</time>
      </trkpt>
      <trkpt lat="46.09457" lon="6.47795">
        <ele>1144.7</ele>
        <time>2015-07-15T09:49:55Z</time>
      </trkpt>
      <trkpt lat="46.09449" lon="6.47788">
        <ele>1141.2</ele>
        <time>2015-07-15T09:50:06Z</time>
      </trkpt>
      <trkpt lat="46.09441" lon="6.47776">
        <ele>1137.2</ele>
        <time>2015-07-15T09:50:33Z</time>
      </trkpt>
      <trkpt lat="46.09433" lon="6.47772">
        <ele>1132.3</ele>
        <time>2015-07-15T09:50:49Z</time>
      </trkpt>
      <trkpt lat="46.09425" lon="6.47769">
        <ele>1127.3</ele>
        <time>2015-07-15T09:51:03Z</time>
      </trkpt>
      <trkpt lat="46.09413" lon="6.47765">
        <ele>1122.4</ele>
        <time>2015-07-15T09:51:25Z</time>
      </trkpt>
      <trkpt lat="46.09403" lon="6.47765">
        <ele>1117.4</ele>
        <time>2015-07-15T09:51:45Z</time>
      </trkpt>
      <trkpt lat="46.09392" lon="6.47761">
        <ele>1112.6</ele>
        <time>2015-07-15T09:52:03Z</time>
      </trkpt>
      <trkpt lat="46.09384" lon="6.47752">
        <ele>1107.9</ele>
        <time>2015-07-15T09:52:56Z</time>
      </trkpt>
      <trkpt lat="46.09374" lon="6.47743">
        <ele>1103.3</ele>
        <time>2015-07-15T09:53:13Z</time>
      </trkpt>
      <trkpt lat="46.09368" lon="6.47734">
        <ele>1098.4</ele>
        <time>2015-07-15T09:53:24Z</time>
      </trkpt>
      <trkpt lat="46.09362" lon="6.47719">
        <ele>1093.7</ele>
        <time>2015-07-15T09:53:49Z</time>
      </trkpt>
      <trkpt lat="46.09355" lon="6.47712">
        <ele>1089</ele>
        <time>2015-07-15T09:53:58Z</time>
      </trkpt>
      <trkpt lat="46.09344" lon="6.47716">
        <ele>1084.5</ele>
        <time>2015-07-15T09:54:21Z</time>
      </trkpt>
      <trkpt lat="46.09334" lon="6.47714">
        <ele>1080.6</ele>
        <time>2015-07-15T09:54:36Z</time>
      </trkpt>
      <trkpt lat="46.09326" lon="6.4771">
        <ele>1076.3</ele>
        <time>2015-07-15T09:55:02Z</time>
      </trkpt>
      <trkpt lat="46.09315" lon="6.47709">
        <ele>1071.3</ele>
        <time>2015-07-15T09:55:21Z</time>
      </trkpt>
      <trkpt lat="46.09304" lon="6.47705">
        <ele>1066.4</ele>
        <time>2015-07-15T09:55:44Z</time>
      </trkpt>
      <trkpt lat="46.09291" lon="6.47703">
        <ele>1061.3</ele>
        <time>2015-07-15T09:56:07Z</time>
      </trkpt>
      <trkpt lat="46.09288" lon="6.47715">
        <ele>1056.5</ele>
        <time>2015-07-15T09:56:29Z</time>
      </trkpt>
      <trkpt lat="46.09286" lon="6.47728">
        <ele>1051.6</ele>
        <time>2015-07-15T09:56:54Z</time>
      </trkpt>
      <trkpt lat="46.09287" lon="6.47744">
        <ele>1046.8</ele>
        <time>2015-07-15T09:57:47Z</time>
      </trkpt>
      <trkpt lat="46.09281" lon="6.47752">
        <ele>1041.9</ele>
        <time>2015-07-15T09:58:01Z</time>
      </trkpt>
      <trkpt lat="46.09278" lon="6.47763">
        <ele>1037.2</ele>
        <time>2015-07-15T09:58:12Z</time>
      </trkpt>
      <trkpt lat="46.09272" lon="6.47776">
        <ele>1032.8</ele>
        <time>2015-07-15T09:58:32Z</time>
      </trkpt>
      <trkpt lat="46.09264" lon="6.47789">
        <ele>1028.7</ele>
        <time>2015-07-15T09:58:52Z</time>
      </trkpt>
      <trkpt lat="46.09264" lon="6.47802">
        <ele>1025.3</ele>
        <time>2015-07-15T09:59:23Z</time>
      </trkpt>
      <trkpt lat="46.09268" lon="6.47815">
        <ele>1022.5</ele>
        <time>2015-07-15T09:59:57Z</time>
      </trkpt>
      <trkpt lat="46.09259" lon="6.47825">
        <ele>1019.6</ele>
        <time>2015-07-15T10:00:18Z</time>
      </trkpt>
      <trkpt lat="46.09266" lon="6.47832">
        <ele>1016.9</ele>
        <time>2015-07-15T10:00:25Z</time>
      </trkpt>
      <trkpt lat="46.09258" lon="6.4783">
        <ele>1014.3</ele>
        <time>2015-07-15T10:00:37Z</time>
      </trkpt>
      <trkpt lat="46.09263" lon="6.47819">
        <ele>1011.4</ele>
        <time>2015-07-15T10:00:51Z</time>
      </trkpt>
      <trkpt lat="46.09254" lon="6.47813">
        <ele>1008.9</ele>
        <time>2015-07-15T10:01:03Z</time>
      </trkpt>
      <trkpt lat="46.09253" lon="6.47801">
        <ele>1006.6</ele>
        <time>2015-07-15T10:01:46Z</time>
      </trkpt>
      <trkpt lat="46.09261" lon="6.47797">
        <ele>1004.6</ele>
        <time>2015-07-15T10:02:04Z</time>
      </trkpt>
      <trkpt lat="46.09266" lon="6.4781">
        <ele>1002.6</ele>
        <time>2015-07-15T10:02:16Z</time>
      </trkpt>
      <trkpt lat="46.09271" lon="6.47822">
        <ele>1000.2</ele>
        <time>2015-07-15T10:02:49Z</time>
      </trkpt>
      <trkpt lat="46.09269" lon="6.47835">
        <ele>997.8</ele>
        <time>2015-07-15T10:03:02Z</time>
      </trkpt>
      <trkpt lat="46.09263" lon="6.47847">
        <ele>995.3</ele>
        <time>2015-07-15T10:03:14Z</time>
      </trkpt>
      <trkpt lat="46.09258" lon="6.47857">
        <ele>993</ele>
        <time>2015-07-15T10:03:30Z</time>
      </trkpt>
      <trkpt lat="46.09261" lon="6.47868">
        <ele>990.7</ele>
        <time>2015-07-15T10:03:41Z</time>
      </trkpt>
      <trkpt lat="46.09251" lon="6.47878">
        <ele>988.2</ele>
        <time>2015-07-15T10:04:00Z</time>
      </trkpt>
      <trkpt lat="46.09244" lon="6.47886">
        <ele>986.3</ele>
        <time>2015-07-15T10:04:17Z</time>
      </trkpt>
      <trkpt lat="46.09238" lon="6.47873">
        <ele>984.2</ele>
        <time>2015-07-15T10:04:37Z</time>
      </trkpt>
      <trkpt lat="46.09237" lon="6.47861">
        <ele>981.9</ele>
        <time>2015-07-15T10:04:45Z</time>
      </trkpt>
      <trkpt lat="46.09231" lon="6.47853">
        <ele>979.3</ele>
        <time>2015-07-15T10:04:52Z</time>
      </trkpt>
      <trkpt lat="46.0923" lon="6.47869">
        <ele>976.6</ele>
        <time>2015-07-15T10:05:14Z</time>
      </trkpt>
      <trkpt lat="46.09225" lon="6.47881">
        <ele>974.2</ele>
        <time>2015-07-15T10:05:30Z</time>
      </trkpt>
      <trkpt lat="46.09215" lon="6.47876">
        <ele>971.9</ele>
        <time>2015-07-15T10:05:52Z</time>
      </trkpt>
      <trkpt lat="46.09203" lon="6.47874">
        <ele>969.6</ele>
        <time>2015-07-15T10:06:26Z</time>
      </trkpt>
      <trkpt lat="46.09208" lon="6.47883">
        <ele>967.1</ele>
        <time>2015-07-15T10:06:44Z</time>
      </trkpt>
      <trkpt lat="46.09212" lon="6.47894">
        <ele>964.4</ele>
        <time>2015-07-15T10:07:01Z</time>
      </trkpt>
      <trkpt lat="46.0921" lon="6.47906">
        <ele>961.3</ele>
        <time>2015-07-15T10:07:16Z</time>
      </trkpt>
      <trkpt lat="46.09209" lon="6.47918">
        <ele>958.3</ele>
        <time>2015-07-15T10:07:31Z</time>
      </trkpt>
      <trkpt lat="46.09208" lon="6.47935">
        <ele>955.3</ele>
        <time>2015-07-15T10:07:48Z</time>
      </trkpt>
      <trkpt lat="46.09205" lon="6.47952">
        <ele>952.5</ele>
        <time>2015-07-15T10:08:08Z</time>
      </trkpt>
      <trkpt lat="46.09198" lon="6.47967">
        <ele>949</ele>
        <time>2015-07-15T10:08:31Z</time>
      </trkpt>
      <trkpt lat="46.09189" lon="6.47969">
        <ele>945.4</ele>
        <time>2015-07-15T10:09:08Z</time>
      </trkpt>
      <trkpt lat="46.09183" lon="6.47977">
        <ele>941.7</ele>
        <time>2015-07-15T10:09:16Z</time>
      </trkpt>
      <trkpt lat="46.09172" lon="6.4798">
        <ele>937.9</ele>
        <time>2015-07-15T10:09:35Z</time>
      </trkpt>
      <trkpt lat="46.0917" lon="6.47997">
        <ele>934.1</ele>
        <time>2015-07-15T10:09:53Z</time>
      </trkpt>
      <trkpt lat="46.09168" lon="6.48009">
        <ele>930.6</ele>
        <time>2015-07-15T10:11:11Z</time>
      </trkpt>
      <trkpt lat="46.09174" lon="6.48021">
        <ele>927.1</ele>
        <time>2015-07-15T10:11:38Z</time>
      </trkpt>
      <trkpt lat="46.09177" lon="6.48033">
        <ele>924.2</ele>
        <time>2015-07-15T10:11:49Z</time>
      </trkpt>
      <trkpt lat="46.09183" lon="6.48041">
        <ele>921.1</ele>
        <time>2015-07-15T10:11:58Z</time>
      </trkpt>
      <trkpt lat="46.09181" lon="6.48053">
        <ele>917.9</ele>
        <time>2015-07-15T10:12:07Z</time>
      </trkpt>
      <trkpt lat="46.09184" lon="6.48064">
        <ele>915</ele>
        <time>2015-07-15T10:12:16Z</time>
      </trkpt>
      <trkpt lat="46.09185" lon="6.48081">
        <ele>913.2</ele>
        <time>2015-07-15T10:12:32Z</time>
      </trkpt>
      <trkpt lat="46.09186" lon="6.48094">
        <ele>911.5</ele>
        <time>2015-07-15T10:12:44Z</time>
      </trkpt>
      <trkpt lat="46.09189" lon="6.48106">
        <ele>909.7</ele>
        <time>2015-07-15T10:12:54Z</time>
      </trkpt>
      <trkpt lat="46.09187" lon="6.48123">
        <ele>907.6</ele>
        <time>2015-07-15T10:13:17Z</time>
      </trkpt>
      <trkpt lat="46.09182" lon="6.48134">
        <ele>905.4</ele>
        <time>2015-07-15T10:13:28Z</time>
      </trkpt>
      <trkpt lat="46.09182" lon="6.48148">
        <ele>903.2</ele>
        <time>2015-07-15T10:13:41Z</time>
      </trkpt>
      <trkpt lat="46.09179" lon="6.48159">
        <ele>901</ele>
        <time>2015-07-15T10:13:51Z</time>
      </trkpt>
      <trkpt lat="46.09175" lon="6.48175">
        <ele>898.9</ele>
        <time>2015-07-15T10:14:04Z</time>
      </trkpt>
      <trkpt lat="46.09176" lon="6.48193">
        <ele>896.8</ele>
        <time>2015-07-15T10:14:33Z</time>
      </trkpt>
      <trkpt lat="46.09175" lon="6.48205">
        <ele>894.4</ele>
        <time>2015-07-15T10:14:45Z</time>
      </trkpt>
      <trkpt lat="46.09174" lon="6.48217">
        <ele>892</ele>
        <time>2015-07-15T10:15:01Z</time>
      </trkpt>
      <trkpt lat="46.09164" lon="6.48228">
        <ele>889.7</ele>
        <time>2015-07-15T10:15:17Z</time>
      </trkpt>
      <trkpt lat="46.09159" lon="6.48237">
        <ele>887.5</ele>
        <time>2015-07-15T10:15:26Z</time>
      </trkpt>
      <trkpt lat="46.09156" lon="6.48249">
        <ele>885.4</ele>
        <time>2015-07-15T10:15:40Z</time>
      </trkpt>
      <trkpt lat="46.09155" lon="6.48263">
        <ele>883.7</ele>
        <time>2015-07-15T10:16:07Z</time>
      </trkpt>
      <trkpt lat="46.09145" lon="6.48267">
        <ele>882.1</ele>
        <time>2015-07-15T10:16:17Z</time>
      </trkpt>
      <trkpt lat="46.09156" lon="6.48278">
        <ele>880.4</ele>
        <time>2015-07-15T10:16:37Z</time>
      </trkpt>
      <trkpt lat="46.09163" lon="6.48266">
        <ele>878.7</ele>
        <time>2015-07-15T10:17:00Z</time>
      </trkpt>
      <trkpt lat="46.09171" lon="6.48268">
        <ele>877.1</ele>
        <time>2015-07-15T10:17:06Z</time>
      </trkpt>
      <trkpt lat="46.09175" lon="6.48279">
        <ele>875.1</ele>
        <time>2015-07-15T10:17:13Z</time>
      </trkpt>
      <trkpt lat="46.09165" lon="6.4828">
        <ele>873.7</ele>
        <time>2015-07-15T10:17:26Z</time>
      </trkpt>
      <trkpt lat="46.09174" lon="6.4828">
        <ele>871.8</ele>
        <time>2015-07-15T10:18:02Z</time>
      </trkpt>
      <trkpt lat="46.0917" lon="6.48268">
        <ele>869.6</ele>
        <time>2015-07-15T10:18:22Z</time>
      </trkpt>
      <trkpt lat="46.09162" lon="6.48263">
        <ele>867</ele>
        <time>2015-07-15T10:18:39Z</time>
      </trkpt>
      <trkpt lat="46.09156" lon="6.48271">
        <ele>864.5</ele>
        <time>2015-07-15T10:19:26Z</time>
      </trkpt>
      <trkpt lat="46.09164" lon="6.48267">
        <ele>861.5</ele>
        <time>2015-07-15T10:20:23Z</time>
      </trkpt>
      <trkpt lat="46.09155" lon="6.48258">
        <ele>858.5</ele>
        <time>2015-07-15T10:22:16Z</time>
      </trkpt>
      <trkpt lat="46.09157" lon="6.48269">
        <ele>855.8</ele>
        <time>2015-07-15T10:23:30Z</time>
      </trkpt>
      <trkpt lat="46.09156" lon="6.48281">
        <ele>853.2</ele>
        <time>2015-07-15T10:23:59Z</time>
      </trkpt>
      <trkpt lat="46.09151" lon="6.48293">
        <ele>850.5</ele>
        <time>2015-07-15T10:24:10Z</time>
      </trkpt>
      <trkpt lat="46.09147" lon="6.48307">
        <ele>847.7</ele>
        <time>2015-07-15T10:24:37Z</time>
      </trkpt>
      <trkpt lat="46.09146" lon="6.4832">
        <ele>844.5</ele>
        <time>2015-07-15T10:24:47Z</time>
      </trkpt>
      <trkpt lat="46.09142" lon="6.48331">
        <ele>841.5</ele>
        <time>2015-07-15T10:24:56Z</time>
      </trkpt>
      <trkpt lat="46.09135" lon="6.4834">
        <ele>838.6</ele>
        <time>2015-07-15T10:25:04Z</time>
      </trkpt>
      <trkpt lat="46.09139" lon="6.48353">
        <ele>836</ele>
        <time>2015-07-15T10:25:18Z</time>
      </trkpt>
      <trkpt lat="46.09133" lon="6.48367">
        <ele>833.4</ele>
        <time>2015-07-15T10:25:39Z</time>
      </trkpt>
      <trkpt lat="46.09127" lon="6.48382">
        <ele>831</ele>
        <time>2015-07-15T10:26:07Z</time>
      </trkpt>
      <trkpt lat="46.09125" lon="6.48394">
        <ele>828.4</ele>
        <time>2015-07-15T10:26:17Z</time>
      </trkpt>
      <trkpt lat="46.09124" lon="6.48406">
        <ele>825.6</ele>
        <time>2015-07-15T10:26:30Z</time>
      </trkpt>
      <trkpt lat="46.09127" lon="6.48418">
        <ele>822.6</ele>
        <time>2015-07-15T10:26:37Z</time>
      </trkpt>
      <trkpt lat="46.09125" lon="6.4843">
        <ele>819.7</ele>
        <time>2015-07-15T10:26:48Z</time>
      </trkpt>
      <trkpt lat="46.09129" lon="6.48445">
        <ele>817.1</ele>
        <time>2015-07-15T10:27:03Z</time>
      </trkpt>
      <trkpt lat="46.09128" lon="6.48463">
        <ele>814.8</ele>
        <time>2015-07-15T10:27:21Z</time>
      </trkpt>
      <trkpt lat="46.09126" lon="6.48474">
        <ele>812.6</ele>
        <time>2015-07-15T10:27:36Z</time>
      </trkpt>
      <trkpt lat="46.09125" lon="6.48487">
        <ele>810.2</ele>
        <time>2015-07-15T10:27:48Z</time>
      </trkpt>
      <trkpt lat="46.09126" lon="6.485">
        <ele>807.9</ele>
        <time>2015-07-15T10:27:56Z</time>
      </trkpt>
      <trkpt lat="46.09122" lon="6.48515">
        <ele>805.6</ele>
        <time>2015-07-15T10:28:08Z</time>
      </trkpt>
      <trkpt lat="46.0912" lon="6.48527">
        <ele>803.4</ele>
        <time>2015-07-15T10:28:19Z</time>
      </trkpt>
      <trkpt lat="46.09117" lon="6.48539">
        <ele>801.4</ele>
        <time>2015-07-15T10:28:33Z</time>
      </trkpt>
      <trkpt lat="46.09115" lon="6.48555">
        <ele>799.4</ele>
        <time>2015-07-15T10:28:46Z</time>
      </trkpt>
      <trkpt lat="46.09114" lon="6.48569">
        <ele>797.4</ele>
        <time>2015-07-15T10:28:54Z</time>
      </trkpt>
      <trkpt lat="46.09115" lon="6.4858">
        <ele>795.4</ele>
        <time>2015-07-15T10:29:03Z</time>
      </trkpt>
      <trkpt lat="46.09117" lon="6.48593">
        <ele>793.3</ele>
        <time>2015-07-15T10:29:12Z</time>
      </trkpt>
      <trkpt lat="46.0912" lon="6.48604">
        <ele>791.2</ele>
        <time>2015-07-15T10:29:19Z</time>
      </trkpt>
      <trkpt lat="46.09126" lon="6.48614">
        <ele>789.1</ele>
        <time>2015-07-15T10:29:26Z</time>
      </trkpt>
      <trkpt lat="46.09131" lon="6.48623">
        <ele>787.1</ele>
        <time>2015-07-15T10:29:32Z</time>
      </trkpt>
      <trkpt lat="46.09134" lon="6.48635">
        <ele>785.2</ele>
        <time>2015-07-15T10:29:41Z</time>
      </trkpt>
      <trkpt lat="46.09135" lon="6.48651">
        <ele>783.2</ele>
        <time>2015-07-15T10:29:55Z</time>
      </trkpt>
      <trkpt lat="46.0914" lon="6.48662">
        <ele>781.1</ele>
        <time>2015-07-15T10:30:05Z</time>
      </trkpt>
      <trkpt lat="46.0914" lon="6.48677">
        <ele>779.2</ele>
        <time>2015-07-15T10:30:28Z</time>
      </trkpt>
      <trkpt lat="46.09143" lon="6.48689">
        <ele>777.3</ele>
        <time>2015-07-15T10:30:41Z</time>
      </trkpt>
      <trkpt lat="46.09141" lon="6.48701">
        <ele>775.4</ele>
        <time>2015-07-15T10:30:52Z</time>
      </trkpt>
      <trkpt lat="46.09143" lon="6.48714">
        <ele>773.7</ele>
        <time>2015-07-15T10:31:05Z</time>
      </trkpt>
      <trkpt lat="46.09139" lon="6.4873">
        <ele>772.2</ele>
        <time>2015-07-15T10:31:29Z</time>
      </trkpt>
      <trkpt lat="46.09135" lon="6.4874">
        <ele>770.7</ele>
        <time>2015-07-15T10:31:37Z</time>
      </trkpt>
      <trkpt lat="46.09131" lon="6.48757">
        <ele>769.4</ele>
        <time>2015-07-15T10:32:02Z</time>
      </trkpt>
      <trkpt lat="46.0913" lon="6.48769">
        <ele>767.9</ele>
        <time>2015-07-15T10:32:29Z</time>
      </trkpt>
      <trkpt lat="46.09128" lon="6.4878">
        <ele>766.3</ele>
        <time>2015-07-15T10:32:36Z</time>
      </trkpt>
      <trkpt lat="46.0913" lon="6.48797">
        <ele>765</ele>
        <time>2015-07-15T10:32:49Z</time>
      </trkpt>
      <trkpt lat="46.0913" lon="6.4881">
        <ele>763.8</ele>
        <time>2015-07-15T10:33:00Z</time>
      </trkpt>
      <trkpt lat="46.09132" lon="6.48823">
        <ele>762.5</ele>
        <time>2015-07-15T10:33:25Z</time>
      </trkpt>
      <trkpt lat="46.09131" lon="6.48806">
        <ele>761.2</ele>
        <time>2015-07-15T10:33:45Z</time>
      </trkpt>
      <trkpt lat="46.09135" lon="6.48818">
        <ele>759.9</ele>
        <time>2015-07-15T10:34:12Z</time>
      </trkpt>
      <trkpt lat="46.09143" lon="6.48824">
        <ele>758.7</ele>
        <time>2015-07-15T10:34:17Z</time>
      </trkpt>
      <trkpt lat="46.09149" lon="6.48832">
        <ele>757.3</ele>
        <time>2015-07-15T10:34:23Z</time>
      </trkpt>
      <trkpt lat="46.09152" lon="6.48843">
        <ele>755.9</ele>
        <time>2015-07-15T10:34:46Z</time>
      </trkpt>
      <trkpt lat="46.09155" lon="6.48855">
        <ele>754.6</ele>
        <time>2015-07-15T10:34:56Z</time>
      </trkpt>
      <trkpt lat="46.09156" lon="6.48869">
        <ele>753.4</ele>
        <time>2015-07-15T10:35:14Z</time>
      </trkpt>
      <trkpt lat="46.09162" lon="6.48886">
        <ele>752.1</ele>
        <time>2015-07-15T10:35:29Z</time>
      </trkpt>
      <trkpt lat="46.09163" lon="6.48897">
        <ele>750.6</ele>
        <time>2015-07-15T10:35:50Z</time>
      </trkpt>
      <trkpt lat="46.09158" lon="6.48907">
        <ele>749</ele>
        <time>2015-07-15T10:35:58Z</time>
      </trkpt>
      <trkpt lat="46.09154" lon="6.48918">
        <ele>747.3</ele>
        <time>2015-07-15T10:36:09Z</time>
      </trkpt>
      <trkpt lat="46.09146" lon="6.4893">
        <ele>745.7</ele>
        <time>2015-07-15T10:36:27Z</time>
      </trkpt>
      <trkpt lat="46.09144" lon="6.48946">
        <ele>744.1</ele>
        <time>2015-07-15T10:36:46Z</time>
      </trkpt>
      <trkpt lat="46.09145" lon="6.48959">
        <ele>742.4</ele>
        <time>2015-07-15T10:36:56Z</time>
      </trkpt>
      <trkpt lat="46.09141" lon="6.48969">
        <ele>740.7</ele>
        <time>2015-07-15T10:37:15Z</time>
      </trkpt>
      <trkpt lat="46.0915" lon="6.48982">
        <ele>739</ele>
        <time>2015-07-15T10:37:35Z</time>
      </trkpt>
      <trkpt lat="46.09152" lon="6.48993">
        <ele>737.3</ele>
        <time>2015-07-15T10:37:43Z</time>
      </trkpt>
      <trkpt lat="46.09151" lon="6.49005">
        <ele>735.5</ele>
        <time>2015-07-15T10:37:54Z</time>
      </trkpt>
      <trkpt lat="46.09152" lon="6.49017">
        <ele>733.8</ele>
        <time>2015-07-15T10:38:03Z</time>
      </trkpt>
      <trkpt lat="46.09156" lon="6.49028">
        <ele>731.9</ele>
        <time>2015-07-15T10:38:11Z</time>
      </trkpt>
      <trkpt lat="46.09155" lon="6.4904">
        <ele>730</ele>
        <time>2015-07-15T10:38:19Z</time>
      </trkpt>
      <trkpt lat="46.09159" lon="6.49054">
        <ele>728.3</ele>
        <time>2015-07-15T10:38:33Z</time>
      </trkpt>
      <trkpt lat="46.09156" lon="6.49069">
        <ele>726.3</ele>
        <time>2015-07-15T10:38:49Z</time>
      </trkpt>
      <trkpt lat="46.09157" lon="6.49082">
        <ele>724</ele>
        <time>2015-07-15T10:38:57Z</time>
      </trkpt>
      <trkpt lat="46.09157" lon="6.49098">
        <ele>721.3</ele>
        <time>2015-07-15T10:39:14Z</time>
      </trkpt>
      <trkpt lat="46.09157" lon="6.4911">
        <ele>718.7</ele>
        <time>2015-07-15T10:39:22Z</time>
      </trkpt>
      <trkpt lat="46.0915" lon="6.49119">
        <ele>715.8</ele>
        <time>2015-07-15T10:39:30Z</time>
      </trkpt>
      <trkpt lat="46.09149" lon="6.49131">
        <ele>712.8</ele>
        <time>2015-07-15T10:39:45Z</time>
      </trkpt>
      <trkpt lat="46.09153" lon="6.49143">
        <ele>709.9</ele>
        <time>2015-07-15T10:40:07Z</time>
      </trkpt>
      <trkpt lat="46.09154" lon="6.4916">
        <ele>707.1</ele>
        <time>2015-07-15T10:40:33Z</time>
      </trkpt>
      <trkpt lat="46.09156" lon="6.49172">
        <ele>704.5</ele>
        <time>2015-07-15T10:40:48Z</time>
      </trkpt>
      <trkpt lat="46.09161" lon="6.49187">
        <ele>701.8</ele>
        <time>2015-07-15T10:41:05Z</time>
      </trkpt>
      <trkpt lat="46.09162" lon="6.49199">
        <ele>699</ele>
        <time>2015-07-15T10:41:13Z</time>
      </trkpt>
      <trkpt lat="46.09167" lon="6.49208">
        <ele>696.3</ele>
        <time>2015-07-15T10:41:23Z</time>
      </trkpt>
      <trkpt lat="46.09168" lon="6.4922">
        <ele>693.8</ele>
        <time>2015-07-15T10:41:29Z</time>
      </trkpt>
      <trkpt lat="46.09172" lon="6.49231">
        <ele>691.6</ele>
        <time>2015-07-15T10:41:35Z</time>
      </trkpt>
      <trkpt lat="46.09171" lon="6.49246">
        <ele>689.4</ele>
        <time>2015-07-15T10:42:00Z</time>
      </trkpt>
      <trkpt lat="46.09164" lon="6.4926">
        <ele>687.1</ele>
        <time>2015-07-15T10:42:13Z</time>
      </trkpt>
      <trkpt lat="46.09165" lon="6.49274">
        <ele>684.8</ele>
        <time>2015-07-15T10:42:18Z</time>
      </trkpt>
      <trkpt lat="46.09169" lon="6.49283">
        <ele>682.6</ele>
        <time>2015-07-15T10:42:27Z</time>
      </trkpt>
      <trkpt lat="46.09175" lon="6.49293">
        <ele>680.3</ele>
        <time>2015-07-15T10:42:36Z</time>
      </trkpt>
      <trkpt lat="46.09176" lon="6.49305">
        <ele>677.9</ele>
        <time>2015-07-15T10:42:50Z</time>
      </trkpt>
      <trkpt lat="46.09179" lon="6.49316">
        <ele>675.4</ele>
        <time>2015-07-15T10:43:03Z</time>
      </trkpt>
      <trkpt lat="46.09182" lon="6.49335">
        <ele>673</ele>
        <time>2015-07-15T10:43:23Z</time>
      </trkpt>
      <trkpt lat="46.09183" lon="6.49347">
        <ele>670.4</ele>
        <time>2015-07-15T10:43:33Z</time>
      </trkpt>
      <trkpt lat="46.09183" lon="6.4936">
        <ele>667.9</ele>
        <time>2015-07-15T10:43:43Z</time>
      </trkpt>
      <trkpt lat="46.09184" lon="6.49374">
        <ele>665.2</ele>
        <time>2015-07-15T10:44:03Z</time>
      </trkpt>
      <trkpt lat="46.09185" lon="6.49386">
        <ele>662.4</ele>
        <time>2015-07-15T10:44:14Z</time>
      </trkpt>
      <trkpt lat="46.09183" lon="6.49398">
        <ele>659.9</ele>
        <time>2015-07-15T10:44:23Z</time>
      </trkpt>
      <trkpt lat="46.09189" lon="6.49411">
        <ele>657.5</ele>
        <time>2015-07-15T10:44:38Z</time>
      </trkpt>
      <trkpt lat="46.09191" lon="6.49423">
        <ele>655.2</ele>
        <time>2015-07-15T10:44:45Z</time>
      </trkpt>
      <trkpt lat="46.09195" lon="6.49434">
        <ele>653</ele>
        <time>2015-07-15T10:44:52Z</time>
      </trkpt>
      <trkpt lat="46.092" lon="6.49446">
        <ele>651</ele>
        <time>2015-07-15T10:45:14Z</time>
      </trkpt>
      <trkpt lat="46.09194" lon="6.49456">
        <ele>649.2</ele>
        <time>2015-07-15T10:45:22Z</time>
      </trkpt>
      <trkpt lat="46.09193" lon="6.49468">
        <ele>647.6</ele>
        <time>2015-07-15T10:45:31Z</time>
      </trkpt>
      <trkpt lat="46.09188" lon="6.49477">
        <ele>646</ele>
        <time>2015-07-15T10:45:36Z</time>
      </trkpt>
      <trkpt lat="46.09186" lon="6.49489">
        <ele>644.5</ele>
        <time>2015-07-15T10:45:43Z</time>
      </trkpt>
      <trkpt lat="46.09179" lon="6.49502">
        <ele>643.2</ele>
        <time>2015-07-15T10:45:52Z</time>
      </trkpt>
      <trkpt lat="46.09173" lon="6.49518">
        <ele>642</ele>
        <time>2015-07-15T10:46:02Z</time>
      </trkpt>
      <trkpt lat="46.0917" lon="6.49531">
        <ele>640.6</ele>
        <time>2015-07-15T10:46:14Z</time>
      </trkpt>
      <trkpt lat="46.09169" lon="6.49546">
        <ele>639</ele>
        <time>2015-07-15T10:46:26Z</time>
      </trkpt>
      <trkpt lat="46.09171" lon="6.49558">
        <ele>637.4</ele>
        <time>2015-07-15T10:46:41Z</time>
      </trkpt>
      <trkpt lat="46.09167" lon="6.49569">
        <ele>635.5</ele>
        <time>2015-07-15T10:46:51Z</time>
      </trkpt>
      <trkpt lat="46.09167" lon="6.49582">
        <ele>633.5</ele>
        <time>2015-07-15T10:46:57Z</time>
      </trkpt>
      <trkpt lat="46.09165" lon="6.49596">
        <ele>631.4</ele>
        <time>2015-07-15T10:47:05Z</time>
      </trkpt>
      <trkpt lat="46.09168" lon="6.49609">
        <ele>629.3</ele>
        <time>2015-07-15T10:47:14Z</time>
      </trkpt>
      <trkpt lat="46.09173" lon="6.49621">
        <ele>627.2</ele>
        <time>2015-07-15T10:47:23Z</time>
      </trkpt>
      <trkpt lat="46.09172" lon="6.49634">
        <ele>625</ele>
        <time>2015-07-15T10:47:37Z</time>
      </trkpt>
      <trkpt lat="46.0917" lon="6.49646">
        <ele>622.8</ele>
        <time>2015-07-15T10:47:47Z</time>
      </trkpt>
      <trkpt lat="46.09174" lon="6.49657">
        <ele>620.6</ele>
        <time>2015-07-15T10:47:59Z</time>
      </trkpt>
      <trkpt lat="46.09177" lon="6.49668">
        <ele>618.5</ele>
        <time>2015-07-15T10:48:03Z</time>
      </trkpt>
      <trkpt lat="46.0918" lon="6.4968">
        <ele>616.3</ele>
        <time>2015-07-15T10:48:11Z</time>
      </trkpt>
      <trkpt lat="46.09184" lon="6.49694">
        <ele>613.9</ele>
        <time>2015-07-15T10:48:21Z</time>
      </trkpt>
      <trkpt lat="46.09186" lon="6.49707">
        <ele>611.6</ele>
        <time>2015-07-15T10:48:34Z</time>
      </trkpt>
      <trkpt lat="46.09187" lon="6.49719">
        <ele>609.2</ele>
        <time>2015-07-15T10:48:46Z</time>
      </trkpt>
      <trkpt lat="46.09185" lon="6.49732">
        <ele>606.2</ele>
        <time>2015-07-15T10:49:04Z</time>
      </trkpt>
      <trkpt lat="46.09181" lon="6.49742">
        <ele>603.3</ele>
        <time>2015-07-15T10:49:17Z</time>
      </trkpt>
      <trkpt lat="46.09185" lon="6.49753">
        <ele>600.3</ele>
        <time>2015-07-15T10:49:29Z</time>
      </trkpt>
      <trkpt lat="46.09184" lon="6.49766">
        <ele>597.5</ele>
        <time>2015-07-15T10:49:40Z</time>
      </trkpt>
      <trkpt lat="46.09185" lon="6.4978">
        <ele>594.8</ele>
        <time>2015-07-15T10:49:50Z</time>
      </trkpt>
      <trkpt lat="46.09188" lon="6.49793">
        <ele>592</ele>
        <time>2015-07-15T10:50:10Z</time>
      </trkpt>
      <trkpt lat="46.09185" lon="6.49805">
        <ele>589.3</ele>
        <time>2015-07-15T10:50:24Z</time>
      </trkpt>
      <trkpt lat="46.09182" lon="6.49817">
        <ele>586.8</ele>
        <time>2015-07-15T10:50:32Z</time>
      </trkpt>
      <trkpt lat="46.09179" lon="6.49828">
        <ele>584.3</ele>
        <time>2015-07-15T10:50:43Z</time>
      </trkpt>
      <trkpt lat="46.09175" lon="6.49839">
        <ele>581.9</ele>
        <time>2015-07-15T10:50:51Z</time>
      </trkpt>
      <trkpt lat="46.09177" lon="6.4985">
        <ele>579.5</ele>
        <time>2015-07-15T10:51:00Z</time>
      </trkpt>
      <trkpt lat="46.09175" lon="6.49862">
        <ele>577.8</ele>
        <time>2015-07-15T10:51:12Z</time>
      </trkpt>
      <trkpt lat="46.09174" lon="6.49875">
        <ele>576.3</ele>
        <time>2015-07-15T10:51:21Z</time>
      </trkpt>
      <trkpt lat="46.09176" lon="6.49888">
        <ele>574.7</ele>
        <time>2015-07-15T10:51:28Z</time>
      </trkpt>
      <trkpt lat="46.09171" lon="6.49899">
        <ele>573.2</ele>
        <time>2015-07-15T10:51:36Z</time>
      </trkpt>
      <trkpt lat="46.09175" lon="6.49911">
        <ele>571.6</ele>
        <time>2015-07-15T10:51:46Z</time>
      </trkpt>
      <trkpt lat="46.09178" lon="6.49924">
        <ele>570.1</ele>
        <time>2015-07-15T10:51:54Z</time>
      </trkpt>
      <trkpt lat="46.09179" lon="6.49936">
        <ele>568.8</ele>
        <time>2015-07-15T10:52:01Z</time>
      </trkpt>
      <trkpt lat="46.09179" lon="6.49948">
        <ele>567.6</ele>
        <time>2015-07-15T10:52:08Z</time>
      </trkpt>
      <trkpt lat="46.0918" lon="6.49961">
        <ele>566.4</ele>
        <time>2015-07-15T10:52:14Z</time>
      </trkpt>
      <trkpt lat="46.09182" lon="6.49975">
        <ele>565.5</ele>
        <time>2015-07-15T10:52:22Z</time>
      </trkpt>
      <trkpt lat="46.09183" lon="6.49986">
        <ele>564.6</ele>
        <time>2015-07-15T10:52:27Z</time>
      </trkpt>
      <trkpt lat="46.09185" lon="6.49998">
        <ele>563.7</ele>
        <time>2015-07-15T10:52:32Z</time>
      </trkpt>
      <trkpt lat="46.09188" lon="6.50009">
        <ele>562.8</ele>
        <time>2015-07-15T10:52:37Z</time>
      </trkpt>
      <trkpt lat="46.09189" lon="6.50021">
        <ele>561.9</ele>
        <time>2015-07-15T10:52:42Z</time>
      </trkpt>
      <trkpt lat="46.09192" lon="6.50034">
        <ele>561</ele>
        <time>2015-07-15T10:52:47Z</time>
      </trkpt>
      <trkpt lat="46.09195" lon="6.50046">
        <ele>560.2</ele>
        <time>2015-07-15T10:52:53Z</time>
      </trkpt>
      <trkpt lat="46.09194" lon="6.50058">
        <ele>559.2</ele>
        <time>2015-07-15T10:52:59Z</time>
      </trkpt>
      <trkpt lat="46.09192" lon="6.50071">
        <ele>558</ele>
        <time>2015-07-15T10:53:05Z</time>
      </trkpt>
      <trkpt lat="46.09188" lon="6.50084">
        <ele>556.9</ele>
        <time>2015-07-15T10:53:10Z</time>
      </trkpt>
      <trkpt lat="46.09186" lon="6.50096">
        <ele>555.8</ele>
        <time>2015-07-15T10:53:17Z</time>
      </trkpt>
      <trkpt lat="46.09182" lon="6.50107">
        <ele>554.4</ele>
        <time>2015-07-15T10:53:23Z</time>
      </trkpt>
      <trkpt lat="46.09182" lon="6.50119">
        <ele>552.9</ele>
        <time>2015-07-15T10:53:29Z</time>
      </trkpt>
      <trkpt lat="46.09179" lon="6.50131">
        <ele>551.3</ele>
        <time>2015-07-15T10:53:35Z</time>
      </trkpt>
      <trkpt lat="46.09175" lon="6.50142">
        <ele>549.7</ele>
        <time>2015-07-15T10:53:42Z</time>
      </trkpt>
      <trkpt lat="46.09171" lon="6.50153">
        <ele>548.2</ele>
        <time>2015-07-15T10:53:50Z</time>
      </trkpt>
      <trkpt lat="46.09176" lon="6.50165">
        <ele>546.7</ele>
        <time>2015-07-15T10:54:01Z</time>
      </trkpt>
      <trkpt lat="46.09182" lon="6.50173">
        <ele>545.7</ele>
        <time>2015-07-15T10:54:08Z</time>
      </trkpt>
      <trkpt lat="46.09187" lon="6.50184">
        <ele>544.9</ele>
        <time>2015-07-15T10:54:15Z</time>
      </trkpt>
      <trkpt lat="46.0919" lon="6.50195">
        <ele>544.2</ele>
        <time>2015-07-15T10:54:25Z</time>
      </trkpt>
      <trkpt lat="46.09198" lon="6.50199">
        <ele>543.3</ele>
        <time>2015-07-15T10:54:32Z</time>
      </trkpt>
      <trkpt lat="46.09198" lon="6.50199">
        <ele>542.3</ele>
        <time>2015-07-15T10:54:32Z</time>
      </trkpt>
    </trkseg>
  </trk>
</gpx>